Provisional Data: Pine Creek near Telescope, PA


Please select a monitoring station.
Please select start date.
Please select start date.

Toggle Unit: C/F Toggle Unit: C/F
Sample Time Temperature (C) Temperature (F) Specific Conductivity (mS/cm) pH   Turbidity (NTU+) DO (mg/L)
9/6/2021 12:00:00 AM 13.48 56.264 0.078 7.02 1.01 9.79
9/6/2021 12:15:00 AM 13.44 56.192 0.079 7.03 1.06 9.79
9/6/2021 12:30:00 AM 13.41 56.138 0.079 7.01 0.99 9.8
9/6/2021 12:45:00 AM 13.38 56.084 0.079 7.02 1.03 9.81
9/6/2021 1:00:00 AM 13.35 56.03 0.079 7.03 0.98 9.81
9/6/2021 1:15:00 AM 13.32 55.976 0.079 7.03 1.07 9.82
9/6/2021 1:30:00 AM 13.29 55.922 0.079 7.02 1.01 9.83
9/6/2021 1:45:00 AM 13.26 55.868 0.079 7.03 0.94 9.84
9/6/2021 2:00:00 AM 13.23 55.814 0.079 7.02 0.94 9.84
9/6/2021 2:15:00 AM 13.2 55.76 0.079 7.02 0.97 9.85
9/6/2021 2:30:00 AM 13.17 55.706 0.079 7.03 0.96 9.85
9/6/2021 2:45:00 AM 13.14 55.652 0.079 7.02 0.97 9.86
9/6/2021 3:00:00 AM 13.1 55.58 0.079 7.03 0.95 9.87
9/6/2021 3:15:00 AM 13.07 55.526 0.079 6.99 0.94 9.87
9/6/2021 3:30:00 AM 13.04 55.472 0.079 7.02 0.92 9.88
9/6/2021 3:45:00 AM 13.01 55.418 0.079 7.02 0.93 9.88
9/6/2021 4:00:00 AM 12.98 55.364 0.079 7.02 0.97 9.89
9/6/2021 4:15:00 AM 12.94 55.292 0.079 7.01 0.91 9.9
9/6/2021 4:30:00 AM 12.91 55.238 0.079 7.02 0.87 9.91
9/6/2021 4:45:00 AM 12.87 55.166 0.079 7.02 0.92 9.92
9/6/2021 5:00:00 AM 12.83 55.094 0.079 7.02 0.9 9.92
9/6/2021 5:15:00 AM 12.79 55.022 0.079 7.02 0.87 9.93
9/6/2021 5:30:00 AM 12.75 54.95 0.079 7.01 0.88 9.95
9/6/2021 5:45:00 AM 12.71 54.878 0.079 7 0.88 9.95
9/6/2021 6:00:00 AM 12.67 54.806 0.079 7.02 3.42 9.96
9/6/2021 6:15:00 AM 12.63 54.734 0.079 7.01 1.98 9.98
9/6/2021 6:30:00 AM 12.58 54.644 0.073 6.99 2.58 9.99
9/6/2021 6:45:00 AM 12.52 54.536 0.078 7.01 1.01 10.01
9/6/2021 7:00:00 AM 12.47 54.446 0.078 7.01 0.98 10.04
9/6/2021 7:15:00 AM 12.43 54.374 0.078 7 1.02 10.07
9/6/2021 7:30:00 AM 12.38 54.284 0.078 7.04 1.03 10.12
9/6/2021 7:45:00 AM 12.36 54.248 0.074 7.03 2.33 10.19
9/6/2021 8:00:00 AM 12.34 54.212 0.078 7.06 0.95 10.22
9/6/2021 8:15:00 AM 12.31 54.158 0.078 7.06 0.93 10.23
9/6/2021 8:30:00 AM 12.3 54.14 0.078 7.05 0.87 10.25
9/6/2021 8:45:00 AM 12.28 54.104 0.078 7.03 0.85 10.28
9/6/2021 9:00:00 AM 12.29 54.122 0.078 7.11 0.89 10.37
9/6/2021 9:15:00 AM 12.32 54.176 0.078 7.13 0.83 10.43
9/6/2021 9:30:00 AM 12.38 54.284 0.078 7.17 0.9 10.48
9/6/2021 9:45:00 AM 12.45 54.41 0.078 7.18 0.87 10.51
9/6/2021 10:00:00 AM 12.54 54.572 0.078 7.19 0.87 10.53
9/6/2021 10:15:00 AM 12.65 54.77 0.078 7.23 0.87 10.54
9/6/2021 10:30:00 AM 12.76 54.968 0.078 7.25 0.87 10.56
9/6/2021 10:45:00 AM 12.86 55.148 0.078 7.26 0.81 10.55
9/6/2021 11:00:00 AM 12.94 55.292 0.078 7.27 0.85 10.55
9/6/2021 11:15:00 AM 13.02 55.436 0.075 7.27 2.24 10.55
9/6/2021 11:30:00 AM 13.18 55.724 0.077 7.33 0.78 10.54
9/6/2021 11:45:00 AM 13.19 55.742 0.077 7.3 0.82 10.51
9/6/2021 12:00:00 PM 13.26 55.868 0.078 7.3 0.82 10.48
9/6/2021 12:15:00 PM 13.34 56.012 0.079 7.3 0.89 10.46
9/6/2021 12:30:00 PM 13.43 56.174 0.079 7.32 0.93 10.48
9/6/2021 12:45:00 PM 13.44 56.192 0.079 7.27 0.79 10.35
9/6/2021 1:00:00 PM 13.54 56.372 0.079 7.3 0.81 10.39
9/6/2021 1:15:00 PM 13.71 56.678 0.079 7.35 0.86 10.44
9/6/2021 1:30:00 PM 13.74 56.732 0.078 7.34 0.84 10.42
9/6/2021 1:45:00 PM 13.9 57.02 0.078 7.36 0.86 10.38
9/6/2021 2:00:00 PM 14.02 57.236 0.078 7.31 0.88 10.32
9/6/2021 2:15:00 PM 14.11 57.398 0.078 7.35 0.93 10.3
9/6/2021 2:30:00 PM 14.24 57.632 0.077 7.38 0.85 10.28
9/6/2021 2:45:00 PM 14.32 57.776 0.073 7.31 2.28 10.23
9/6/2021 3:00:00 PM 14.41 57.938 0.077 7.33 0.89 10.17
9/6/2021 3:15:00 PM 14.44 57.992 0.077 7.32 0.91 10.14
9/6/2021 3:30:00 PM 14.49 58.082 0.077 7.31 0.88 10.12
9/6/2021 3:45:00 PM 14.53 58.154 0.072 7.27 2.21 10.06
9/6/2021 4:00:00 PM 14.53 58.154 0.077 7.28 0.89 10.05
9/6/2021 4:15:00 PM 14.56 58.208 0.077 7.27 0.86 10.01
9/6/2021 4:30:00 PM 14.59 58.262 0.077 7.27 0.93 10
9/6/2021 4:45:00 PM 14.62 58.316 0.075 7.23 2.24 9.97
9/6/2021 5:00:00 PM 14.63 58.334 0.077 7.25 0.85 9.95
9/6/2021 5:15:00 PM 14.61 58.298 0.077 7.22 0.87 9.92
9/6/2021 5:30:00 PM 14.59 58.262 0.077 7.2 0.89 9.88
9/6/2021 5:45:00 PM 14.57 58.226 0.077 7.19 0.91 9.86
9/6/2021 6:00:00 PM 14.56 58.208 0.075 7.17 2.2 9.85
9/6/2021 6:15:00 PM 14.54 58.172 0.077 7.17 0.86 9.83
9/6/2021 6:30:00 PM 14.52 58.136 0.077 7.15 0.92 9.8
9/6/2021 6:45:00 PM 14.5 58.1 0.077 7.15 0.96 9.78
9/6/2021 7:00:00 PM 14.46 58.028 0.078 7.12 0.88 9.75
9/6/2021 7:15:00 PM 14.4 57.92 0.078 7.11 0.94 9.73
9/6/2021 7:30:00 PM 14.34 57.812 0.078 7.1 1 9.71
9/6/2021 7:45:00 PM 14.27 57.686 0.076 7.07 2.22 9.68
9/6/2021 8:00:00 PM 14.21 57.578 0.078 7.06 0.95 9.67
9/6/2021 8:15:00 PM 14.14 57.452 0.078 7.06 1.02 9.67
9/6/2021 8:30:00 PM 14.07 57.326 0.079 7.05 0.97 9.66
9/6/2021 8:45:00 PM 13.99 57.182 0.074 7.02 2.28 9.67
9/6/2021 9:00:00 PM 13.92 57.056 0.079 7.02 1.03 9.68
9/6/2021 9:15:00 PM 13.85 56.93 0.079 7.03 1.04 9.7
9/6/2021 9:30:00 PM 13.76 56.768 0.079 7.03 1 9.72
9/6/2021 9:45:00 PM 13.68 56.624 0.079 7.02 0.97 9.73
9/6/2021 10:00:00 PM 13.59 56.462 0.077 7 2.24 9.76
9/6/2021 10:15:00 PM 13.5 56.3 0.079 7.01 0.92 9.77
9/6/2021 10:30:00 PM 13.42 56.156 0.079 7.02 0.96 9.79
9/6/2021 10:45:00 PM 13.34 56.012 0.079 7.02 0.9 9.81
9/6/2021 11:00:00 PM 13.26 55.868 0.079 7.02 0.89 9.83
9/6/2021 11:15:00 PM 13.18 55.724 0.078 7.01 2.38 9.86
9/6/2021 11:30:00 PM 13.11 55.598 0.08 7.01 0.9 9.87
9/6/2021 11:45:00 PM 13.03 55.454 0.08 7.01 0.87 9.89
9/7/2021 12:00:00 AM 12.95 55.31 0.08 7.02 0.84 9.91
9/7/2021 12:15:00 AM 12.88 55.184 0.08 7.01 0.85 9.92
9/7/2021 12:30:00 AM 12.8 55.04 0.08 7.01 0.86 9.94
9/7/2021 12:45:00 AM 12.73 54.914 0.08 7.01 0.87 9.96
9/7/2021 1:00:00 AM 12.65 54.77 0.08 7 0.87 9.98
9/7/2021 1:15:00 AM 12.58 54.644 0.08 7.01 0.87 9.99
9/7/2021 1:30:00 AM 12.51 54.518 0.08 7.01 0.83 10.01
9/7/2021 1:45:00 AM 12.44 54.392 0.08 7 0.85 10.03
9/7/2021 2:00:00 AM 12.37 54.266 0.08 7.01 0.87 10.05
9/7/2021 2:15:00 AM 12.3 54.14 0.08 7 0.83 10.07
9/7/2021 2:30:00 AM 12.24 54.032 0.08 7.01 0.81 10.09
9/7/2021 2:45:00 AM 12.17 53.906 0.08 7.01 0.82 10.1
9/7/2021 3:00:00 AM 12.11 53.798 0.08 7.01 0.78 10.11
9/7/2021 3:15:00 AM 12.05 53.69 0.08 7.01 0.83 10.13
9/7/2021 3:30:00 AM 11.98 53.564 0.08 7.02 0.83 10.15
9/7/2021 3:45:00 AM 11.92 53.456 0.08 7.01 0.83 10.16
9/7/2021 4:00:00 AM 11.87 53.366 0.08 7.01 0.82 10.18
9/7/2021 4:15:00 AM 11.81 53.258 0.08 7.01 0.82 10.19
9/7/2021 4:30:00 AM 11.77 53.186 0.08 7.02 0.82 10.21
9/7/2021 4:45:00 AM 11.72 53.096 0.08 7.01 0.84 10.22
9/7/2021 5:00:00 AM 11.68 53.024 0.08 7.01 0.8 10.23
9/7/2021 5:15:00 AM 11.64 52.952 0.08 7.01 0.77 10.24
9/7/2021 5:30:00 AM 11.6 52.88 0.08 7.01 0.83 10.26
9/7/2021 5:45:00 AM 11.57 52.826 0.08 7.02 0.81 10.27
9/7/2021 6:00:00 AM 11.53 52.754 0.08 6.98 0.83 10.28
9/7/2021 6:15:00 AM 11.5 52.7 0.08 7.02 0.79 10.29
9/7/2021 6:30:00 AM 11.46 52.628 0.08 7.02 0.77 10.3
9/7/2021 6:45:00 AM 11.43 52.574 0.08 7.03 0.85 10.31
9/7/2021 7:00:00 AM 11.39 52.502 0.08 7.03 0.9 10.34
9/7/2021 7:15:00 AM 11.36 52.448 0.08 7.04 0.87 10.39
9/7/2021 7:30:00 AM 11.33 52.394 0.08 7.06 0.84 10.44
9/7/2021 7:45:00 AM 11.31 52.358 0.08 7.06 0.8 10.5
9/7/2021 8:00:00 AM 11.3 52.34 0.08 7.08 0.9 10.56
9/7/2021 8:15:00 AM 11.29 52.322 0.08 7.11 0.9 10.64
9/7/2021 8:30:00 AM 11.29 52.322 0.08 7.13 0.85 10.71
9/7/2021 8:45:00 AM 11.29 52.322 0.08 7.15 0.8 10.76
9/7/2021 9:00:00 AM 11.3 52.34 0.08 7.18 0.74 10.79
9/7/2021 9:15:00 AM 11.35 52.43 0.08 7.2 0.77 10.84
9/7/2021 9:30:00 AM 11.41 52.538 0.08 7.22 0.72 10.83
9/7/2021 9:45:00 AM 11.48 52.664 0.08 7.23 0.79 10.83
9/7/2021 10:00:00 AM 11.57 52.826 0.08 7.24 0.76 10.84
9/7/2021 10:15:00 AM 11.69 53.042 0.079 7.26 0.73 10.86
9/7/2021 10:30:00 AM 11.82 53.276 0.079 7.28 0.76 10.87
9/7/2021 10:45:00 AM 11.96 53.528 0.079 7.3 0.72 10.86
9/7/2021 11:00:00 AM 12.1 53.78 0.079 7.3 0.73 10.84
9/7/2021 11:15:00 AM 12.25 54.05 0.079 7.33 0.76 10.81
9/7/2021 11:30:00 AM 12.39 54.302 0.079 7.33 0.72 10.78
9/7/2021 11:45:00 AM 12.55 54.59 0.079 7.31 0.75 10.75
9/7/2021 12:00:00 PM 12.71 54.878 0.079 7.36 0.78 10.7
9/7/2021 12:15:00 PM 12.88 55.184 0.079 7.36 0.73 10.64
9/7/2021 12:30:00 PM 13.07 55.526 0.079 7.36 0.74 10.6
9/7/2021 12:45:00 PM 13.26 55.868 0.078 7.36 0.69 10.54
9/7/2021 1:00:00 PM 13.46 56.228 0.078 7.37 0.76 10.49
9/7/2021 1:15:00 PM 13.64 56.552 0.073 7.33 2.2 10.44
9/7/2021 1:30:00 PM 13.81 56.858 0.078 7.37 0.8 10.39
9/7/2021 1:45:00 PM 13.96 57.128 0.078 7.38 0.82 10.35
9/7/2021 2:00:00 PM 14.1 57.38 0.078 7.37 0.81 10.31
9/7/2021 2:15:00 PM 14.24 57.632 0.078 7.38 0.72 10.27
9/7/2021 2:30:00 PM 14.37 57.866 0.078 7.37 0.78 10.22
9/7/2021 2:45:00 PM 14.49 58.082 0.078 7.35 0.83 10.18
9/7/2021 3:00:00 PM 14.61 58.298 0.073 7.34 2.14 10.17
9/7/2021 3:15:00 PM 14.71 58.478 0.078 7.37 0.81 10.14
9/7/2021 3:30:00 PM 14.78 58.604 0.078 7.37 0.87 10.12
9/7/2021 3:45:00 PM 14.83 58.694 0.078 7.35 0.78 10.08
9/7/2021 4:00:00 PM 14.86 58.748 0.078 7.32 0.81 10.01
9/7/2021 4:15:00 PM 14.9 58.82 0.078 7.3 0.78 9.96
9/7/2021 4:30:00 PM 14.95 58.91 0.073 7.24 2.18 9.91
9/7/2021 4:45:00 PM 14.98 58.964 0.078 7.27 0.8 9.87
9/7/2021 5:00:00 PM 15.01 59.018 0.078 7.26 0.78 9.85
9/7/2021 5:15:00 PM 15.03 59.054 0.076 7.22 2.2 9.83
9/7/2021 5:30:00 PM 15.03 59.054 0.078 7.22 0.84 9.81
9/7/2021 5:45:00 PM 15 59 0.078 7.21 0.83 9.78
9/7/2021 6:00:00 PM 14.97 58.946 0.076 7.17 2.1 9.76
9/7/2021 6:15:00 PM 14.95 58.91 0.078 7.17 0.79 9.73
9/7/2021 6:30:00 PM 14.92 58.856 0.074 7.14 2.13 9.7
9/7/2021 6:45:00 PM 14.89 58.802 0.078 7.14 0.85 9.68
9/7/2021 7:00:00 PM 14.85 58.73 0.079 7.12 0.84 9.65
9/7/2021 7:15:00 PM 14.8 58.64 0.079 7.11 0.81 9.63
9/7/2021 7:30:00 PM 14.74 58.532 0.079 7.09 0.79 9.6
9/7/2021 7:45:00 PM 14.68 58.424 0.079 7.07 0.83 9.57
9/7/2021 8:00:00 PM 14.63 58.334 0.079 7.06 0.89 9.56
9/7/2021 8:15:00 PM 14.57 58.226 0.079 7.06 0.85 9.54
9/7/2021 8:30:00 PM 14.52 58.136 0.078 7.04 2.21 9.54
9/7/2021 8:45:00 PM 14.46 58.028 0.08 7.04 0.87 9.54
9/7/2021 9:00:00 PM 14.4 57.92 0.075 7.03 2.32 9.55
9/7/2021 9:15:00 PM 14.34 57.812 0.08 7.03 0.89 9.56
9/7/2021 9:30:00 PM 14.28 57.704 0.08 7.03 0.9 9.57
9/7/2021 9:45:00 PM 14.22 57.596 0.08 7.02 0.84 9.58
9/7/2021 10:00:00 PM 14.16 57.488 0.08 7.03 0.83 9.6
9/7/2021 10:15:00 PM 14.11 57.398 0.081 7.03 0.81 9.61
9/7/2021 10:30:00 PM 14.05 57.29 0.081 7.02 0.9 9.62
9/7/2021 10:45:00 PM 13.99 57.182 0.081 7.02 0.84 9.63
9/7/2021 11:00:00 PM 13.94 57.092 0.081 7 0.8 9.64
9/7/2021 11:15:00 PM 13.88 56.984 0.081 7.02 0.79 9.66
9/7/2021 11:30:00 PM 13.82 56.876 0.081 7.02 0.81 9.67
9/7/2021 11:45:00 PM 13.77 56.786 0.081 7.02 0.84 9.67
9/8/2021 12:00:00 AM 13.71 56.678 0.081 7.02 0.77 9.68
9/8/2021 12:15:00 AM 13.66 56.588 0.081 7.02 0.79 9.7
9/8/2021 12:30:00 AM 13.61 56.498 0.081 7.02 0.83 9.71
9/8/2021 12:45:00 AM 13.56 56.408 0.081 7.02 0.83 9.72
9/8/2021 1:00:00 AM 13.51 56.318 0.077 7 2.2 9.73
9/8/2021 1:15:00 AM 13.47 56.246 0.081 7.01 0.77 9.74
9/8/2021 1:30:00 AM 13.42 56.156 0.078 7 2.19 9.75
9/8/2021 1:45:00 AM 13.38 56.084 0.081 7.01 0.78 9.76
9/8/2021 2:00:00 AM 13.34 56.012 0.081 7.01 0.76 9.77
9/8/2021 2:15:00 AM 13.3 55.94 0.082 7.01 0.78 9.78
9/8/2021 2:30:00 AM 13.25 55.85 0.082 6.96 0.75 9.79
9/8/2021 2:45:00 AM 13.21 55.778 0.082 7.01 0.76 9.79
9/8/2021 3:00:00 AM 13.17 55.706 0.082 7.01 0.78 9.8
9/8/2021 3:15:00 AM 13.14 55.652 0.082 7.01 0.76 9.81
9/8/2021 3:30:00 AM 13.1 55.58 0.082 7.01 0.73 9.82
9/8/2021 3:45:00 AM 13.06 55.508 0.08 7 2.26 9.82
9/8/2021 4:00:00 AM 13.03 55.454 0.082 7.01 0.77 9.83
9/8/2021 4:15:00 AM 12.99 55.382 0.082 7 0.79 9.84
9/8/2021 4:30:00 AM 12.96 55.328 0.082 7.01 0.76 9.85
9/8/2021 4:45:00 AM 12.93 55.274 0.082 7 0.77 9.85
9/8/2021 5:00:00 AM 12.9 55.22 0.082 7.01 0.79 9.86
9/8/2021 5:15:00 AM 12.87 55.166 0.082 6.98 0.72 9.87
9/8/2021 5:30:00 AM 12.83 55.094 0.082 6.97 0.79 9.87
9/8/2021 5:45:00 AM 12.8 55.04 0.082 7.01 0.77 9.87
9/8/2021 6:00:00 AM 12.77 54.986 0.082 7 0.81 9.89
9/8/2021 6:15:00 AM 12.75 54.95 0.082 7.01 0.84 9.9
9/8/2021 6:30:00 AM 12.73 54.914 0.082 7 0.83 9.9
9/8/2021 6:45:00 AM 12.71 54.878 0.082 7 0.99 9.9
9/8/2021 7:00:00 AM 12.69 54.842 0.082 7.01 0.94 9.93
9/8/2021 7:15:00 AM 12.68 54.824 0.077 7 3.26 9.96
9/8/2021 7:30:00 AM 12.67 54.806 0.082 7.03 2.57 9.99
9/8/2021 7:45:00 AM 12.66 54.788 0.082 7.04 1.12 10.03
9/8/2021 8:00:00 AM 12.65 54.77 0.082 7.05 0.9 10.07
9/8/2021 8:15:00 AM 12.67 54.806 0.081 7.09 0.92 10.16
9/8/2021 8:30:00 AM 12.7 54.86 0.081 7.12 0.85 10.25
9/8/2021 8:45:00 AM 12.73 54.914 0.081 7.14 0.8 10.32
9/8/2021 9:00:00 AM 12.77 54.986 0.081 7.17 0.76 10.38
9/8/2021 9:15:00 AM 12.83 55.094 0.081 7.21 0.75 10.47
9/8/2021 9:30:00 AM 12.86 55.148 0.081 7.21 0.79 10.45
9/8/2021 9:45:00 AM 12.93 55.274 0.081 7.26 0.75 10.51
9/8/2021 10:00:00 AM 13.03 55.454 0.08 7.31 0.76 10.56
9/8/2021 10:15:00 AM 13.21 55.778 0.076 7.36 2.17 10.61
9/8/2021 10:30:00 AM 13.35 56.03 0.08 7.42 0.73 10.63
9/8/2021 10:45:00 AM 13.38 56.084 0.08 7.38 0.73 10.54
9/8/2021 11:00:00 AM 13.48 56.264 0.075 7.38 2.11 10.54
9/8/2021 11:15:00 AM 13.59 56.462 0.08 7.45 0.73 10.56
9/8/2021 11:30:00 AM 13.61 56.498 0.08 7.44 0.78 10.56
9/8/2021 11:45:00 AM 13.63 56.534 0.08 7.43 0.79 10.51
9/8/2021 12:00:00 PM 13.73 56.714 0.079 7.47 0.78 10.53
9/8/2021 12:15:00 PM 13.78 56.804 0.079 7.43 0.8 10.46
9/8/2021 12:30:00 PM 13.82 56.876 0.074 7.4 2.15 10.44
9/8/2021 12:45:00 PM 13.83 56.894 0.075 7.35 2.16 10.35
9/8/2021 1:00:00 PM 13.82 56.876 0.074 7.28 2.12 10.2
9/8/2021 1:15:00 PM 13.82 56.876 0.079 7.25 0.93 10.13
9/8/2021 1:30:00 PM 13.82 56.876 0.079 7.23 0.93 10.06
9/8/2021 1:45:00 PM 13.81 56.858 0.074 7.17 2.27 10.03
9/8/2021 2:00:00 PM 13.81 56.858 0.079 7.21 0.87 10.05
9/8/2021 2:15:00 PM 13.84 56.912 0.079 7.25 0.82 10.15
9/8/2021 2:30:00 PM 13.87 56.966 0.079 7.28 0.84 10.18
9/8/2021 2:45:00 PM 13.9 57.02 0.079 7.31 0.77 10.23
9/8/2021 3:00:00 PM 13.92 57.056 0.079 7.28 0.86 10.17
9/8/2021 3:15:00 PM 13.96 57.128 0.074 7.26 2.26 10.19
9/8/2021 3:30:00 PM 13.96 57.128 0.079 7.27 0.89 10.14
9/8/2021 3:45:00 PM 13.98 57.164 0.079 7.26 0.89 10.14
9/8/2021 4:00:00 PM 14.01 57.218 0.079 7.32 0.88 10.21
9/8/2021 4:15:00 PM 14.03 57.254 0.078 7.32 0.86 10.21
9/8/2021 4:30:00 PM 14.05 57.29 0.078 7.31 0.92 10.21
9/8/2021 4:45:00 PM 14.06 57.308 0.079 7.28 0.86 10.15
9/8/2021 5:00:00 PM 14.05 57.29 0.079 7.24 0.87 10.08
9/8/2021 5:15:00 PM 14.05 57.29 0.079 7.25 0.87 10.1
9/8/2021 5:30:00 PM 14.06 57.308 0.079 7.26 0.88 10.12
9/8/2021 5:45:00 PM 14.1 57.38 0.079 7.29 0.96 10.17
9/8/2021 6:00:00 PM 14.09 57.362 0.079 7.26 0.87 10.08
9/8/2021 6:15:00 PM 14.08 57.344 0.075 7.2 2.24 9.99
9/8/2021 6:30:00 PM 14.07 57.326 0.079 7.19 0.94 9.98
9/8/2021 6:45:00 PM 14.05 57.29 0.08 7.16 0.89 9.94
9/8/2021 7:00:00 PM 14.03 57.254 0.075 7.12 2.28 9.88
9/8/2021 7:15:00 PM 14.02 57.236 0.08 7.12 0.94 9.83
9/8/2021 7:30:00 PM 14 57.2 0.08 7.1 0.98 9.78
9/8/2021 7:45:00 PM 13.98 57.164 0.081 7.07 1.09 9.72
9/8/2021 8:00:00 PM 13.96 57.128 0.081 7.06 1.06 9.7
9/8/2021 8:15:00 PM 13.94 57.092 0.081 7.04 0.99 9.68
9/8/2021 8:30:00 PM 13.91 57.038 0.077 7.01 2.3 9.67
9/8/2021 8:45:00 PM 13.89 57.002 0.077 7.01 2.24 9.66
9/8/2021 9:00:00 PM 13.86 56.948 0.081 7.04 0.94 9.66
9/8/2021 9:15:00 PM 13.83 56.894 0.081 7.03 0.93 9.66
9/8/2021 9:30:00 PM 13.8 56.84 0.081 7.01 0.94 9.67
9/8/2021 9:45:00 PM 13.77 56.786 0.077 7.02 2.3 9.67
9/8/2021 10:00:00 PM 13.73 56.714 0.081 7.04 0.85 9.68
9/8/2021 10:15:00 PM 13.69 56.642 0.081 6.99 0.83 9.68
9/8/2021 10:30:00 PM 13.66 56.588 0.081 7 0.87 9.69
9/8/2021 10:45:00 PM 13.62 56.516 0.079 7.04 2.18 9.69
9/8/2021 11:00:00 PM 13.58 56.444 0.081 7.04 0.92 9.7
9/8/2021 11:15:00 PM 13.54 56.372 0.081 7.04 0.82 9.71
9/8/2021 11:30:00 PM 13.51 56.318 0.081 7.04 0.9 9.72
9/8/2021 11:45:00 PM 13.47 56.246 0.081 7.05 0.85 9.73
9/9/2021 12:00:00 AM 13.43 56.174 0.082 7.03 0.77 9.74
9/9/2021 12:15:00 AM 13.39 56.102 0.077 7.03 2.25 9.75
9/9/2021 12:30:00 AM 13.35 56.03 0.082 7.04 0.81 9.76
9/9/2021 12:45:00 AM 13.3 55.94 0.082 6.99 0.82 9.77
9/9/2021 1:00:00 AM 13.26 55.868 0.082 7.05 0.8 9.78
9/9/2021 1:15:00 AM 13.23 55.814 0.079 7.03 2.28 9.79
9/9/2021 1:30:00 AM 13.19 55.742 0.081 7.04 0.79 9.8
9/9/2021 1:45:00 AM 13.16 55.688 0.081 7.04 0.72 9.81
9/9/2021 2:00:00 AM 13.13 55.634 0.081 7.04 0.82 9.81
9/9/2021 2:15:00 AM 13.11 55.598 0.081 7.04 0.79 9.82
9/9/2021 2:30:00 AM 13.08 55.544 0.081 7.05 0.81 9.83
9/9/2021 2:45:00 AM 13.05 55.49 0.076 7.03 2.24 9.84
9/9/2021 3:00:00 AM 13.02 55.436 0.076 7.03 2 9.84
9/9/2021 3:15:00 AM 12.99 55.382 0.081 7.05 0.8 9.85
9/9/2021 3:30:00 AM 12.96 55.328 0.081 7.04 1.01 9.86
9/9/2021 3:45:00 AM 12.94 55.292 0.081 7.05 0.86 9.87
9/9/2021 4:00:00 AM 12.92 55.256 0.081 7.05 0.78 9.87
9/9/2021 4:15:00 AM 12.89 55.202 0.076 7.03 2.22 9.88
9/9/2021 4:30:00 AM 12.87 55.166 0.081 7.04 0.79 9.89
9/9/2021 4:45:00 AM 12.85 55.13 0.081 7.05 0.75 9.89
9/9/2021 5:00:00 AM 12.83 55.094 0.081 7.04 0.79 9.9
9/9/2021 5:15:00 AM 12.8 55.04 0.079 7.04 2.19 9.9
9/9/2021 5:30:00 AM 12.78 55.004 0.081 7.05 0.77 9.91
9/9/2021 5:45:00 AM 12.75 54.95 0.081 7.04 0.78 9.91
9/9/2021 6:00:00 AM 12.73 54.914 0.081 7.05 0.76 9.91
9/9/2021 6:15:00 AM 12.71 54.878 0.081 7.05 0.75 9.91
9/9/2021 6:30:00 AM 12.68 54.824 0.081 7.01 0.82 9.91
9/9/2021 6:45:00 AM 12.67 54.806 0.079 7.04 2.12 9.91
9/9/2021 7:00:00 AM 12.66 54.788 0.081 7.05 2.68 9.93
9/9/2021 7:15:00 AM 12.65 54.77 0.081 7.05 1.39 9.95
9/9/2021 7:30:00 AM 12.64 54.752 0.081 7.05 0.91 9.97
9/9/2021 7:45:00 AM 12.63 54.734 0.079 7.05 2.34 9.99
9/9/2021 8:00:00 AM 12.62 54.716 0.081 7.07 0.79 10.04
9/9/2021 8:15:00 AM 12.61 54.698 0.081 7.09 0.74 10.08
9/9/2021 8:30:00 AM 12.61 54.698 0.076 7.07 2.23 10.09
9/9/2021 8:45:00 AM 12.6 54.68 0.081 7.09 0.75 10.11
9/9/2021 9:00:00 AM 12.63 54.734 0.081 7.13 0.77 10.23
9/9/2021 9:15:00 AM 12.7 54.86 0.081 7.19 0.79 10.38
9/9/2021 9:30:00 AM 12.77 54.986 0.08 7.23 0.78 10.49
9/9/2021 9:45:00 AM 12.8 55.04 0.08 7.26 0.74 10.53
9/9/2021 10:00:00 AM 12.88 55.184 0.08 7.31 0.77 10.57
9/9/2021 10:15:00 AM 13 55.4 0.08 7.36 0.76 10.62
9/9/2021 10:30:00 AM 13.14 55.652 0.08 7.4 0.73 10.66
9/9/2021 10:45:00 AM 13.23 55.814 0.08 7.42 0.75 10.67
9/9/2021 11:00:00 AM 13.25 55.85 0.08 7.43 0.7 10.65
9/9/2021 11:15:00 AM 13.3 55.94 0.08 7.42 0.73 10.62
9/9/2021 11:30:00 AM 13.43 56.174 0.079 7.46 0.78 10.64
9/9/2021 11:45:00 AM 13.56 56.408 0.079 7.51 0.76 10.65
9/9/2021 12:00:00 PM 13.5 56.3 0.079 7.46 0.74 10.61
9/9/2021 12:15:00 PM 13.66 56.588 0.079 7.5 0.75 10.65
9/9/2021 12:30:00 PM 13.69 56.642 0.079 7.55 0.74 10.65
9/9/2021 12:45:00 PM 13.78 56.804 0.079 7.58 0.74 10.65
9/9/2021 1:00:00 PM 13.9 57.02 0.079 7.6 0.72 10.61
9/9/2021 1:15:00 PM 13.99 57.182 0.077 7.57 2.21 10.58
9/9/2021 1:30:00 PM 14.14 57.452 0.079 7.59 0.74 10.51
9/9/2021 1:45:00 PM 14.24 57.632 0.079 7.54 0.75 10.41
9/9/2021 2:00:00 PM 14.38 57.884 0.079 7.54 0.76 10.39
9/9/2021 2:15:00 PM 14.55 58.19 0.074 7.55 2.25 10.39
9/9/2021 2:30:00 PM 14.67 58.406 0.078 7.56 0.76 10.32
9/9/2021 2:45:00 PM 14.76 58.568 0.078 7.56 0.77 10.3
9/9/2021 3:00:00 PM 14.78 58.604 0.079 7.51 0.74 10.24
9/9/2021 3:15:00 PM 14.83 58.694 0.079 7.54 0.76 10.24
9/9/2021 3:30:00 PM 14.84 58.712 0.079 7.52 0.74 10.24
9/9/2021 3:45:00 PM 14.84 58.712 0.079 7.46 0.73 10.18
9/9/2021 4:00:00 PM 14.87 58.766 0.079 7.5 0.73 10.19
9/9/2021 4:15:00 PM 14.85 58.73 0.079 7.43 0.73 10.09
9/9/2021 4:30:00 PM 14.82 58.676 0.079 7.37 0.79 9.99
9/9/2021 4:45:00 PM 14.81 58.658 0.079 7.35 0.8 9.96
9/9/2021 5:00:00 PM 14.84 58.712 0.079 7.37 0.82 10.01
9/9/2021 5:15:00 PM 14.83 58.694 0.079 7.34 0.8 9.95
9/9/2021 5:30:00 PM 14.81 58.658 0.079 7.32 0.76 9.91
9/9/2021 5:45:00 PM 14.78 58.604 0.079 7.29 0.76 9.87
9/9/2021 6:00:00 PM 14.73 58.514 0.079 7.26 0.8 9.83
9/9/2021 6:15:00 PM 14.69 58.442 0.079 7.24 0.77 9.8
9/9/2021 6:30:00 PM 14.65 58.37 0.08 7.22 0.78 9.77
9/9/2021 6:45:00 PM 14.6 58.28 0.08 7.2 0.77 9.73
9/9/2021 7:00:00 PM 14.55 58.19 0.08 7.18 0.79 9.71
9/9/2021 7:15:00 PM 14.49 58.082 0.08 7.12 0.83 9.68
9/9/2021 7:30:00 PM 14.42 57.956 0.08 7.11 0.76 9.64
9/9/2021 7:45:00 PM 14.35 57.83 0.08 7.12 0.79 9.61
9/9/2021 8:00:00 PM 14.29 57.722 0.078 7.1 2.27 9.6
9/9/2021 8:15:00 PM 14.22 57.596 0.081 7.09 0.81 9.59
9/9/2021 8:30:00 PM 14.14 57.452 0.081 7.09 0.82 9.59
9/9/2021 8:45:00 PM 14.07 57.326 0.076 7.06 2.4 9.59
9/9/2021 9:00:00 PM 14.01 57.218 0.081 7.08 0.83 9.61
9/9/2021 9:15:00 PM 13.94 57.092 0.076 7.06 2.19 9.61
9/9/2021 9:30:00 PM 13.88 56.984 0.081 7.07 0.8 9.63
9/9/2021 9:45:00 PM 13.81 56.858 0.082 7.07 0.79 9.64
9/9/2021 10:00:00 PM 13.74 56.732 0.077 7.05 2.18 9.65
9/9/2021 10:15:00 PM 13.67 56.606 0.082 7.06 0.79 9.67
9/9/2021 10:30:00 PM 13.6 56.48 0.08 7.06 2.21 9.69
9/9/2021 10:45:00 PM 13.52 56.336 0.082 7.06 0.78 9.7
9/9/2021 11:00:00 PM 13.45 56.21 0.082 7.06 0.74 9.72
9/9/2021 11:15:00 PM 13.38 56.084 0.082 7.06 0.75 9.74
9/9/2021 11:30:00 PM 13.3 55.94 0.08 7.05 2.26 9.76
9/9/2021 11:45:00 PM 13.23 55.814 0.08 7.05 2.19 9.77
9/10/2021 12:00:00 AM 13.16 55.688 0.082 7.05 0.78 9.79
9/10/2021 12:15:00 AM 13.09 55.562 0.08 7.04 2.14 9.8
9/10/2021 12:30:00 AM 13.03 55.454 0.078 7.03 2.13 9.82
9/10/2021 12:45:00 AM 12.98 55.364 0.082 7.05 0.69 9.84
9/10/2021 1:00:00 AM 12.93 55.274 0.082 7.05 0.77 9.85
9/10/2021 1:15:00 AM 12.89 55.202 0.082 7.04 0.78 9.86
9/10/2021 1:30:00 AM 12.85 55.13 0.082 7.05 0.78 9.86
9/10/2021 1:45:00 AM 12.82 55.076 0.082 7.06 0.72 9.87
9/10/2021 2:00:00 AM 12.79 55.022 0.083 7.06 0.77 9.89
9/10/2021 2:15:00 AM 12.75 54.95 0.083 7.02 0.69 9.89
9/10/2021 2:30:00 AM 12.71 54.878 0.083 7.05 0.73 9.91
9/10/2021 2:45:00 AM 12.68 54.824 0.083 7.05 0.76 9.92
9/10/2021 3:00:00 AM 12.65 54.77 0.083 7.05 0.74 9.92
9/10/2021 3:15:00 AM 12.62 54.716 0.083 7.05 0.74 9.94
9/10/2021 3:30:00 AM 12.59 54.662 0.078 7.04 2.19 9.93
9/10/2021 3:45:00 AM 12.56 54.608 0.083 7.05 0.71 9.95
9/10/2021 4:00:00 AM 12.54 54.572 0.083 7.06 0.74 9.96
9/10/2021 4:15:00 AM 12.51 54.518 0.081 7.05 2.21 9.97
9/10/2021 4:30:00 AM 12.49 54.482 0.083 7.05 0.7 9.96
9/10/2021 4:45:00 AM 12.48 54.464 0.083 7.05 0.64 9.98
9/10/2021 5:00:00 AM 12.46 54.428 0.083 7.05 0.7 9.98
9/10/2021 5:15:00 AM 12.45 54.41 0.083 7.05 0.73 9.99
9/10/2021 5:30:00 AM 12.43 54.374 0.083 7.05 0.75 9.99
9/10/2021 5:45:00 AM 12.41 54.338 0.083 7.05 2.32 10
9/10/2021 6:00:00 AM 12.39 54.302 0.083 7.06 1.53 10.01
9/10/2021 6:15:00 AM 12.38 54.284 0.083 7.06 0.87 10.01
9/10/2021 6:30:00 AM 12.36 54.248 0.083 7.06 0.8 10.01
9/10/2021 6:45:00 AM 12.34 54.212 0.083 7.06 0.78 10.03
9/10/2021 7:00:00 AM 12.32 54.176 0.083 7.07 0.74 10.05
9/10/2021 7:15:00 AM 12.31 54.158 0.083 7.09 0.77 10.1
9/10/2021 7:30:00 AM 12.31 54.158 0.083 7.1 1.64 10.15
9/10/2021 7:45:00 AM 12.31 54.158 0.083 7.11 1.49 10.17
9/10/2021 8:00:00 AM 12.32 54.176 0.081 7.11 2.4 10.2
9/10/2021 8:15:00 AM 12.33 54.194 0.081 7.13 2.18 10.26
9/10/2021 8:30:00 AM 12.35 54.23 0.083 7.16 0.81 10.3
9/10/2021 8:45:00 AM 12.38 54.284 0.082 7.2 0.75 10.4
9/10/2021 9:00:00 AM 12.41 54.338 0.082 7.23 0.7 10.47
9/10/2021 9:15:00 AM 12.43 54.374 0.082 7.25 0.7 10.51
9/10/2021 9:30:00 AM 12.49 54.482 0.082 7.29 0.69 10.57
9/10/2021 9:45:00 AM 12.61 54.698 0.082 7.34 0.73 10.68
9/10/2021 10:00:00 AM 12.62 54.716 0.077 7.32 2.17 10.65
9/10/2021 10:15:00 AM 12.64 54.752 0.082 7.34 0.75 10.63
9/10/2021 10:30:00 AM 12.8 55.04 0.077 7.36 2.1 10.72
9/10/2021 10:45:00 AM 12.84 55.112 0.081 7.41 0.72 10.71
9/10/2021 11:00:00 AM 12.97 55.346 0.081 7.46 0.69 10.75
9/10/2021 11:15:00 AM 12.97 55.346 0.081 7.45 0.72 10.76
9/10/2021 11:30:00 AM 13.17 55.706 0.081 7.52 0.75 10.77
9/10/2021 11:45:00 AM 13.14 55.652 0.081 7.46 0.72 10.72
9/10/2021 12:00:00 PM 13.22 55.796 0.076 7.47 2.21 10.72
9/10/2021 12:15:00 PM 13.36 56.048 0.081 7.51 0.71 10.69
9/10/2021 12:30:00 PM 13.35 56.03 0.081 7.46 0.73 10.61
9/10/2021 12:45:00 PM 13.44 56.192 0.08 7.47 0.76 10.61
9/10/2021 1:00:00 PM 13.59 56.462 0.08 7.51 0.71 10.59
9/10/2021 1:15:00 PM 13.74 56.732 0.08 7.49 0.75 10.59
9/10/2021 1:30:00 PM 13.79 56.822 0.08 7.55 0.7 10.6
9/10/2021 1:45:00 PM 13.87 56.966 0.08 7.51 0.73 10.52
9/10/2021 2:00:00 PM 13.96 57.128 0.08 7.53 0.72 10.51
9/10/2021 2:15:00 PM 14.01 57.218 0.078 7.52 2.11 10.52
9/10/2021 2:30:00 PM 14.01 57.218 0.08 7.53 0.71 10.55
9/10/2021 2:45:00 PM 13.99 57.182 0.08 7.52 0.74 10.49
9/10/2021 3:00:00 PM 13.99 57.182 0.08 7.52 0.73 10.5
9/10/2021 3:15:00 PM 14.03 57.254 0.08 7.47 0.75 10.4
9/10/2021 3:30:00 PM 14.12 57.416 0.08 7.48 0.73 10.38
9/10/2021 3:45:00 PM 14.22 57.596 0.079 7.51 0.74 10.41
9/10/2021 4:00:00 PM 14.25 57.65 0.08 7.45 0.75 10.29
9/10/2021 4:15:00 PM 14.26 57.668 0.075 7.37 2.16 10.2
9/10/2021 4:30:00 PM 14.32 57.776 0.08 7.39 0.74 10.23
9/10/2021 4:45:00 PM 14.39 57.902 0.08 7.44 0.79 10.25
9/10/2021 5:00:00 PM 14.42 57.956 0.08 7.44 0.74 10.25
9/10/2021 5:15:00 PM 14.41 57.938 0.08 7.37 0.77 10.13
9/10/2021 5:30:00 PM 14.41 57.938 0.08 7.33 0.69 10.05
9/10/2021 5:45:00 PM 14.38 57.884 0.08 7.3 0.73 10.01
9/10/2021 6:00:00 PM 14.35 57.83 0.08 7.27 0.71 9.97
9/10/2021 6:15:00 PM 14.31 57.758 0.08 7.25 0.75 9.93
9/10/2021 6:30:00 PM 14.27 57.686 0.08 7.23 0.74 9.9
9/10/2021 6:45:00 PM 14.22 57.596 0.08 7.2 0.74 9.86
9/10/2021 7:00:00 PM 14.18 57.524 0.079 7.19 2.21 9.83
9/10/2021 7:15:00 PM 14.12 57.416 0.081 7.17 0.76 9.8
9/10/2021 7:30:00 PM 14.05 57.29 0.081 7.15 0.72 9.77
9/10/2021 7:45:00 PM 13.98 57.164 0.081 7.14 0.74 9.75
9/10/2021 8:00:00 PM 13.91 57.038 0.079 7.11 2.37 9.73
9/10/2021 8:15:00 PM 13.85 56.93 0.081 7.11 0.77 9.71
9/10/2021 8:30:00 PM 13.78 56.804 0.082 7.1 0.9 9.72
9/10/2021 8:45:00 PM 13.72 56.696 0.082 7.09 0.77 9.72
9/10/2021 9:00:00 PM 13.65 56.57 0.082 7.09 0.82 9.73
9/10/2021 9:15:00 PM 13.58 56.444 0.082 7.09 0.73 9.75
9/10/2021 9:30:00 PM 13.52 56.336 0.082 7.08 0.77 9.76
9/10/2021 9:45:00 PM 13.45 56.21 0.082 7.08 0.68 9.77
9/10/2021 10:00:00 PM 13.38 56.084 0.082 7.07 0.69 9.79
9/10/2021 10:15:00 PM 13.3 55.94 0.083 7.08 0.75 9.81
9/10/2021 10:30:00 PM 13.22 55.796 0.083 7.07 0.74 9.82
9/10/2021 10:45:00 PM 13.14 55.652 0.083 7.07 0.73 9.84
9/10/2021 11:00:00 PM 13.06 55.508 0.083 7.07 0.77 9.86
9/10/2021 11:15:00 PM 12.98 55.364 0.083 7.05 0.7 9.88
9/10/2021 11:30:00 PM 12.9 55.22 0.083 7.07 0.7 9.9
9/10/2021 11:45:00 PM 12.82 55.076 0.083 7.07 0.69 9.92
9/11/2021 12:00:00 AM 12.75 54.95 0.083 7.06 0.69 9.95
9/11/2021 12:15:00 AM 12.67 54.806 0.083 7.06 0.72 9.96
9/11/2021 12:30:00 AM 12.59 54.662 0.083 7.06 0.72 9.99
9/11/2021 12:45:00 AM 12.51 54.518 0.083 7.06 0.67 10.01
9/11/2021 1:00:00 AM 12.44 54.392 0.084 7.06 0.72 10.01
9/11/2021 1:15:00 AM 12.36 54.248 0.084 7.05 0.72 10.04
9/11/2021 1:30:00 AM 12.28 54.104 0.084 7.06 0.65 10.06
9/11/2021 1:45:00 AM 12.21 53.978 0.084 7.05 0.64 10.08
9/11/2021 2:00:00 AM 12.13 53.834 0.079 7.05 2.11 10.1
9/11/2021 2:15:00 AM 12.06 53.708 0.084 7.06 0.65 10.12
9/11/2021 2:30:00 AM 11.99 53.582 0.084 7.05 0.69 10.13
9/11/2021 2:45:00 AM 11.92 53.456 0.079 7.04 2.21 10.15
9/11/2021 3:00:00 AM 11.85 53.33 0.084 7.05 0.69 10.18
9/11/2021 3:15:00 AM 11.78 53.204 0.084 7.05 0.64 10.19
9/11/2021 3:30:00 AM 11.71 53.078 0.084 7.05 0.66 10.21
9/11/2021 3:45:00 AM 11.65 52.97 0.084 7.06 0.71 10.22
9/11/2021 4:00:00 AM 11.58 52.844 0.084 7.05 0.65 10.24
9/11/2021 4:15:00 AM 11.52 52.736 0.084 7.06 0.64 10.26
9/11/2021 4:30:00 AM 11.46 52.628 0.084 7.06 0.58 10.27
9/11/2021 4:45:00 AM 11.4 52.52 0.084 7.05 0.6 10.29
9/11/2021 5:00:00 AM 11.34 52.412 0.084 7.06 0.68 10.3
9/11/2021 5:15:00 AM 11.28 52.304 0.084 7.06 0.66 10.33
9/11/2021 5:30:00 AM 11.23 52.214 0.084 7.05 0.67 10.34
9/11/2021 5:45:00 AM 11.17 52.106 0.084 7.05 0.66 10.35
9/11/2021 6:00:00 AM 11.13 52.034 0.084 7.06 0.68 10.36
9/11/2021 6:15:00 AM 11.08 51.944 0.084 7.06 0.65 10.38
9/11/2021 6:30:00 AM 11.03 51.854 0.084 7.06 0.69 10.39
9/11/2021 6:45:00 AM 10.98 51.764 0.084 7.06 0.84 10.42
9/11/2021 7:00:00 AM 10.94 51.692 0.084 7.07 3.78 10.44
9/11/2021 7:15:00 AM 10.91 51.638 0.084 7.08 2.68 10.49
9/11/2021 7:30:00 AM 10.88 51.584 0.082 7.09 2.57 10.56
9/11/2021 7:45:00 AM 10.86 51.548 0.084 7.11 1.71 10.64
9/11/2021 8:00:00 AM 10.83 51.494 0.084 7.12 1.64 10.68
9/11/2021 8:15:00 AM 10.82 51.476 0.084 7.14 1.07 10.76
9/11/2021 8:30:00 AM 10.83 51.494 0.084 7.18 0.91 10.87
9/11/2021 8:45:00 AM 10.85 51.53 0.083 7.22 0.75 10.96
9/11/2021 9:00:00 AM 10.88 51.584 0.083 7.23 0.67 11.03
9/11/2021 9:15:00 AM 10.93 51.674 0.083 7.29 0.7 11.08
9/11/2021 9:30:00 AM 10.97 51.746 0.083 7.31 0.64 11.1
9/11/2021 9:45:00 AM 11.05 51.89 0.083 7.33 0.72 11.13
9/11/2021 10:00:00 AM 11.19 52.142 0.083 7.36 0.62 11.14
9/11/2021 10:15:00 AM 11.34 52.412 0.083 7.39 0.6 11.15
9/11/2021 10:30:00 AM 11.49 52.682 0.083 7.41 0.66 11.16
9/11/2021 10:45:00 AM 11.64 52.952 0.082 7.43 0.65 11.15
9/11/2021 11:00:00 AM 11.76 53.168 0.082 7.44 0.61 11.14
9/11/2021 11:15:00 AM 11.9 53.42 0.08 7.44 2.14 11.12
9/11/2021 11:30:00 AM 12.05 53.69 0.082 7.44 0.63 11.09
9/11/2021 11:45:00 AM 12.17 53.906 0.082 7.47 0.65 11.04
9/11/2021 12:00:00 PM 12.31 54.158 0.08 7.45 1.94 11
9/11/2021 12:15:00 PM 12.46 54.428 0.082 7.48 0.66 10.96
9/11/2021 12:30:00 PM 12.64 54.752 0.085 7.49 0.74 10.92
9/11/2021 12:45:00 PM 12.81 55.058 0.087 7.46 0.76 10.85
9/11/2021 1:00:00 PM 13.02 55.436 0.087 7.47 0.77 10.8
9/11/2021 1:15:00 PM 13.22 55.796 0.087 7.49 0.8 10.76
9/11/2021 1:30:00 PM 13.4 56.12 0.086 7.47 0.72 10.73
9/11/2021 1:45:00 PM 13.56 56.408 0.085 7.53 0.7 10.71
9/11/2021 2:00:00 PM 13.74 56.732 0.085 7.57 0.73 10.71
9/11/2021 2:15:00 PM 13.86 56.948 0.084 7.58 0.71 10.68
9/11/2021 2:30:00 PM 13.94 57.092 0.084 7.57 0.69 10.64
9/11/2021 2:45:00 PM 13.98 57.164 0.083 7.53 0.7 10.57
9/11/2021 3:00:00 PM 14.03 57.254 0.083 7.52 0.72 10.53
9/11/2021 3:15:00 PM 14.1 57.38 0.078 7.47 2.14 10.46
9/11/2021 3:30:00 PM 14.2 57.56 0.077 7.46 2.07 10.42
9/11/2021 3:45:00 PM 14.3 57.74 0.082 7.51 0.7 10.41
9/11/2021 4:00:00 PM 14.38 57.884 0.082 7.51 0.71 10.37
9/11/2021 4:15:00 PM 14.44 57.992 0.081 7.49 0.72 10.34
9/11/2021 4:30:00 PM 14.46 58.028 0.081 7.46 0.75 10.3
9/11/2021 4:45:00 PM 14.47 58.046 0.081 7.42 0.7 10.22
9/11/2021 5:00:00 PM 14.49 58.082 0.081 7.39 0.69 10.18
9/11/2021 5:15:00 PM 14.49 58.082 0.081 7.36 0.72 10.11
9/11/2021 5:30:00 PM 14.48 58.064 0.081 7.33 0.63 10.06
9/11/2021 5:45:00 PM 14.46 58.028 0.081 7.3 0.65 10.01
9/11/2021 6:00:00 PM 14.45 58.01 0.081 7.28 0.68 9.96
9/11/2021 6:15:00 PM 14.43 57.974 0.08 7.23 2.04 9.92
9/11/2021 6:30:00 PM 14.4 57.92 0.082 7.23 0.72 9.88
9/11/2021 6:45:00 PM 14.37 57.866 0.082 7.21 0.71 9.84
9/11/2021 7:00:00 PM 14.34 57.812 0.082 7.19 0.67 9.8
9/11/2021 7:15:00 PM 14.29 57.722 0.082 7.17 0.72 9.76
9/11/2021 7:30:00 PM 14.23 57.614 0.082 7.16 0.69 9.72
9/11/2021 7:45:00 PM 14.16 57.488 0.082 7.14 0.73 9.7
9/11/2021 8:00:00 PM 14.1 57.38 0.083 7.12 0.79 9.67
9/11/2021 8:15:00 PM 14.04 57.272 0.083 7.1 0.72 9.67
9/11/2021 8:30:00 PM 13.98 57.164 0.083 7.1 0.74 9.66
9/11/2021 8:45:00 PM 13.91 57.038 0.083 7.09 0.67 9.66
9/11/2021 9:00:00 PM 13.85 56.93 0.081 7.07 2.14 9.67
9/11/2021 9:15:00 PM 13.79 56.822 0.083 7.08 0.71 9.68
9/11/2021 9:30:00 PM 13.72 56.696 0.083 7.08 0.68 9.69
9/11/2021 9:45:00 PM 13.66 56.588 0.083 7.08 0.68 9.7
9/11/2021 10:00:00 PM 13.6 56.48 0.084 7.06 0.67 9.71
9/11/2021 10:15:00 PM 13.54 56.372 0.084 7.08 0.64 9.72
9/11/2021 10:30:00 PM 13.47 56.246 0.084 7.07 0.65 9.74
9/11/2021 10:45:00 PM 13.41 56.138 0.084 7.05 0.64 9.75
9/11/2021 11:00:00 PM 13.35 56.03 0.084 7.07 0.68 9.76
9/11/2021 11:15:00 PM 13.29 55.922 0.084 7.06 0.67 9.78
9/11/2021 11:30:00 PM 13.23 55.814 0.084 7.07 0.72 9.79
9/11/2021 11:45:00 PM 13.17 55.706 0.084 7.05 0.65 9.8
9/12/2021 12:00:00 AM 13.11 55.598 0.084 7.06 0.63 9.82
9/12/2021 12:15:00 AM 13.06 55.508 0.084 7.06 0.65 9.83
9/12/2021 12:30:00 AM 13.01 55.418 0.084 7.07 0.65 9.84
9/12/2021 12:45:00 AM 12.96 55.328 0.085 7.06 0.68 9.86
9/12/2021 1:00:00 AM 12.91 55.238 0.085 7.06 0.58 9.87
9/12/2021 1:15:00 AM 12.87 55.166 0.085 7.07 0.66 9.88
9/12/2021 1:30:00 AM 12.84 55.112 0.085 7.07 0.63 9.89
9/12/2021 1:45:00 AM 12.8 55.04 0.085 7.06 0.66 9.9
9/12/2021 2:00:00 AM 12.76 54.968 0.085 7.06 0.63 9.91
9/12/2021 2:15:00 AM 12.73 54.914 0.079 7.05 2.05 9.92
9/12/2021 2:30:00 AM 12.7 54.86 0.085 7.05 0.63 9.93
9/12/2021 2:45:00 AM 12.67 54.806 0.085 7.06 0.6 9.93
9/12/2021 3:00:00 AM 12.64 54.752 0.085 7.07 0.63 9.94
9/12/2021 3:15:00 AM 12.61 54.698 0.085 7.04 0.61 9.95
9/12/2021 3:30:00 AM 12.58 54.644 0.085 7.06 0.6 9.95
9/12/2021 3:45:00 AM 12.56 54.608 0.085 7.06 0.67 9.97
9/12/2021 4:00:00 AM 12.55 54.59 0.085 7.06 0.6 9.96
9/12/2021 4:15:00 AM 12.54 54.572 0.085 7.06 0.58 9.96
9/12/2021 4:30:00 AM 12.53 54.554 0.085 7.06 0.61 9.96
9/12/2021 4:45:00 AM 12.52 54.536 0.085 7.06 0.62 9.97
9/12/2021 5:00:00 AM 12.51 54.518 0.085 7.06 0.63 9.97
9/12/2021 5:15:00 AM 12.5 54.5 0.085 7.06 0.66 9.98
9/12/2021 5:30:00 AM 12.48 54.464 0.085 7.06 0.62 9.98
9/12/2021 5:45:00 AM 12.47 54.446 0.083 7.05 2.04 9.99
9/12/2021 6:00:00 AM 12.46 54.428 0.085 7.05 0.59 9.98
9/12/2021 6:15:00 AM 12.45 54.41 0.085 7.05 0.65 9.98
9/12/2021 6:30:00 AM 12.44 54.392 0.085 7.05 0.65 9.99
9/12/2021 6:45:00 AM 12.43 54.374 0.08 7.02 2.09 9.99
9/12/2021 7:00:00 AM 12.42 54.356 0.085 7.06 0.67 10.02
9/12/2021 7:15:00 AM 12.41 54.338 0.085 7.07 2.47 10.05
9/12/2021 7:30:00 AM 12.41 54.338 0.085 7.06 2.43 10.09
9/12/2021 7:45:00 AM 12.42 54.356 0.085 7.09 1.11 10.16
9/12/2021 8:00:00 AM 12.44 54.392 0.085 7.12 0.77 10.27
9/12/2021 8:15:00 AM 12.47 54.446 0.085 7.15 0.73 10.34
9/12/2021 8:30:00 AM 12.5 54.5 0.085 7.18 0.68 10.41
9/12/2021 8:45:00 AM 12.54 54.572 0.082 7.2 2.05 10.47
9/12/2021 9:00:00 AM 12.57 54.626 0.085 7.2 0.64 10.44
9/12/2021 9:15:00 AM 12.59 54.662 0.085 7.19 0.66 10.4
9/12/2021 9:30:00 AM 12.63 54.734 0.084 7.2 0.66 10.45
9/12/2021 9:45:00 AM 12.72 54.896 0.084 7.24 0.64 10.55
9/12/2021 10:00:00 AM 12.76 54.968 0.084 7.28 0.62 10.56
9/12/2021 10:15:00 AM 12.81 55.058 0.084 7.28 0.65 10.54
9/12/2021 10:30:00 AM 12.92 55.256 0.084 7.36 0.6 10.66
9/12/2021 10:45:00 AM 12.97 55.346 0.084 7.35 0.64 10.63
9/12/2021 11:00:00 AM 13 55.4 0.084 7.32 0.66 10.56
9/12/2021 11:15:00 AM 13.06 55.508 0.079 7.31 2.15 10.56
9/12/2021 11:30:00 AM 13.13 55.634 0.083 7.35 0.61 10.58
9/12/2021 11:45:00 AM 13.23 55.814 0.083 7.42 0.65 10.66
9/12/2021 12:00:00 PM 13.33 55.994 0.083 7.45 0.66 10.69
9/12/2021 12:15:00 PM 13.4 56.12 0.083 7.48 0.62 10.68
9/12/2021 12:30:00 PM 13.47 56.246 0.083 7.48 0.63 10.66
9/12/2021 12:45:00 PM 13.54 56.372 0.083 7.48 0.62 10.63
9/12/2021 1:00:00 PM 13.66 56.588 0.082 7.53 0.7 10.66
9/12/2021 1:15:00 PM 13.79 56.822 0.082 7.59 0.75 10.71
9/12/2021 1:30:00 PM 13.89 57.002 0.082 7.62 0.73 10.71
9/12/2021 1:45:00 PM 14.02 57.236 0.082 7.66 0.71 10.71
9/12/2021 2:00:00 PM 14.13 57.434 0.082 7.68 0.78 10.7
9/12/2021 2:15:00 PM 14.25 57.65 0.082 7.69 0.64 10.66
9/12/2021 2:30:00 PM 14.36 57.848 0.081 7.71 0.64 10.64
9/12/2021 2:45:00 PM 14.5 58.1 0.081 7.71 0.68 10.6
9/12/2021 3:00:00 PM 14.61 58.298 0.079 7.68 2.07 10.56
9/12/2021 3:15:00 PM 14.72 58.496 0.081 7.71 0.66 10.52
9/12/2021 3:30:00 PM 14.84 58.712 0.077 7.64 2.15 10.45
9/12/2021 3:45:00 PM 14.94 58.892 0.081 7.64 0.73 10.37
9/12/2021 4:00:00 PM 15.05 59.09 0.081 7.61 0.69 10.32
9/12/2021 4:15:00 PM 15.11 59.198 0.081 7.58 0.64 10.26
9/12/2021 4:30:00 PM 15.14 59.252 0.079 7.52 2.06 10.22
9/12/2021 4:45:00 PM 15.16 59.288 0.081 7.51 0.66 10.17
9/12/2021 5:00:00 PM 15.2 59.36 0.079 7.46 2.03 10.13
9/12/2021 5:15:00 PM 15.25 59.45 0.081 7.46 0.64 10.07
9/12/2021 5:30:00 PM 15.28 59.504 0.081 7.43 0.63 10.02
9/12/2021 5:45:00 PM 15.3 59.54 0.081 7.39 0.68 9.95
9/12/2021 6:00:00 PM 15.33 59.594 0.076 7.34 2.04 9.91
9/12/2021 6:15:00 PM 15.35 59.63 0.081 7.32 0.61 9.85
9/12/2021 6:30:00 PM 15.36 59.648 0.081 7.28 0.62 9.78
9/12/2021 6:45:00 PM 15.35 59.63 0.08 7.2 2 9.69
9/12/2021 7:00:00 PM 15.35 59.63 0.077 7.16 2.05 9.61
9/12/2021 7:15:00 PM 15.33 59.594 0.082 7.16 0.65 9.54
9/12/2021 7:30:00 PM 15.31 59.558 0.082 7.12 0.65 9.47
9/12/2021 7:45:00 PM 15.28 59.504 0.083 7.08 0.71 9.43
9/12/2021 8:00:00 PM 15.25 59.45 0.083 7.07 0.7 9.4
9/12/2021 8:15:00 PM 15.22 59.396 0.083 7.06 0.68 9.38
9/12/2021 8:30:00 PM 15.19 59.342 0.083 7.05 0.71 9.36
9/12/2021 8:45:00 PM 15.17 59.306 0.084 7.03 0.69 9.35
9/12/2021 9:00:00 PM 15.15 59.27 0.084 7.03 0.68 9.35
9/12/2021 9:15:00 PM 15.13 59.234 0.079 7.01 2.1 9.35
9/12/2021 9:30:00 PM 15.11 59.198 0.084 7.03 0.66 9.35
9/12/2021 9:45:00 PM 15.1 59.18 0.079 7 2.02 9.35
9/12/2021 10:00:00 PM 15.08 59.144 0.084 7.02 0.64 9.35
9/12/2021 10:15:00 PM 15.06 59.108 0.084 7 0.61 9.35
9/12/2021 10:30:00 PM 15.03 59.054 0.085 7.01 0.59 9.35
9/12/2021 10:45:00 PM 15.01 59.018 0.085 7.02 0.64 9.35
9/12/2021 11:00:00 PM 14.99 58.982 0.085 7 1 9.35
9/12/2021 11:15:00 PM 14.96 58.928 0.085 7 0.61 9.36
9/12/2021 11:30:00 PM 14.92 58.856 0.083 6.99 2.04 9.36
9/12/2021 11:45:00 PM 14.89 58.802 0.085 7 0.6 9.37
9/13/2021 12:00:00 AM 14.85 58.73 0.085 7.01 0.61 9.38
9/13/2021 12:15:00 AM 14.83 58.694 0.086 7.01 0.61 9.38
9/13/2021 12:30:00 AM 14.8 58.64 0.086 7.01 0.59 9.39
9/13/2021 12:45:00 AM 14.77 58.586 0.086 7.02 0.61 9.4
9/13/2021 1:00:00 AM 14.75 58.55 0.086 7.02 0.66 9.41
9/13/2021 1:15:00 AM 14.73 58.514 0.086 6.99 0.58 9.41
9/13/2021 1:30:00 AM 14.72 58.496 0.086 7.03 0.72 9.42
9/13/2021 1:45:00 AM 14.7 58.46 0.086 7.02 0.69 9.42
9/13/2021 2:00:00 AM 14.69 58.442 0.086 7.02 0.61 9.42
9/13/2021 2:15:00 AM 14.67 58.406 0.086 7.01 0.63 9.42
9/13/2021 2:30:00 AM 14.66 58.388 0.086 7.02 0.64 9.42
9/13/2021 2:45:00 AM 14.66 58.388 0.086 7.01 0.64 9.43
9/13/2021 3:00:00 AM 14.66 58.388 0.081 6.98 2.16 9.42
9/13/2021 3:15:00 AM 14.64 58.352 0.086 7.01 0.61 9.42
9/13/2021 3:30:00 AM 14.62 58.316 0.086 7.01 0.69 9.43
9/13/2021 3:45:00 AM 14.58 58.244 0.086 7.01 0.65 9.44
9/13/2021 4:00:00 AM 14.55 58.19 0.086 7.01 0.59 9.44
9/13/2021 4:15:00 AM 14.53 58.154 0.086 7 0.64 9.45
9/13/2021 4:30:00 AM 14.5 58.1 0.086 7.01 0.59 9.46
9/13/2021 4:45:00 AM 14.47 58.046 0.081 6.98 2.04 9.47
9/13/2021 5:00:00 AM 14.45 58.01 0.086 6.99 0.61 9.47
9/13/2021 5:15:00 AM 14.43 57.974 0.086 6.99 0.6 9.48
9/13/2021 5:30:00 AM 14.41 57.938 0.086 6.99 0.65 9.48
9/13/2021 5:45:00 AM 14.39 57.902 0.086 6.99 0.62 9.49
9/13/2021 6:00:00 AM 14.38 57.884 0.086 6.99 0.56 9.49
9/13/2021 6:15:00 AM 14.36 57.848 0.086 6.98 0.61 9.49
9/13/2021 6:30:00 AM 14.34 57.812 0.086 6.99 0.63 9.5
9/13/2021 6:45:00 AM 14.33 57.794 0.081 6.97 2.13 9.51
9/13/2021 7:00:00 AM 14.31 57.758 0.086 6.99 0.65 9.51
9/13/2021 7:15:00 AM 14.3 57.74 0.086 7 0.65 9.54
9/13/2021 7:30:00 AM 14.29 57.722 0.086 7 0.68 9.56
9/13/2021 7:45:00 AM 14.28 57.704 0.086 7 0.65 9.6
9/13/2021 8:00:00 AM 14.27 57.686 0.086 7.01 0.67 9.63
9/13/2021 8:15:00 AM 14.27 57.686 0.086 7.01 0.57 9.72
9/13/2021 8:30:00 AM 14.27 57.686 0.086 7.05 0.61 9.76
9/13/2021 8:45:00 AM 14.28 57.704 0.086 7.06 0.76 9.81
9/13/2021 9:00:00 AM 14.28 57.704 0.086 7.08 0.64 9.84
9/13/2021 9:15:00 AM 14.28 57.704 0.086 7.09 0.64 9.86
9/13/2021 9:30:00 AM 14.28 57.704 0.081 7.06 2.04 9.87
9/13/2021 9:45:00 AM 14.28 57.704 0.086 7.1 0.58 9.88
9/13/2021 10:00:00 AM 14.28 57.704 0.086 7.09 0.6 9.87
9/13/2021 10:15:00 AM 14.29 57.722 0.086 7.12 0.65 9.9
9/13/2021 10:30:00 AM 14.31 57.758 0.086 7.14 0.65 9.98
9/13/2021 10:45:00 AM 14.31 57.758 0.086 7.15 0.66 10.01
9/13/2021 11:00:00 AM 14.33 57.794 0.086 7.19 0.63 10.07
9/13/2021 11:15:00 AM 14.36 57.848 0.086 7.22 0.63 10.15
9/13/2021 11:30:00 AM 14.39 57.902 0.085 7.26 0.61 10.2
9/13/2021 11:45:00 AM 14.44 57.992 0.085 7.29 0.73 10.26
9/13/2021 12:00:00 PM 14.48 58.064 0.085 7.3 0.63 10.27
9/13/2021 12:15:00 PM 14.53 58.154 0.085 7.34 0.66 10.33
9/13/2021 12:30:00 PM 14.62 58.316 0.085 7.42 0.62 10.4
9/13/2021 12:45:00 PM 14.76 58.568 0.085 7.48 0.64 10.46
9/13/2021 1:00:00 PM 14.87 58.766 0.084 7.52 0.66 10.49
9/13/2021 1:15:00 PM 14.93 58.874 0.084 7.53 0.66 10.47
9/13/2021 1:30:00 PM 15.03 59.054 0.084 7.55 0.71 10.45
9/13/2021 1:45:00 PM 15.16 59.288 0.084 7.58 0.71 10.44
9/13/2021 2:00:00 PM 15.29 59.522 0.084 7.6 0.73 10.42
9/13/2021 2:15:00 PM 15.41 59.738 0.084 7.61 0.69 10.38
9/13/2021 2:30:00 PM 15.52 59.936 0.081 7.58 2.05 10.32
9/13/2021 2:45:00 PM 15.63 60.134 0.078 7.57 2.08 10.28
9/13/2021 3:00:00 PM 15.73 60.314 0.083 7.6 0.63 10.26
9/13/2021 3:15:00 PM 15.81 60.458 0.078 7.56 2.05 10.21
9/13/2021 3:30:00 PM 15.88 60.584 0.081 7.57 2.19 10.17
9/13/2021 3:45:00 PM 15.9 60.62 0.083 7.55 0.62 10.12
9/13/2021 4:00:00 PM 15.93 60.674 0.083 7.53 0.67 10.07
9/13/2021 4:15:00 PM 15.98 60.764 0.081 7.49 1.99 10.03
9/13/2021 4:30:00 PM 16.04 60.872 0.08 7.48 2.01 10
9/13/2021 4:45:00 PM 16.08 60.944 0.078 7.43 2 9.94
9/13/2021 5:00:00 PM 16.12 61.016 0.078 7.41 2.1 9.9
9/13/2021 5:15:00 PM 16.14 61.052 0.083 7.39 0.61 9.82
9/13/2021 5:30:00 PM 16.14 61.052 0.079 7.32 2.03 9.73
9/13/2021 5:45:00 PM 16.14 61.052 0.083 7.3 0.67 9.64
9/13/2021 6:00:00 PM 16.14 61.052 0.083 7.27 0.63 9.59
9/13/2021 6:15:00 PM 16.13 61.034 0.083 7.21 0.62 9.48
9/13/2021 6:30:00 PM 16.12 61.016 0.083 7.19 0.69 9.42
9/13/2021 6:45:00 PM 16.11 60.998 0.083 7.16 0.7 9.34
9/13/2021 7:00:00 PM 16.08 60.944 0.084 7.15 0.66 9.29
9/13/2021 7:15:00 PM 16.04 60.872 0.084 7.13 0.76 9.25
9/13/2021 7:30:00 PM 16 60.8 0.082 7.11 2.07 9.22
9/13/2021 7:45:00 PM 15.96 60.728 0.079 7.09 2.34 9.2
9/13/2021 8:00:00 PM 15.92 60.656 0.079 7.08 2.06 9.19
9/13/2021 8:15:00 PM 15.88 60.584 0.084 7.09 0.75 9.19
9/13/2021 8:30:00 PM 15.84 60.512 0.084 7.08 0.67 9.18
9/13/2021 8:45:00 PM 15.8 60.44 0.079 7.07 2.06 9.19
9/13/2021 9:00:00 PM 15.75 60.35 0.084 7.08 0.65 9.19
9/13/2021 9:15:00 PM 15.7 60.26 0.085 7.07 0.64 9.2
9/13/2021 9:30:00 PM 15.66 60.188 0.083 7.04 1.98 9.2
9/13/2021 9:45:00 PM 15.61 60.098 0.085 7.02 0.67 9.21
9/13/2021 10:00:00 PM 15.56 60.008 0.085 7.06 0.68 9.22
9/13/2021 10:15:00 PM 15.51 59.918 0.085 7.05 0.63 9.23
9/13/2021 10:30:00 PM 15.46 59.828 0.085 7.05 0.67 9.25
9/13/2021 10:45:00 PM 15.42 59.756 0.085 7.04 0.66 9.25
9/13/2021 11:00:00 PM 15.38 59.684 0.085 7.05 0.61 9.26
9/13/2021 11:15:00 PM 15.33 59.594 0.085 7.04 0.64 9.27
9/13/2021 11:30:00 PM 15.29 59.522 0.086 7.04 0.68 9.28
9/13/2021 11:45:00 PM 15.26 59.468 0.086 7.05 0.63 9.3
9/14/2021 12:00:00 AM 15.22 59.396 0.086 7.05 0.65 9.31
9/14/2021 12:15:00 AM 15.18 59.324 0.086 7.05 0.66 9.32
9/14/2021 12:30:00 AM 15.15 59.27 0.086 7.05 0.66 9.33
9/14/2021 12:45:00 AM 15.11 59.198 0.086 7.06 0.71 9.33
9/14/2021 1:00:00 AM 15.08 59.144 0.085 7.05 0.74 9.33
9/14/2021 1:15:00 AM 15.05 59.09 0.083 7.02 2.29 9.34
9/14/2021 1:30:00 AM 15.01 59.018 0.085 7.04 0.76 9.34
9/14/2021 1:45:00 AM 14.97 58.946 0.086 7.03 0.72 9.34
9/14/2021 2:00:00 AM 14.93 58.874 0.086 7.04 0.74 9.36
9/14/2021 2:15:00 AM 14.89 58.802 0.086 7.04 0.74 9.36
9/14/2021 2:30:00 AM 14.86 58.748 0.086 7.04 0.73 9.37
9/14/2021 2:45:00 AM 14.83 58.694 0.084 7.02 2.07 9.38
9/14/2021 3:00:00 AM 14.79 58.622 0.081 7.01 2.22 9.39
9/14/2021 3:15:00 AM 14.76 58.568 0.086 7.02 0.72 9.39
9/14/2021 3:30:00 AM 14.73 58.514 0.086 7.03 0.74 9.41
9/14/2021 3:45:00 AM 14.7 58.46 0.086 7.03 0.71 9.41
9/14/2021 4:00:00 AM 14.67 58.406 0.086 7.03 0.78 9.42
9/14/2021 4:15:00 AM 14.64 58.352 0.086 7.03 0.79 9.43
9/14/2021 4:30:00 AM 14.61 58.298 0.087 7.03 0.75 9.43
9/14/2021 4:45:00 AM 14.58 58.244 0.082 7 2.11 9.44
9/14/2021 5:00:00 AM 14.55 58.19 0.081 7.01 2.17 9.45
9/14/2021 5:15:00 AM 14.52 58.136 0.087 7.03 0.7 9.46
9/14/2021 5:30:00 AM 14.5 58.1 0.087 7.02 0.77 9.46
9/14/2021 5:45:00 AM 14.47 58.046 0.087 7 0.88 9.47
9/14/2021 6:00:00 AM 14.44 57.992 0.086 7.02 0.86 9.48
9/14/2021 6:15:00 AM 14.41 57.938 0.086 7.02 1.02 9.5
9/14/2021 6:30:00 AM 14.39 57.902 0.086 7.02 0.97 9.5
9/14/2021 6:45:00 AM 14.36 57.848 0.084 7.02 2.43 9.52
9/14/2021 7:00:00 AM 14.34 57.812 0.086 7.03 0.89 9.53
9/14/2021 7:15:00 AM 14.33 57.794 0.082 7.02 2.22 9.54
9/14/2021 7:30:00 AM 14.32 57.776 0.087 7.04 0.84 9.58
9/14/2021 7:45:00 AM 14.31 57.758 0.087 7.06 0.82 9.62
9/14/2021 8:00:00 AM 14.32 57.776 0.088 7.08 0.8 9.66
9/14/2021 8:15:00 AM 14.33 57.794 0.088 7.11 0.92 9.73
9/14/2021 8:30:00 AM 14.36 57.848 0.088 7.14 0.85 9.82
9/14/2021 8:45:00 AM 14.38 57.884 0.088 7.16 0.82 9.89
9/14/2021 9:00:00 AM 14.41 57.938 0.088 7.19 0.77 9.96
9/14/2021 9:15:00 AM 14.45 58.01 0.087 7.22 0.78 10.03
9/14/2021 9:30:00 AM 14.49 58.082 0.087 7.24 0.84 10.08
9/14/2021 9:45:00 AM 14.54 58.172 0.087 7.27 0.8 10.12
9/14/2021 10:00:00 AM 14.6 58.28 0.086 7.29 0.81 10.17
9/14/2021 10:15:00 AM 14.72 58.496 0.086 7.36 0.76 10.24
9/14/2021 10:30:00 AM 14.83 58.694 0.086 7.4 0.79 10.28
9/14/2021 10:45:00 AM 14.91 58.838 0.08 7.38 2.21 10.28
9/14/2021 11:00:00 AM 14.96 58.928 0.085 7.43 0.74 10.28
9/14/2021 11:15:00 AM 15.04 59.072 0.085 7.44 0.75 10.24
9/14/2021 11:30:00 AM 15.15 59.27 0.085 7.47 0.78 10.25
9/14/2021 11:45:00 AM 15.33 59.594 0.085 7.51 0.76 10.27
9/14/2021 12:00:00 PM 15.37 59.666 0.08 7.47 2.24 10.25
9/14/2021 12:15:00 PM 15.46 59.828 0.084 7.52 0.76 10.22
9/14/2021 12:30:00 PM 15.71 60.278 0.084 7.6 0.73 10.25
9/14/2021 12:45:00 PM 15.85 60.53 0.084 7.58 0.75 10.23
9/14/2021 1:00:00 PM 15.99 60.782 0.084 7.61 0.74 10.2
9/14/2021 1:15:00 PM 16.13 61.034 0.084 7.6 0.7 10.16
9/14/2021 1:30:00 PM 16.27 61.286 0.083 7.62 0.72 10.13
9/14/2021 1:45:00 PM 16.4 61.52 0.083 7.62 0.77 10.09
9/14/2021 2:00:00 PM 16.48 61.664 0.083 7.59 0.67 10.01
9/14/2021 2:15:00 PM 16.61 61.898 0.083 7.59 0.71 9.97
9/14/2021 2:30:00 PM 16.69 62.042 0.083 7.56 0.73 9.91
9/14/2021 2:45:00 PM 16.79 62.222 0.081 7.52 2.15 9.87
9/14/2021 3:00:00 PM 16.89 62.402 0.078 7.52 2.14 9.83
9/14/2021 3:15:00 PM 16.92 62.456 0.078 7.47 2.14 9.78
9/14/2021 3:30:00 PM 16.95 62.51 0.083 7.5 0.67 9.76
9/14/2021 3:45:00 PM 16.98 62.564 0.083 7.51 0.7 9.77
9/14/2021 4:00:00 PM 16.99 62.582 0.083 7.47 0.72 9.77
9/14/2021 4:15:00 PM 17 62.6 0.083 7.5 0.64 9.76
9/14/2021 4:30:00 PM 17.01 62.618 0.083 7.47 0.66 9.71
9/14/2021 4:45:00 PM 17 62.6 0.078 7.41 2.23 9.68
9/14/2021 5:00:00 PM 17.03 62.654 0.083 7.45 0.73 9.66
9/14/2021 5:15:00 PM 17.02 62.636 0.078 7.36 2.22 9.58
9/14/2021 5:30:00 PM 17 62.6 0.083 7.36 0.67 9.52
9/14/2021 5:45:00 PM 17 62.6 0.083 7.34 0.66 9.48
9/14/2021 6:00:00 PM 16.99 62.582 0.081 7.28 1.98 9.42
9/14/2021 6:15:00 PM 16.98 62.564 0.083 7.28 0.66 9.35
9/14/2021 6:30:00 PM 16.96 62.528 0.081 7.22 2.12 9.28
9/14/2021 6:45:00 PM 16.94 62.492 0.084 7.21 0.65 9.2
9/14/2021 7:00:00 PM 16.91 62.438 0.084 7.17 0.68 9.13
9/14/2021 7:15:00 PM 16.88 62.384 0.079 7.12 2.06 9.07
9/14/2021 7:30:00 PM 16.84 62.312 0.084 7.13 0.67 9.03
9/14/2021 7:45:00 PM 16.79 62.222 0.084 7.1 0.72 8.99
9/14/2021 8:00:00 PM 16.73 62.114 0.085 7.09 0.71 8.97
9/14/2021 8:15:00 PM 16.68 62.024 0.085 7.07 0.64 8.96
9/14/2021 8:30:00 PM 16.63 61.934 0.08 7.05 2.13 8.95
9/14/2021 8:45:00 PM 16.57 61.826 0.085 7.06 0.67 8.95
9/14/2021 9:00:00 PM 16.52 61.736 0.085 7.05 0.79 8.95
9/14/2021 9:15:00 PM 16.46 61.628 0.085 7.06 0.67 8.96
9/14/2021 9:30:00 PM 16.4 61.52 0.086 7.06 0.65 8.96
9/14/2021 9:45:00 PM 16.34 61.412 0.086 7.05 0.64 8.98
9/14/2021 10:00:00 PM 16.28 61.304 0.086 7.05 0.64 8.99
9/14/2021 10:15:00 PM 16.22 61.196 0.086 7.02 0.64 9
9/14/2021 10:30:00 PM 16.16 61.088 0.081 7.04 2.12 9.01
9/14/2021 10:45:00 PM 16.11 60.998 0.086 7.04 0.63 9.02
9/14/2021 11:00:00 PM 16.05 60.89 0.086 7.03 0.69 9.02
9/14/2021 11:15:00 PM 15.99 60.782 0.086 7.04 0.63 9.04
9/14/2021 11:30:00 PM 15.93 60.674 0.087 7.04 0.64 9.05
9/14/2021 11:45:00 PM 15.87 60.566 0.087 7.03 0.64 9.06
9/15/2021 12:00:00 AM 15.82 60.476 0.087 7.02 0.63 9.08
9/15/2021 12:15:00 AM 15.76 60.368 0.084 7.03 2.07 9.09
9/15/2021 12:30:00 AM 15.71 60.278 0.087 7.04 0.61 9.1
9/15/2021 12:45:00 AM 15.66 60.188 0.087 7.04 0.6 9.11
9/15/2021 1:00:00 AM 15.61 60.098 0.087 7.04 0.65 9.12
9/15/2021 1:15:00 AM 15.56 60.008 0.087 7.03 0.63 9.13
9/15/2021 1:30:00 AM 15.51 59.918 0.087 7.04 0.58 9.14
9/15/2021 1:45:00 AM 15.46 59.828 0.087 7.04 0.66 9.15
9/15/2021 2:00:00 AM 15.42 59.756 0.087 7.03 0.59 9.16
9/15/2021 2:15:00 AM 15.38 59.684 0.087 7.03 0.61 9.17
9/15/2021 2:30:00 AM 15.33 59.594 0.087 7.03 0.67 9.18
9/15/2021 2:45:00 AM 15.29 59.522 0.087 7.03 0.67 9.19
9/15/2021 3:00:00 AM 15.25 59.45 0.087 6.98 0.61 9.2
9/15/2021 3:15:00 AM 15.21 59.378 0.088 7.02 0.61 9.21
9/15/2021 3:30:00 AM 15.17 59.306 0.088 7.01 0.65 9.22
9/15/2021 3:45:00 AM 15.13 59.234 0.088 7.03 0.7 9.23
9/15/2021 4:00:00 AM 15.09 59.162 0.088 7.03 0.64 9.24
9/15/2021 4:15:00 AM 15.05 59.09 0.088 7.02 0.66 9.24
9/15/2021 4:30:00 AM 15.02 59.036 0.088 7.02 0.67 9.25
9/15/2021 4:45:00 AM 14.99 58.982 0.088 7.02 0.63 9.26
9/15/2021 5:00:00 AM 14.95 58.91 0.088 7.03 0.62 9.26
9/15/2021 5:15:00 AM 14.92 58.856 0.088 7.03 0.56 9.27
9/15/2021 5:30:00 AM 14.9 58.82 0.088 7.02 0.64 9.28
9/15/2021 5:45:00 AM 14.87 58.766 0.088 7.02 0.64 9.28
9/15/2021 6:00:00 AM 14.86 58.748 0.088 7.02 0.67 9.29
9/15/2021 6:15:00 AM 14.84 58.712 0.088 7.02 0.59 9.29
9/15/2021 6:30:00 AM 14.82 58.676 0.088 7.02 0.64 9.3
9/15/2021 6:45:00 AM 14.79 58.622 0.088 7.01 0.66 9.3
9/15/2021 7:00:00 AM 14.77 58.586 0.088 7.02 0.66 9.32
9/15/2021 7:15:00 AM 14.75 58.55 0.088 7.03 0.65 9.36
9/15/2021 7:30:00 AM 14.74 58.532 0.088 7.04 0.6 9.39
9/15/2021 7:45:00 AM 14.73 58.514 0.088 7.05 0.7 9.44
9/15/2021 8:00:00 AM 14.72 58.496 0.088 7.06 0.67 9.5
9/15/2021 8:15:00 AM 14.73 58.514 0.088 7.07 0.63 9.58
9/15/2021 8:30:00 AM 14.73 58.514 0.088 7.09 0.59 9.62
9/15/2021 8:45:00 AM 14.75 58.55 0.088 7.11 0.64 9.7
9/15/2021 9:00:00 AM 14.79 58.622 0.087 7.15 0.6 9.81
9/15/2021 9:15:00 AM 14.87 58.766 0.087 7.21 0.62 9.92
9/15/2021 9:30:00 AM 14.89 58.802 0.087 7.22 0.63 9.9
9/15/2021 9:45:00 AM 14.92 58.856 0.087 7.25 0.59 9.97
9/15/2021 10:00:00 AM 14.97 58.946 0.087 7.27 0.63 9.99
9/15/2021 10:15:00 AM 14.99 58.982 0.087 7.28 0.73 9.97
9/15/2021 10:30:00 AM 15.09 59.162 0.086 7.33 0.74 10.09
9/15/2021 10:45:00 AM 15.1 59.18 0.087 7.31 0.61 9.98
9/15/2021 11:00:00 AM 15.1 59.18 0.086 7.28 0.59 9.9
9/15/2021 11:15:00 AM 15.13 59.234 0.084 7.25 2.01 9.91
9/15/2021 11:30:00 AM 15.22 59.396 0.084 7.31 1.98 9.99
9/15/2021 11:45:00 AM 15.26 59.468 0.086 7.36 0.61 10.05
9/15/2021 12:00:00 PM 15.28 59.504 0.081 7.33 2.1 10.05
9/15/2021 12:15:00 PM 15.32 59.576 0.081 7.35 2.01 10.04
9/15/2021 12:30:00 PM 15.38 59.684 0.086 7.41 0.59 10.07
9/15/2021 12:45:00 PM 15.42 59.756 0.086 7.39 0.62 9.99
9/15/2021 1:00:00 PM 15.43 59.774 0.081 7.32 2.09 9.91
9/15/2021 1:15:00 PM 15.48 59.864 0.086 7.37 0.63 9.94
9/15/2021 1:30:00 PM 15.5 59.9 0.086 7.35 0.61 9.85
9/15/2021 1:45:00 PM 15.48 59.864 0.084 7.28 2.15 9.77
9/15/2021 2:00:00 PM 15.5 59.9 0.086 7.31 0.58 9.81
9/15/2021 2:15:00 PM 15.53 59.954 0.085 7.32 0.64 9.82
9/15/2021 2:30:00 PM 15.57 60.026 0.085 7.31 0.63 9.9
9/15/2021 2:45:00 PM 15.6 60.08 0.085 7.37 0.62 9.91
9/15/2021 3:00:00 PM 15.61 60.098 0.085 7.37 0.59 9.89
9/15/2021 3:15:00 PM 15.61 60.098 0.085 7.31 0.63 9.72
9/15/2021 3:30:00 PM 15.61 60.098 0.084 7.27 0.91 9.61
9/15/2021 3:45:00 PM 15.61 60.098 0.084 7.24 0.9 9.56
9/15/2021 4:00:00 PM 15.59 60.062 0.084 7.22 0.83 9.56
9/15/2021 4:15:00 PM 15.56 60.008 0.084 7.23 0.82 9.5
9/15/2021 4:30:00 PM 15.53 59.954 0.084 7.23 0.77 9.5
9/15/2021 4:45:00 PM 15.51 59.918 0.084 7.18 0.76 9.49
9/15/2021 5:00:00 PM 15.5 59.9 0.084 7.22 0.77 9.47
9/15/2021 5:15:00 PM 15.48 59.864 0.084 7.19 0.88 9.41
9/15/2021 5:30:00 PM 15.47 59.846 0.084 7.18 0.82 9.41
9/15/2021 5:45:00 PM 15.45 59.81 0.084 7.18 0.92 9.43
9/15/2021 6:00:00 PM 15.43 59.774 0.084 7.17 0.89 9.42
9/15/2021 6:15:00 PM 15.41 59.738 0.084 7.15 1.06 9.4
9/15/2021 6:30:00 PM 15.38 59.684 0.085 7.15 1.05 9.38
9/15/2021 6:45:00 PM 15.35 59.63 0.085 7.15 1.16 9.4
9/15/2021 7:00:00 PM 15.32 59.576 0.085 7.15 1.08 9.39
9/15/2021 7:15:00 PM 15.28 59.504 0.085 7.14 1.06 9.37
9/15/2021 7:30:00 PM 15.24 59.432 0.084 7.13 1.29 9.36
9/15/2021 7:45:00 PM 15.19 59.342 0.084 7.12 1.33 9.36
9/15/2021 8:00:00 PM 15.14 59.252 0.084 7.12 1.5 9.36
9/15/2021 8:15:00 PM 15.09 59.162 0.083 7.09 1.9 9.37
9/15/2021 8:30:00 PM 15.05 59.09 0.078 7.08 3.56 9.38
9/15/2021 8:45:00 PM 15.01 59.018 0.079 7.07 3.16 9.4
9/15/2021 9:00:00 PM 14.98 58.964 0.084 7.1 1.54 9.41
9/15/2021 9:15:00 PM 14.95 58.91 0.085 7.1 1.27 9.41
9/15/2021 9:30:00 PM 14.94 58.892 0.086 7.1 1.73 9.42
9/15/2021 9:45:00 PM 14.92 58.856 0.087 7.13 1.3 9.42
9/15/2021 10:00:00 PM 14.9 58.82 0.087 7.11 1.37 9.43
9/15/2021 10:15:00 PM 14.89 58.802 0.082 7.1 2.61 9.43
9/15/2021 10:30:00 PM 14.88 58.784 0.087 7.11 1.24 9.43
9/15/2021 10:45:00 PM 14.87 58.766 0.086 7.12 1.22 9.43
9/15/2021 11:00:00 PM 14.86 58.748 0.086 7.11 1.11 9.43
9/15/2021 11:15:00 PM 14.85 58.73 0.081 7.08 2.68 9.43
9/15/2021 11:30:00 PM 14.84 58.712 0.082 7.09 2.66 9.43
9/15/2021 11:45:00 PM 14.83 58.694 0.086 7.12 1.17 9.44
9/16/2021 12:00:00 AM 14.81 58.658 0.086 7.12 1.14 9.44
9/16/2021 12:15:00 AM 14.79 58.622 0.086 7.11 1.05 9.44
9/16/2021 12:30:00 AM 14.78 58.604 0.086 7.11 1.08 9.44
9/16/2021 12:45:00 AM 14.76 58.568 0.086 7.08 0.98 9.45
9/16/2021 1:00:00 AM 14.73 58.514 0.086 7.11 1.01 9.45
9/16/2021 1:15:00 AM 14.7 58.46 0.084 7.09 2.54 9.46
9/16/2021 1:30:00 AM 14.68 58.424 0.086 7.09 0.94 9.46
9/16/2021 1:45:00 AM 14.66 58.388 0.086 7.12 1 9.46
9/16/2021 2:00:00 AM 14.64 58.352 0.086 7.12 0.94 9.47
9/16/2021 2:15:00 AM 14.61 58.298 0.084 7.1 2.43 9.48
9/16/2021 2:30:00 AM 14.59 58.262 0.086 7.12 0.95 9.48
9/16/2021 2:45:00 AM 14.56 58.208 0.086 7.12 0.91 9.49
9/16/2021 3:00:00 AM 14.54 58.172 0.083 7.09 2.47 9.49
9/16/2021 3:15:00 AM 14.51 58.118 0.084 7.09 2.53 9.5
9/16/2021 3:30:00 AM 14.48 58.064 0.084 7.09 2.32 9.5
9/16/2021 3:45:00 AM 14.45 58.01 0.086 7.07 0.88 9.51
9/16/2021 4:00:00 AM 14.43 57.974 0.086 7.13 0.93 9.51
9/16/2021 4:15:00 AM 14.39 57.902 0.086 7.13 0.82 9.53
9/16/2021 4:30:00 AM 14.36 57.848 0.084 7.1 2.51 9.53
9/16/2021 4:45:00 AM 14.33 57.794 0.086 7.13 0.86 9.54
9/16/2021 5:00:00 AM 14.3 57.74 0.086 7.12 0.92 9.55
9/16/2021 5:15:00 AM 14.27 57.686 0.086 7.13 0.82 9.56
9/16/2021 5:30:00 AM 14.24 57.632 0.086 7.12 0.95 9.56
9/16/2021 5:45:00 AM 14.21 57.578 0.086 7.13 0.81 9.58
9/16/2021 6:00:00 AM 14.18 57.524 0.086 7.12 0.79 9.59
9/16/2021 6:15:00 AM 14.15 57.47 0.086 7.12 0.93 9.59
9/16/2021 6:30:00 AM 14.13 57.434 0.086 7.13 0.83 9.6
9/16/2021 6:45:00 AM 14.11 57.398 0.086 7.12 0.75 9.61
9/16/2021 7:00:00 AM 14.09 57.362 0.086 7.13 0.82 9.62
9/16/2021 7:15:00 AM 14.07 57.326 0.086 7.13 0.8 9.64
9/16/2021 7:30:00 AM 14.06 57.308 0.086 7.13 0.76 9.67
9/16/2021 7:45:00 AM 14.04 57.272 0.086 7.15 0.76 9.71
9/16/2021 8:00:00 AM 14.04 57.272 0.086 7.16 0.82 9.77
9/16/2021 8:15:00 AM 14.03 57.254 0.086 7.14 0.73 9.81
9/16/2021 8:30:00 AM 14.04 57.272 0.086 7.19 0.75 9.85
9/16/2021 8:45:00 AM 14.04 57.272 0.086 7.21 0.71 9.9
9/16/2021 9:00:00 AM 14.05 57.29 0.081 7.19 2.33 9.97
9/16/2021 9:15:00 AM 14.08 57.344 0.085 7.23 0.77 10.06
9/16/2021 9:30:00 AM 14.13 57.434 0.085 7.3 0.7 10.15
9/16/2021 9:45:00 AM 14.12 57.416 0.085 7.3 0.84 10.15
9/16/2021 10:00:00 AM 14.21 57.578 0.085 7.35 0.7 10.23
9/16/2021 10:15:00 AM 14.31 57.758 0.085 7.39 0.72 10.28
9/16/2021 10:30:00 AM 14.38 57.884 0.085 7.4 0.69 10.29
9/16/2021 10:45:00 AM 14.56 58.208 0.085 7.43 0.68 10.35
9/16/2021 11:00:00 AM 14.57 58.226 0.085 7.45 0.7 10.34
9/16/2021 11:15:00 AM 14.59 58.262 0.085 7.47 0.71 10.36
9/16/2021 11:30:00 AM 14.66 58.388 0.085 7.5 0.71 10.39
9/16/2021 11:45:00 AM 14.79 58.622 0.084 7.51 0.71 10.35
9/16/2021 12:00:00 PM 14.9 58.82 0.079 7.46 2.19 10.29
9/16/2021 12:15:00 PM 14.87 58.766 0.085 7.46 0.72 10.23
9/16/2021 12:30:00 PM 14.97 58.946 0.084 7.5 0.69 10.28
9/16/2021 12:45:00 PM 15.12 59.216 0.084 7.51 0.67 10.3
9/16/2021 1:00:00 PM 15.26 59.468 0.084 7.58 0.66 10.29
9/16/2021 1:15:00 PM 15.39 59.702 0.079 7.53 2.23 10.24
9/16/2021 1:30:00 PM 15.47 59.846 0.078 7.49 2.13 10.17
9/16/2021 1:45:00 PM 15.55 59.99 0.084 7.48 0.6 10.07
9/16/2021 2:00:00 PM 15.65 60.17 0.084 7.49 0.66 10
9/16/2021 2:15:00 PM 15.76 60.368 0.079 7.44 2.17 9.97
9/16/2021 2:30:00 PM 15.9 60.62 0.084 7.51 0.72 9.99
9/16/2021 2:45:00 PM 16.05 60.89 0.084 7.55 0.74 10
9/16/2021 3:00:00 PM 16.15 61.07 0.079 7.48 2.07 9.94
9/16/2021 3:15:00 PM 16.22 61.196 0.084 7.5 0.66 9.91
9/16/2021 3:30:00 PM 16.27 61.286 0.084 7.51 0.67 9.91
9/16/2021 3:45:00 PM 16.24 61.232 0.084 7.46 0.68 9.86
9/16/2021 4:00:00 PM 16.21 61.178 0.084 7.44 0.69 9.81
9/16/2021 4:15:00 PM 16.25 61.25 0.084 7.44 0.67 9.8
9/16/2021 4:30:00 PM 16.29 61.322 0.084 7.44 0.65 9.8
9/16/2021 4:45:00 PM 16.31 61.358 0.079 7.39 2.17 9.78
9/16/2021 5:00:00 PM 16.31 61.358 0.079 7.38 2.13 9.76
9/16/2021 5:15:00 PM 16.31 61.358 0.084 7.39 0.64 9.73
9/16/2021 5:30:00 PM 16.31 61.358 0.08 7.32 2.07 9.68
9/16/2021 5:45:00 PM 16.3 61.34 0.085 7.34 0.63 9.64
9/16/2021 6:00:00 PM 16.3 61.34 0.085 7.29 0.66 9.58
9/16/2021 6:15:00 PM 16.28 61.304 0.085 7.27 0.67 9.48
9/16/2021 6:30:00 PM 16.26 61.268 0.085 7.23 0.7 9.41
9/16/2021 6:45:00 PM 16.23 61.214 0.086 7.2 0.71 9.34
9/16/2021 7:00:00 PM 16.2 61.16 0.086 7.17 0.6 9.29
9/16/2021 7:15:00 PM 16.15 61.07 0.086 7.13 0.69 9.25
9/16/2021 7:30:00 PM 16.11 60.998 0.086 7.13 0.67 9.22
9/16/2021 7:45:00 PM 16.07 60.926 0.087 7.12 0.66 9.21
9/16/2021 8:00:00 PM 16.03 60.854 0.087 7.11 0.7 9.2
9/16/2021 8:15:00 PM 15.99 60.782 0.087 7.1 0.68 9.19
9/16/2021 8:30:00 PM 15.95 60.71 0.087 7.1 0.68 9.19
9/16/2021 8:45:00 PM 15.91 60.638 0.082 7.06 2.18 9.19
9/16/2021 9:00:00 PM 15.87 60.566 0.082 7.06 2.19 9.2
9/16/2021 9:15:00 PM 15.83 60.494 0.088 7.04 0.68 9.2
9/16/2021 9:30:00 PM 15.8 60.44 0.088 7.08 0.68 9.21
9/16/2021 9:45:00 PM 15.76 60.368 0.086 7.05 2.07 9.21
9/16/2021 10:00:00 PM 15.73 60.314 0.088 7.06 0.66 9.22
9/16/2021 10:15:00 PM 15.69 60.242 0.088 7.05 0.64 9.22
9/16/2021 10:30:00 PM 15.65 60.17 0.088 7.05 0.64 9.23
9/16/2021 10:45:00 PM 15.62 60.116 0.088 7.05 0.62 9.23
9/16/2021 11:00:00 PM 15.58 60.044 0.088 7.05 0.61 9.24
9/16/2021 11:15:00 PM 15.55 59.99 0.088 7.03 0.63 9.25
9/16/2021 11:30:00 PM 15.51 59.918 0.089 7.03 0.63 9.25
9/16/2021 11:45:00 PM 15.48 59.864 0.083 7.01 2.24 9.26
9/17/2021 12:00:00 AM 15.45 59.81 0.089 7 0.61 9.26
9/17/2021 12:15:00 AM 15.42 59.756 0.084 7.03 2.06 9.27
9/17/2021 12:30:00 AM 15.39 59.702 0.087 7.03 1.99 9.27
9/17/2021 12:45:00 AM 15.36 59.648 0.084 7.02 2.04 9.28
9/17/2021 1:00:00 AM 15.33 59.594 0.089 7 0.68 9.29
9/17/2021 1:15:00 AM 15.3 59.54 0.089 7.04 0.65 9.29
9/17/2021 1:30:00 AM 15.27 59.486 0.089 7.04 0.7 9.3
9/17/2021 1:45:00 AM 15.25 59.45 0.089 7.04 0.63 9.3
9/17/2021 2:00:00 AM 15.22 59.396 0.089 7.04 0.67 9.31
9/17/2021 2:15:00 AM 15.19 59.342 0.089 7.04 0.63 9.31
9/17/2021 2:30:00 AM 15.17 59.306 0.089 7.03 0.65 9.32
9/17/2021 2:45:00 AM 15.14 59.252 0.089 7.04 0.63 9.33
9/17/2021 3:00:00 AM 15.12 59.216 0.089 7.03 0.69 9.33
9/17/2021 3:15:00 AM 15.1 59.18 0.089 7.04 0.66 9.34
9/17/2021 3:30:00 AM 15.08 59.144 0.087 7.02 2.16 9.34
9/17/2021 3:45:00 AM 15.06 59.108 0.084 7.01 2.02 9.35
9/17/2021 4:00:00 AM 15.03 59.054 0.084 7.02 2.13 9.36
9/17/2021 4:15:00 AM 15.01 59.018 0.09 7.04 0.66 9.36
9/17/2021 4:30:00 AM 14.99 58.982 0.09 7.04 0.65 9.37
9/17/2021 4:45:00 AM 14.98 58.964 0.09 7.03 0.65 9.37
9/17/2021 5:00:00 AM 14.96 58.928 0.09 7.02 0.65 9.38
9/17/2021 5:15:00 AM 14.94 58.892 0.09 7.01 0.61 9.38
9/17/2021 5:30:00 AM 14.92 58.856 0.09 7 0.6 9.38
9/17/2021 5:45:00 AM 14.9 58.82 0.09 7.01 0.61 9.39
9/17/2021 6:00:00 AM 14.88 58.784 0.085 6.98 2.06 9.4
9/17/2021 6:15:00 AM 14.85 58.73 0.09 7 0.67 9.4
9/17/2021 6:30:00 AM 14.82 58.676 0.09 7.01 0.66 9.41
9/17/2021 6:45:00 AM 14.79 58.622 0.09 7.02 0.64 9.42
9/17/2021 7:00:00 AM 14.78 58.604 0.087 7 2.12 9.43
9/17/2021 7:15:00 AM 14.76 58.568 0.09 6.99 0.67 9.45
9/17/2021 7:30:00 AM 14.75 58.55 0.09 7.04 0.67 9.47
9/17/2021 7:45:00 AM 14.74 58.532 0.085 7.02 1.92 9.5
9/17/2021 8:00:00 AM 14.73 58.514 0.09 7.05 0.64 9.51
9/17/2021 8:15:00 AM 14.73 58.514 0.09 7.06 0.58 9.55
9/17/2021 8:30:00 AM 14.74 58.532 0.084 7.04 2 9.59
9/17/2021 8:45:00 AM 14.74 58.532 0.09 7.07 0.63 9.64
9/17/2021 9:00:00 AM 14.75 58.55 0.089 7.08 0.61 9.66
9/17/2021 9:15:00 AM 14.76 58.568 0.089 7.09 0.61 9.69
9/17/2021 9:30:00 AM 14.78 58.604 0.089 7.13 0.59 9.76
9/17/2021 9:45:00 AM 14.8 58.64 0.089 7.16 0.62 9.8
9/17/2021 10:00:00 AM 14.84 58.712 0.089 7.2 0.54 9.88
9/17/2021 10:15:00 AM 14.88 58.784 0.089 7.23 0.56 9.93
9/17/2021 10:30:00 AM 14.93 58.874 0.086 7.25 1.98 9.98
9/17/2021 10:45:00 AM 14.99 58.982 0.088 7.29 0.6 10.02
9/17/2021 11:00:00 AM 15.07 59.126 0.088 7.32 0.64 10.07
9/17/2021 11:15:00 AM 15.14 59.252 0.088 7.35 0.59 10.11
9/17/2021 11:30:00 AM 15.22 59.396 0.086 7.35 1.99 10.13
9/17/2021 11:45:00 AM 15.27 59.486 0.088 7.37 0.59 10.1
9/17/2021 12:00:00 PM 15.33 59.594 0.088 7.39 0.63 10.11
9/17/2021 12:15:00 PM 15.37 59.666 0.088 7.39 0.58 10.1
9/17/2021 12:30:00 PM 15.44 59.792 0.088 7.41 0.61 10.08
9/17/2021 12:45:00 PM 15.47 59.846 0.088 7.4 0.52 10.08
9/17/2021 1:00:00 PM 15.51 59.918 0.087 7.41 0.62 10.09
9/17/2021 1:15:00 PM 15.53 59.954 0.087 7.4 0.54 10.04
9/17/2021 1:30:00 PM 15.55 59.99 0.087 7.39 0.58 10.02
9/17/2021 1:45:00 PM 15.58 60.044 0.087 7.38 0.58 10.02
9/17/2021 2:00:00 PM 15.61 60.098 0.087 7.37 0.59 9.99
9/17/2021 2:15:00 PM 15.65 60.17 0.087 7.38 0.58 9.98
9/17/2021 2:30:00 PM 15.64 60.152 0.087 7.33 0.58 9.9
9/17/2021 2:45:00 PM 15.67 60.206 0.085 7.34 1.98 9.91
9/17/2021 3:00:00 PM 15.76 60.368 0.087 7.41 0.62 9.99
9/17/2021 3:15:00 PM 15.83 60.494 0.087 7.43 0.58 10.02
9/17/2021 3:30:00 PM 15.84 60.512 0.087 7.41 0.57 9.94
9/17/2021 3:45:00 PM 15.86 60.548 0.087 7.36 0.6 9.83
9/17/2021 4:00:00 PM 15.9 60.62 0.087 7.34 0.62 9.76
9/17/2021 4:15:00 PM 15.95 60.71 0.087 7.3 0.61 9.71
9/17/2021 4:30:00 PM 16.02 60.836 0.082 7.29 1.94 9.68
9/17/2021 4:45:00 PM 16.09 60.962 0.082 7.28 2.08 9.65
9/17/2021 5:00:00 PM 16.12 61.016 0.087 7.29 0.62 9.6
9/17/2021 5:15:00 PM 16.15 61.07 0.085 7.24 2.07 9.55
9/17/2021 5:30:00 PM 16.17 61.106 0.082 7.23 2.05 9.51
9/17/2021 5:45:00 PM 16.18 61.124 0.087 7.24 0.59 9.48
9/17/2021 6:00:00 PM 16.18 61.124 0.087 7.21 0.61 9.44
9/17/2021 6:15:00 PM 16.17 61.106 0.087 7.19 0.57 9.41
9/17/2021 6:30:00 PM 16.15 61.07 0.087 7.17 0.59 9.37
9/17/2021 6:45:00 PM 16.13 61.034 0.087 7.16 0.6 9.34
9/17/2021 7:00:00 PM 16.1 60.98 0.082 7.11 1.89 9.31
9/17/2021 7:15:00 PM 16.06 60.908 0.083 7.09 1.97 9.27
9/17/2021 7:30:00 PM 16 60.8 0.088 7.1 0.62 9.24
9/17/2021 7:45:00 PM 15.95 60.71 0.088 7.09 0.64 9.22
9/17/2021 8:00:00 PM 15.9 60.62 0.088 7.08 0.67 9.21
9/17/2021 8:15:00 PM 15.86 60.548 0.083 7.05 1.91 9.2
9/17/2021 8:30:00 PM 15.82 60.476 0.088 7.07 0.59 9.2
9/17/2021 8:45:00 PM 15.77 60.386 0.088 7.07 0.57 9.2
9/17/2021 9:00:00 PM 15.73 60.314 0.083 7.04 2.01 9.21
9/17/2021 9:15:00 PM 15.68 60.224 0.088 7.05 0.66 9.21
9/17/2021 9:30:00 PM 15.64 60.152 0.089 7.06 0.59 9.22
9/17/2021 9:45:00 PM 15.6 60.08 0.089 7.06 0.59 9.22
9/17/2021 10:00:00 PM 15.56 60.008 0.089 7.06 0.58 9.23
9/17/2021 10:15:00 PM 15.51 59.918 0.089 7.04 0.64 9.24
9/17/2021 10:30:00 PM 15.47 59.846 0.086 7.06 1.98 9.24
9/17/2021 10:45:00 PM 15.43 59.774 0.089 7.06 0.65 9.25
9/17/2021 11:00:00 PM 15.4 59.72 0.089 7.06 0.62 9.26
9/17/2021 11:15:00 PM 15.37 59.666 0.089 7.05 0.58 9.26
9/17/2021 11:30:00 PM 15.35 59.63 0.089 7.05 0.63 9.27
9/17/2021 11:45:00 PM 15.32 59.576 0.089 7.05 0.72 9.28
9/18/2021 12:00:00 AM 15.3 59.54 0.089 7.05 0.63 9.28
9/18/2021 12:15:00 AM 15.28 59.504 0.089 7.05 0.61 9.28
9/18/2021 12:30:00 AM 15.26 59.468 0.089 7.06 0.61 9.29
9/18/2021 12:45:00 AM 15.23 59.414 0.089 7.05 0.61 9.29
9/18/2021 1:00:00 AM 15.21 59.378 0.089 7.05 0.61 9.29
9/18/2021 1:15:00 AM 15.19 59.342 0.09 7.02 0.56 9.3
9/18/2021 1:30:00 AM 15.17 59.306 0.09 7.06 0.62 9.31
9/18/2021 1:45:00 AM 15.14 59.252 0.09 7.05 0.62 9.31
9/18/2021 2:00:00 AM 15.11 59.198 0.087 7.03 1.89 9.31
9/18/2021 2:15:00 AM 15.08 59.144 0.085 7.03 1.98 9.32
9/18/2021 2:30:00 AM 15.04 59.072 0.09 7.03 0.55 9.33
9/18/2021 2:45:00 AM 15.01 59.018 0.085 7.04 1.94 9.34
9/18/2021 3:00:00 AM 14.98 58.964 0.09 7.04 0.62 9.35
9/18/2021 3:15:00 AM 14.94 58.892 0.09 7.05 0.57 9.35
9/18/2021 3:30:00 AM 14.9 58.82 0.09 7.04 0.64 9.36
9/18/2021 3:45:00 AM 14.87 58.766 0.09 7.04 0.59 9.36
9/18/2021 4:00:00 AM 14.83 58.694 0.09 7.04 0.64 9.37
9/18/2021 4:15:00 AM 14.8 58.64 0.09 7.05 0.63 9.38
9/18/2021 4:30:00 AM 14.77 58.586 0.09 7.04 0.61 9.39
9/18/2021 4:45:00 AM 14.75 58.55 0.09 7.06 0.63 9.4
9/18/2021 5:00:00 AM 14.72 58.496 0.09 7.04 0.66 9.4
9/18/2021 5:15:00 AM 14.7 58.46 0.09 7.05 0.62 9.4
9/18/2021 5:30:00 AM 14.69 58.442 0.09 7.04 0.62 9.41
9/18/2021 5:45:00 AM 14.67 58.406 0.09 7.05 0.66 9.41
9/18/2021 6:00:00 AM 14.66 58.388 0.09 7.05 0.6 9.42
9/18/2021 6:15:00 AM 14.64 58.352 0.09 7.06 0.63 9.43
9/18/2021 6:30:00 AM 14.63 58.334 0.09 7.06 0.68 9.44
9/18/2021 6:45:00 AM 14.61 58.298 0.09 7.06 0.66 9.43
9/18/2021 7:00:00 AM 14.59 58.262 0.09 7.06 0.59 9.45
9/18/2021 7:15:00 AM 14.58 58.244 0.088 7.03 1.96 9.46
9/18/2021 7:30:00 AM 14.56 58.208 0.09 7.06 0.61 9.49
9/18/2021 7:45:00 AM 14.56 58.208 0.09 7.06 0.62 9.54
9/18/2021 8:00:00 AM 14.55 58.19 0.09 7.08 0.66 9.59
9/18/2021 8:15:00 AM 14.55 58.19 0.09 7.09 0.82 9.64
9/18/2021 8:30:00 AM 14.53 58.154 0.09 7.1 1.01 9.69
9/18/2021 8:45:00 AM 14.54 58.172 0.09 7.12 0.74 9.74
9/18/2021 9:00:00 AM 14.58 58.244 0.084 7.11 1.95 9.82
9/18/2021 9:15:00 AM 14.63 58.334 0.09 7.16 0.55 9.88
9/18/2021 9:30:00 AM 14.67 58.406 0.089 7.18 0.62 9.94
9/18/2021 9:45:00 AM 14.74 58.532 0.084 7.2 2.07 10.01
9/18/2021 10:00:00 AM 14.86 58.748 0.089 7.29 0.63 10.09
9/18/2021 10:15:00 AM 15.01 59.018 0.089 7.32 0.55 10.12
9/18/2021 10:30:00 AM 15.16 59.288 0.089 7.36 0.55 10.13
9/18/2021 10:45:00 AM 15.26 59.468 0.089 7.35 0.62 10.11
9/18/2021 11:00:00 AM 15.27 59.486 0.087 7.33 1.88 10.07
9/18/2021 11:15:00 AM 15.39 59.702 0.089 7.38 0.58 10.09
9/18/2021 11:30:00 AM 15.56 60.008 0.088 7.43 0.59 10.13
9/18/2021 11:45:00 AM 15.51 59.918 0.086 7.37 2 10.11
9/18/2021 12:00:00 PM 15.64 60.152 0.088 7.45 0.61 10.13
9/18/2021 12:15:00 PM 15.71 60.278 0.083 7.41 1.98 10.1
9/18/2021 12:30:00 PM 15.84 60.512 0.083 7.45 1.89 10.1
9/18/2021 12:45:00 PM 15.87 60.566 0.083 7.42 2 10.06
9/18/2021 1:00:00 PM 16.03 60.854 0.09 7.44 0.68 10.03
9/18/2021 1:15:00 PM 16.13 61.034 0.087 7.44 2.08 10.01
9/18/2021 1:30:00 PM 16.23 61.214 0.093 7.46 0.75 9.98
9/18/2021 1:45:00 PM 16.33 61.394 0.093 7.44 0.73 9.92
9/18/2021 2:00:00 PM 16.49 61.682 0.092 7.46 0.68 9.9
9/18/2021 2:15:00 PM 16.6 61.88 0.092 7.47 0.7 9.9
9/18/2021 2:30:00 PM 16.68 62.024 0.091 7.44 0.71 9.87
9/18/2021 2:45:00 PM 16.8 62.24 0.091 7.49 0.67 9.85
9/18/2021 3:00:00 PM 16.86 62.348 0.09 7.44 0.67 9.74
9/18/2021 3:15:00 PM 16.88 62.384 0.085 7.39 1.94 9.7
9/18/2021 3:30:00 PM 16.92 62.456 0.09 7.41 0.61 9.65
9/18/2021 3:45:00 PM 16.91 62.438 0.084 7.34 2.03 9.57
9/18/2021 4:00:00 PM 16.93 62.474 0.089 7.36 0.61 9.56
9/18/2021 4:15:00 PM 16.96 62.528 0.089 7.35 0.6 9.53
9/18/2021 4:30:00 PM 16.98 62.564 0.084 7.32 2.03 9.5
9/18/2021 4:45:00 PM 17 62.6 0.088 7.33 0.55 9.44
9/18/2021 5:00:00 PM 16.99 62.582 0.088 7.29 0.59 9.36
9/18/2021 5:15:00 PM 17 62.6 0.088 7.29 0.62 9.34
9/18/2021 5:30:00 PM 16.99 62.582 0.088 7.23 0.6 9.29
9/18/2021 5:45:00 PM 16.96 62.528 0.084 7.22 1.94 9.25
9/18/2021 6:00:00 PM 16.94 62.492 0.086 7.2 1.86 9.21
9/18/2021 6:15:00 PM 16.92 62.456 0.088 7.21 0.59 9.18
9/18/2021 6:30:00 PM 16.89 62.402 0.088 7.19 0.62 9.15
9/18/2021 6:45:00 PM 16.86 62.348 0.083 7.14 1.86 9.12
9/18/2021 7:00:00 PM 16.82 62.276 0.088 7.15 0.56 9.09
9/18/2021 7:15:00 PM 16.77 62.186 0.086 7.11 1.93 9.05
9/18/2021 7:30:00 PM 16.71 62.078 0.089 7.12 0.56 9.03
9/18/2021 7:45:00 PM 16.65 61.97 0.089 7.12 0.6 9.02
9/18/2021 8:00:00 PM 16.59 61.862 0.089 7.08 0.59 9
9/18/2021 8:15:00 PM 16.53 61.754 0.089 7.11 0.64 9.01
9/18/2021 8:30:00 PM 16.47 61.646 0.089 7.11 0.64 9.01
9/18/2021 8:45:00 PM 16.41 61.538 0.089 7.09 0.65 9.02
9/18/2021 9:00:00 PM 16.35 61.43 0.089 7.1 0.63 9.02
9/18/2021 9:15:00 PM 16.28 61.304 0.084 7.07 1.99 9.03
9/18/2021 9:30:00 PM 16.22 61.196 0.089 7.08 0.61 9.05
9/18/2021 9:45:00 PM 16.16 61.088 0.089 7.09 0.62 9.06
9/18/2021 10:00:00 PM 16.09 60.962 0.087 7.07 1.99 9.07
9/18/2021 10:15:00 PM 16.02 60.836 0.089 7.08 0.68 9.08
9/18/2021 10:30:00 PM 15.96 60.728 0.084 7.07 1.94 9.1
9/18/2021 10:45:00 PM 15.89 60.602 0.087 7.07 1.98 9.11
9/18/2021 11:00:00 PM 15.82 60.476 0.087 7.06 1.99 9.12
9/18/2021 11:15:00 PM 15.75 60.35 0.089 7.08 0.64 9.15
9/18/2021 11:30:00 PM 15.68 60.224 0.089 7.08 0.64 9.16
9/18/2021 11:45:00 PM 15.61 60.098 0.087 7.08 2.03 9.17
9/19/2021 12:00:00 AM 15.54 59.972 0.089 7.08 0.61 9.19
9/19/2021 12:15:00 AM 15.47 59.846 0.09 7.08 0.68 9.21
9/19/2021 12:30:00 AM 15.4 59.72 0.09 7.08 0.65 9.23
9/19/2021 12:45:00 AM 15.32 59.576 0.09 7.08 0.62 9.24
9/19/2021 1:00:00 AM 15.25 59.45 0.084 7.06 1.98 9.26
9/19/2021 1:15:00 AM 15.18 59.324 0.09 7.08 0.65 9.27
9/19/2021 1:30:00 AM 15.11 59.198 0.09 7.07 0.64 9.29
9/19/2021 1:45:00 AM 15.04 59.072 0.09 7.07 0.73 9.31
9/19/2021 2:00:00 AM 14.97 58.946 0.09 7.02 0.68 9.32
9/19/2021 2:15:00 AM 14.9 58.82 0.09 7.07 0.67 9.34
9/19/2021 2:30:00 AM 14.86 58.748 0.09 7.04 0.63 9.35
9/19/2021 2:45:00 AM 14.82 58.676 0.09 7.08 0.71 9.36
9/19/2021 3:00:00 AM 14.79 58.622 0.09 7.07 0.62 9.37
9/19/2021 3:15:00 AM 14.75 58.55 0.09 7.08 0.63 9.38
9/19/2021 3:30:00 AM 14.73 58.514 0.09 7.09 0.62 9.39
9/19/2021 3:45:00 AM 14.7 58.46 0.09 7.09 0.67 9.4
9/19/2021 4:00:00 AM 14.67 58.406 0.09 7.08 0.65 9.4
9/19/2021 4:15:00 AM 14.63 58.334 0.09 7.1 0.58 9.41
9/19/2021 4:30:00 AM 14.59 58.262 0.09 7.09 0.6 9.42
9/19/2021 4:45:00 AM 14.54 58.172 0.088 7.09 1.96 9.43
9/19/2021 5:00:00 AM 14.5 58.1 0.088 7.08 1.92 9.44
9/19/2021 5:15:00 AM 14.46 58.028 0.09 7.08 0.6 9.46
9/19/2021 5:30:00 AM 14.41 57.938 0.09 7.06 0.61 9.47
9/19/2021 5:45:00 AM 14.38 57.884 0.09 7.08 0.63 9.48
9/19/2021 6:00:00 AM 14.34 57.812 0.09 7.09 0.69 9.49
9/19/2021 6:15:00 AM 14.3 57.74 0.09 7.1 0.6 9.51
9/19/2021 6:30:00 AM 14.26 57.668 0.086 7.08 1.9 9.52
9/19/2021 6:45:00 AM 14.21 57.578 0.09 7.11 0.64 9.53
9/19/2021 7:00:00 AM 14.17 57.506 0.09 7.12 0.7 9.55
9/19/2021 7:15:00 AM 14.13 57.434 0.09 7.12 0.58 9.57
9/19/2021 7:30:00 AM 14.1 57.38 0.09 7.13 0.63 9.61
9/19/2021 7:45:00 AM 14.07 57.326 0.09 7.15 0.6 9.66
9/19/2021 8:00:00 AM 14.03 57.254 0.09 7.16 0.63 9.73
9/19/2021 8:15:00 AM 14.02 57.236 0.09 7.17 0.58 9.79
9/19/2021 8:30:00 AM 14.01 57.218 0.09 7.17 0.61 9.84
9/19/2021 8:45:00 AM 14.01 57.218 0.09 7.21 0.63 9.91
9/19/2021 9:00:00 AM 14 57.2 0.084 7.2 2.01 9.95
9/19/2021 9:15:00 AM 14.01 57.218 0.089 7.21 0.64 10
9/19/2021 9:30:00 AM 14.03 57.254 0.09 7.27 0.61 10.07
9/19/2021 9:45:00 AM 14.04 57.272 0.09 7.27 0.62 10.11
9/19/2021 10:00:00 AM 14.07 57.326 0.087 7.29 1.87 10.16
9/19/2021 10:15:00 AM 14.09 57.362 0.089 7.32 0.59 10.19
9/19/2021 10:30:00 AM 14.14 57.452 0.087 7.33 1.9 10.25
9/19/2021 10:45:00 AM 14.35 57.83 0.089 7.42 0.59 10.33
9/19/2021 11:00:00 AM 14.52 58.136 0.089 7.45 0.55 10.35
9/19/2021 11:15:00 AM 14.68 58.424 0.083 7.43 2.03 10.34
9/19/2021 11:30:00 AM 14.76 58.568 0.089 7.44 0.55 10.31
9/19/2021 11:45:00 AM 14.77 58.586 0.089 7.44 0.5 10.27
9/19/2021 12:00:00 PM 14.77 58.586 0.089 7.41 0.56 10.22
9/19/2021 12:15:00 PM 14.82 58.676 0.089 7.41 0.54 10.18
9/19/2021 12:30:00 PM 14.89 58.802 0.088 7.41 0.54 10.13
9/19/2021 12:45:00 PM 15 59 0.088 7.39 0.66 10.08
9/19/2021 1:00:00 PM 15.11 59.198 0.088 7.41 0.59 10.03
9/19/2021 1:15:00 PM 15.22 59.396 0.083 7.37 1.84 10
9/19/2021 1:30:00 PM 15.34 59.612 0.088 7.39 0.52 9.96
9/19/2021 1:45:00 PM 15.47 59.846 0.088 7.4 0.51 9.91
9/19/2021 2:00:00 PM 15.6 60.08 0.088 7.37 0.54 9.85
9/19/2021 2:15:00 PM 15.73 60.314 0.088 7.39 0.55 9.8
9/19/2021 2:30:00 PM 15.84 60.512 0.088 7.38 0.6 9.76
9/19/2021 2:45:00 PM 15.93 60.674 0.088 7.37 0.55 9.7
9/19/2021 3:00:00 PM 16 60.8 0.088 7.36 0.55 9.67
9/19/2021 3:15:00 PM 16.06 60.908 0.088 7.34 0.6 9.62
9/19/2021 3:30:00 PM 16.09 60.962 0.085 7.3 2.09 9.58
9/19/2021 3:45:00 PM 16.12 61.016 0.082 7.28 2.02 9.55
9/19/2021 4:00:00 PM 16.13 61.034 0.088 7.29 0.52 9.5
9/19/2021 4:15:00 PM 16.13 61.034 0.088 7.27 0.53 9.47
9/19/2021 4:30:00 PM 16.13 61.034 0.082 7.23 1.97 9.45
9/19/2021 4:45:00 PM 16.13 61.034 0.082 7.22 1.98 9.43
9/19/2021 5:00:00 PM 16.12 61.016 0.082 7.21 1.84 9.41
9/19/2021 5:15:00 PM 16.1 60.98 0.088 7.23 0.56 9.39
9/19/2021 5:30:00 PM 16.07 60.926 0.088 7.23 0.57 9.38
9/19/2021 5:45:00 PM 16.04 60.872 0.082 7.18 1.96 9.37
9/19/2021 6:00:00 PM 16 60.8 0.088 7.19 0.64 9.35
9/19/2021 6:15:00 PM 15.96 60.728 0.088 7.17 0.63 9.34
9/19/2021 6:30:00 PM 15.92 60.656 0.083 7.14 1.97 9.32
9/19/2021 6:45:00 PM 15.88 60.584 0.088 7.15 0.58 9.31
9/19/2021 7:00:00 PM 15.82 60.476 0.088 7.13 0.62 9.29
9/19/2021 7:15:00 PM 15.76 60.368 0.088 7.13 0.62 9.27
9/19/2021 7:30:00 PM 15.68 60.224 0.088 7.12 0.62 9.25
9/19/2021 7:45:00 PM 15.61 60.098 0.088 7.11 0.64 9.25
9/19/2021 8:00:00 PM 15.53 59.954 0.089 7.1 0.67 9.25
9/19/2021 8:15:00 PM 15.46 59.828 0.086 7.07 2.01 9.25
9/19/2021 8:30:00 PM 15.39 59.702 0.089 7.09 0.63 9.25
9/19/2021 8:45:00 PM 15.32 59.576 0.089 7.09 0.64 9.27
9/19/2021 9:00:00 PM 15.24 59.432 0.089 7.08 0.65 9.28
9/19/2021 9:15:00 PM 15.17 59.306 0.087 7.07 1.94 9.29
9/19/2021 9:30:00 PM 15.09 59.162 0.089 7.08 0.66 9.31
9/19/2021 9:45:00 PM 15.02 59.036 0.084 7.06 1.87 9.32
9/19/2021 10:00:00 PM 14.94 58.892 0.089 7.08 0.62 9.34
9/19/2021 10:15:00 PM 14.87 58.766 0.089 7.09 0.64 9.35
9/19/2021 10:30:00 PM 14.79 58.622 0.089 7.09 0.68 9.37
9/19/2021 10:45:00 PM 14.71 58.478 0.089 7.08 0.63 9.39
9/19/2021 11:00:00 PM 14.62 58.316 0.089 7.09 0.68 9.41
9/19/2021 11:15:00 PM 14.54 58.172 0.09 7.08 0.69 9.43
9/19/2021 11:30:00 PM 14.45 58.01 0.09 7.08 0.64 9.45
9/19/2021 11:45:00 PM 14.37 57.866 0.09 7.08 0.66 9.47
9/20/2021 12:00:00 AM 14.28 57.704 0.09 7.08 0.67 9.49
9/20/2021 12:15:00 AM 14.19 57.542 0.087 7.07 1.93 9.52
9/20/2021 12:30:00 AM 14.11 57.398 0.09 7.07 0.67 9.54
9/20/2021 12:45:00 AM 14.02 57.236 0.09 7.07 0.61 9.55
9/20/2021 1:00:00 AM 13.94 57.092 0.09 7.08 0.65 9.57
9/20/2021 1:15:00 AM 13.86 56.948 0.09 7.07 0.66 9.6
9/20/2021 1:30:00 AM 13.79 56.822 0.09 7.07 0.68 9.62
9/20/2021 1:45:00 AM 13.73 56.714 0.09 7.08 0.63 9.64
9/20/2021 2:00:00 AM 13.66 56.588 0.09 7.07 0.65 9.65
9/20/2021 2:15:00 AM 13.61 56.498 0.09 7.07 0.67 9.67
9/20/2021 2:30:00 AM 13.55 56.39 0.09 7.08 0.62 9.69
9/20/2021 2:45:00 AM 13.48 56.264 0.09 7.08 0.63 9.7
9/20/2021 3:00:00 AM 13.42 56.156 0.09 7.08 0.59 9.72
9/20/2021 3:15:00 AM 13.36 56.048 0.09 7.08 0.61 9.73
9/20/2021 3:30:00 AM 13.3 55.94 0.09 7.09 0.63 9.75
9/20/2021 3:45:00 AM 13.24 55.832 0.09 7.08 0.61 9.77
9/20/2021 4:00:00 AM 13.18 55.724 0.09 7.09 0.66 9.78
9/20/2021 4:15:00 AM 13.13 55.634 0.09 7.06 0.68 9.79
9/20/2021 4:30:00 AM 13.07 55.526 0.09 7.08 0.62 9.81
9/20/2021 4:45:00 AM 13.02 55.436 0.09 7.08 0.6 9.82
9/20/2021 5:00:00 AM 12.96 55.328 0.09 7.09 0.68 9.83
9/20/2021 5:15:00 AM 12.91 55.238 0.09 7.08 0.57 9.85
9/20/2021 5:30:00 AM 12.85 55.13 0.088 7.07 1.88 9.87
9/20/2021 5:45:00 AM 12.79 55.022 0.09 7.09 0.65 9.88
9/20/2021 6:00:00 AM 12.74 54.932 0.09 7.09 1.01 9.9
9/20/2021 6:15:00 AM 12.68 54.824 0.09 7.08 1.56 9.92
9/20/2021 6:30:00 AM 12.63 54.734 0.09 7.09 0.9 9.93
9/20/2021 6:45:00 AM 12.57 54.626 0.09 7.08 0.69 9.94
9/20/2021 7:00:00 AM 12.52 54.536 0.09 7.08 1.26 9.96
9/20/2021 7:15:00 AM 12.48 54.464 0.09 7.09 1.41 9.99
9/20/2021 7:30:00 AM 12.43 54.374 0.09 7.11 0.91 10.05
9/20/2021 7:45:00 AM 12.4 54.32 0.09 7.08 0.76 10.1
9/20/2021 8:00:00 AM 12.37 54.266 0.09 7.14 0.58 10.17
9/20/2021 8:15:00 AM 12.35 54.23 0.09 7.15 0.62 10.27
9/20/2021 8:30:00 AM 12.36 54.248 0.09 7.19 0.69 10.36
9/20/2021 8:45:00 AM 12.35 54.23 0.09 7.2 0.66 10.4
9/20/2021 9:00:00 AM 12.35 54.23 0.09 7.22 0.6 10.45
9/20/2021 9:15:00 AM 12.39 54.302 0.09 7.23 0.55 10.46
9/20/2021 9:30:00 AM 12.45 54.41 0.089 7.25 0.58 10.48
9/20/2021 9:45:00 AM 12.52 54.536 0.089 7.24 0.64 10.51
9/20/2021 10:00:00 AM 12.62 54.716 0.089 7.28 0.55 10.53
9/20/2021 10:15:00 AM 12.74 54.932 0.089 7.31 0.56 10.58
9/20/2021 10:30:00 AM 12.87 55.166 0.089 7.33 0.56 10.59
9/20/2021 10:45:00 AM 13.01 55.418 0.089 7.36 0.57 10.6
9/20/2021 11:00:00 AM 13.1 55.58 0.089 7.37 0.55 10.6
9/20/2021 11:15:00 AM 13.21 55.778 0.089 7.39 0.62 10.6
9/20/2021 11:30:00 AM 13.32 55.976 0.089 7.4 0.58 10.58
9/20/2021 11:45:00 AM 13.48 56.264 0.089 7.41 0.52 10.55
9/20/2021 12:00:00 PM 13.6 56.48 0.089 7.42 0.54 10.5
9/20/2021 12:15:00 PM 13.72 56.696 0.089 7.41 0.51 10.46
9/20/2021 12:30:00 PM 13.87 56.966 0.088 7.42 0.48 10.42
9/20/2021 12:45:00 PM 14.03 57.254 0.088 7.44 0.53 10.4
9/20/2021 1:00:00 PM 14.18 57.524 0.088 7.45 0.53 10.41
9/20/2021 1:15:00 PM 14.35 57.83 0.088 7.5 0.52 10.4
9/20/2021 1:30:00 PM 14.56 58.208 0.088 7.51 0.54 10.4
9/20/2021 1:45:00 PM 14.72 58.496 0.088 7.51 0.51 10.37
9/20/2021 2:00:00 PM 14.81 58.658 0.088 7.51 0.59 10.32
9/20/2021 2:15:00 PM 14.88 58.784 0.083 7.47 1.87 10.29
9/20/2021 2:30:00 PM 14.94 58.892 0.082 7.46 1.96 10.23
9/20/2021 2:45:00 PM 14.97 58.946 0.082 7.44 1.98 10.19
9/20/2021 3:00:00 PM 15 59 0.082 7.41 1.88 10.13
9/20/2021 3:15:00 PM 15.05 59.09 0.087 7.41 0.58 10.07
9/20/2021 3:30:00 PM 15.11 59.198 0.082 7.39 1.86 10.03
9/20/2021 3:45:00 PM 15.19 59.342 0.087 7.38 0.57 10.02
9/20/2021 4:00:00 PM 15.28 59.504 0.083 7.4 1.91 9.99
9/20/2021 4:15:00 PM 15.35 59.63 0.087 7.41 0.59 9.96
9/20/2021 4:30:00 PM 15.42 59.756 0.087 7.4 0.54 9.94
9/20/2021 4:45:00 PM 15.47 59.846 0.087 7.4 0.6 9.9
9/20/2021 5:00:00 PM 15.52 59.936 0.087 7.39 0.55 9.89
9/20/2021 5:15:00 PM 15.58 60.044 0.087 7.4 0.6 9.88
9/20/2021 5:30:00 PM 15.61 60.098 0.087 7.39 0.52 9.86
9/20/2021 5:45:00 PM 15.63 60.134 0.087 7.36 0.57 9.79
9/20/2021 6:00:00 PM 15.65 60.17 0.087 7.32 0.51 9.7
9/20/2021 6:15:00 PM 15.65 60.17 0.087 7.27 0.6 9.65
9/20/2021 6:30:00 PM 15.64 60.152 0.087 7.26 0.6 9.59
9/20/2021 6:45:00 PM 15.63 60.134 0.088 7.23 0.59 9.51
9/20/2021 7:00:00 PM 15.61 60.098 0.088 7.21 0.56 9.44
9/20/2021 7:15:00 PM 15.58 60.044 0.088 7.18 0.62 9.39
9/20/2021 7:30:00 PM 15.54 59.972 0.088 7.17 0.61 9.35
9/20/2021 7:45:00 PM 15.51 59.918 0.086 7.12 1.92 9.32
9/20/2021 8:00:00 PM 15.48 59.864 0.088 7.14 0.6 9.3
9/20/2021 8:15:00 PM 15.44 59.792 0.089 7.12 0.58 9.29
9/20/2021 8:30:00 PM 15.41 59.738 0.089 7.12 0.79 9.28
9/20/2021 8:45:00 PM 15.37 59.666 0.089 7.09 0.7 9.28
9/20/2021 9:00:00 PM 15.33 59.594 0.084 7.1 1.98 9.28
9/20/2021 9:15:00 PM 15.29 59.522 0.089 7.11 0.65 9.28
9/20/2021 9:30:00 PM 15.24 59.432 0.089 7.1 0.71 9.29
9/20/2021 9:45:00 PM 15.2 59.36 0.087 7.09 1.89 9.29
9/20/2021 10:00:00 PM 15.14 59.252 0.089 7.09 0.65 9.3
9/20/2021 10:15:00 PM 15.09 59.162 0.089 7.1 0.66 9.31
9/20/2021 10:30:00 PM 15.04 59.072 0.09 7.1 0.56 9.32
9/20/2021 10:45:00 PM 14.99 58.982 0.09 7.09 0.65 9.33
9/20/2021 11:00:00 PM 14.93 58.874 0.09 7.1 0.62 9.34
9/20/2021 11:15:00 PM 14.88 58.784 0.088 7.08 1.9 9.34
9/20/2021 11:30:00 PM 14.83 58.694 0.09 7.08 0.65 9.36
9/20/2021 11:45:00 PM 14.77 58.586 0.09 7.09 0.67 9.37
9/21/2021 12:00:00 AM 14.72 58.496 0.09 7.08 0.56 9.38
9/21/2021 12:15:00 AM 14.66 58.388 0.09 7.09 0.64 9.4
9/21/2021 12:30:00 AM 14.61 58.298 0.09 7.07 0.63 9.41
9/21/2021 12:45:00 AM 14.56 58.208 0.09 7.06 0.61 9.42
9/21/2021 1:00:00 AM 14.52 58.136 0.09 7.1 0.6 9.44
9/21/2021 1:15:00 AM 14.47 58.046 0.09 7.1 0.56 9.44
9/21/2021 1:30:00 AM 14.42 57.956 0.09 7.09 0.58 9.45
9/21/2021 1:45:00 AM 14.36 57.848 0.09 7.1 0.61 9.47
9/21/2021 2:00:00 AM 14.31 57.758 0.09 7.09 0.62 9.48
9/21/2021 2:15:00 AM 14.26 57.668 0.09 7.07 0.58 9.49
9/21/2021 2:30:00 AM 14.21 57.578 0.09 7.08 0.65 9.51
9/21/2021 2:45:00 AM 14.18 57.524 0.091 7.08 0.63 9.51
9/21/2021 3:00:00 AM 14.15 57.47 0.091 7.07 0.6 9.52
9/21/2021 3:15:00 AM 14.11 57.398 0.091 7.04 0.64 9.54
9/21/2021 3:30:00 AM 14.09 57.362 0.091 7.08 0.59 9.54
9/21/2021 3:45:00 AM 14.07 57.326 0.091 7.09 0.59 9.54
9/21/2021 4:00:00 AM 14.06 57.308 0.091 7.08 0.6 9.55
9/21/2021 4:15:00 AM 14.05 57.29 0.091 7.09 0.61 9.55
9/21/2021 4:30:00 AM 14.04 57.272 0.091 7.09 0.62 9.56
9/21/2021 4:45:00 AM 14.02 57.236 0.088 7.08 1.99 9.57
9/21/2021 5:00:00 AM 14.02 57.236 0.085 7.06 2.07 9.57
9/21/2021 5:15:00 AM 14.01 57.218 0.091 7.05 0.63 9.57
9/21/2021 5:30:00 AM 14 57.2 0.091 7.1 0.64 9.58
9/21/2021 5:45:00 AM 13.99 57.182 0.091 7.1 0.59 9.57
9/21/2021 6:00:00 AM 13.98 57.164 0.091 7.09 0.63 9.59
9/21/2021 6:15:00 AM 13.97 57.146 0.091 7.1 0.6 9.59
9/21/2021 6:30:00 AM 13.96 57.128 0.088 7.08 2.49 9.59
9/21/2021 6:45:00 AM 13.95 57.11 0.091 7.07 0.71 9.59
9/21/2021 7:00:00 AM 13.94 57.092 0.091 7.1 0.65 9.61
9/21/2021 7:15:00 AM 13.93 57.074 0.091 7.07 1.15 9.62
9/21/2021 7:30:00 AM 13.93 57.074 0.091 7.12 0.81 9.68
9/21/2021 7:45:00 AM 13.93 57.074 0.086 7.12 2.53 9.73
9/21/2021 8:00:00 AM 13.93 57.074 0.088 7.12 2.01 9.74
9/21/2021 8:15:00 AM 13.94 57.092 0.086 7.14 1.93 9.81
9/21/2021 8:30:00 AM 13.98 57.164 0.09 7.22 0.58 9.93
9/21/2021 8:45:00 AM 14.01 57.218 0.09 7.24 0.55 10
9/21/2021 9:00:00 AM 14 57.2 0.09 7.23 0.55 9.97
9/21/2021 9:15:00 AM 13.99 57.182 0.09 7.18 0.51 9.92
9/21/2021 9:30:00 AM 14.03 57.254 0.09 7.25 0.52 9.99
9/21/2021 9:45:00 AM 14.06 57.308 0.09 7.27 0.55 10.07
9/21/2021 10:00:00 AM 14.07 57.326 0.09 7.27 0.54 10.06
9/21/2021 10:15:00 AM 14.11 57.398 0.09 7.3 0.56 10.13
9/21/2021 10:30:00 AM 14.17 57.506 0.089 7.34 0.54 10.21
9/21/2021 10:45:00 AM 14.29 57.722 0.089 7.39 0.57 10.29
9/21/2021 11:00:00 AM 14.52 58.136 0.089 7.45 0.51 10.34
9/21/2021 11:15:00 AM 14.52 58.136 0.087 7.4 1.93 10.32
9/21/2021 11:30:00 AM 14.54 58.172 0.089 7.45 0.52 10.33
9/21/2021 11:45:00 AM 14.54 58.172 0.089 7.4 0.54 10.22
9/21/2021 12:00:00 PM 14.68 58.424 0.089 7.46 0.6 10.27
9/21/2021 12:15:00 PM 14.85 58.73 0.089 7.5 0.5 10.31
9/21/2021 12:30:00 PM 14.9 58.82 0.088 7.49 0.55 10.32
9/21/2021 12:45:00 PM 14.99 58.982 0.088 7.51 0.53 10.33
9/21/2021 1:00:00 PM 15.03 59.054 0.083 7.5 1.95 10.33
9/21/2021 1:15:00 PM 15.08 59.144 0.083 7.49 1.86 10.31
9/21/2021 1:30:00 PM 15.17 59.306 0.083 7.52 1.92 10.3
9/21/2021 1:45:00 PM 15.26 59.468 0.088 7.56 0.55 10.29
9/21/2021 2:00:00 PM 15.28 59.504 0.088 7.53 0.51 10.21
9/21/2021 2:15:00 PM 15.28 59.504 0.086 7.43 1.99 10.08
9/21/2021 2:30:00 PM 15.29 59.522 0.084 7.4 1.88 10.01
9/21/2021 2:45:00 PM 15.3 59.54 0.088 7.42 0.62 9.98
9/21/2021 3:00:00 PM 15.3 59.54 0.088 7.38 0.53 9.94
9/21/2021 3:15:00 PM 15.29 59.522 0.088 7.39 0.57 9.91
9/21/2021 3:30:00 PM 15.29 59.522 0.088 7.36 0.57 9.88
9/21/2021 3:45:00 PM 15.29 59.522 0.088 7.37 0.6 9.89
9/21/2021 4:00:00 PM 15.31 59.558 0.088 7.37 0.55 9.89
9/21/2021 4:15:00 PM 15.31 59.558 0.088 7.37 0.56 9.89
9/21/2021 4:30:00 PM 15.31 59.558 0.083 7.31 1.98 9.83
9/21/2021 4:45:00 PM 15.31 59.558 0.088 7.34 0.54 9.8
9/21/2021 5:00:00 PM 15.32 59.576 0.088 7.34 0.52 9.81
9/21/2021 5:15:00 PM 15.34 59.612 0.088 7.35 0.58 9.83
9/21/2021 5:30:00 PM 15.34 59.612 0.088 7.32 0.55 9.76
9/21/2021 5:45:00 PM 15.33 59.594 0.088 7.29 0.58 9.68
9/21/2021 6:00:00 PM 15.32 59.576 0.088 7.26 0.55 9.61
9/21/2021 6:15:00 PM 15.31 59.558 0.083 7.2 1.89 9.56
9/21/2021 6:30:00 PM 15.3 59.54 0.083 7.19 2.03 9.53
9/21/2021 6:45:00 PM 15.29 59.522 0.089 7.16 0.56 9.49
9/21/2021 7:00:00 PM 15.27 59.486 0.084 7.16 2.21 9.44
9/21/2021 7:15:00 PM 15.25 59.45 0.089 7.17 0.64 9.41
9/21/2021 7:30:00 PM 15.23 59.414 0.087 7.12 2.08 9.37
9/21/2021 7:45:00 PM 15.2 59.36 0.089 7.13 0.59 9.34
9/21/2021 8:00:00 PM 15.18 59.324 0.089 7.13 0.58 9.33
9/21/2021 8:15:00 PM 15.17 59.306 0.089 7.13 0.59 9.32
9/21/2021 8:30:00 PM 15.15 59.27 0.089 7.12 0.64 9.32
9/21/2021 8:45:00 PM 15.13 59.234 0.087 7.09 2.02 9.31
9/21/2021 9:00:00 PM 15.11 59.198 0.09 7.1 0.6 9.31
9/21/2021 9:15:00 PM 15.1 59.18 0.085 7.07 1.97 9.31
9/21/2021 9:30:00 PM 15.08 59.144 0.09 7.1 0.66 9.31
9/21/2021 9:45:00 PM 15.06 59.108 0.09 7.09 0.59 9.31
9/21/2021 10:00:00 PM 15.04 59.072 0.088 7.07 1.97 9.31
9/21/2021 10:15:00 PM 15.02 59.036 0.09 7.08 0.63 9.3
9/21/2021 10:30:00 PM 15.01 59.018 0.09 7.08 0.58 9.3
9/21/2021 10:45:00 PM 14.99 58.982 0.09 7.08 0.61 9.3
9/21/2021 11:00:00 PM 14.97 58.946 0.085 7.04 1.96 9.3
9/21/2021 11:15:00 PM 14.95 58.91 0.09 7.06 0.66 9.3
9/21/2021 11:30:00 PM 14.94 58.892 0.088 7.04 1.95 9.31
9/21/2021 11:45:00 PM 14.92 58.856 0.09 7.03 0.71 9.31
9/22/2021 12:00:00 AM 14.91 58.838 0.085 7.04 2.04 9.3
9/22/2021 12:15:00 AM 14.89 58.802 0.09 7.06 0.6 9.31
9/22/2021 12:30:00 AM 14.87 58.766 0.09 7.06 0.63 9.31
9/22/2021 12:45:00 AM 14.86 58.748 0.09 7.07 0.61 9.32
9/22/2021 1:00:00 AM 14.84 58.712 0.09 7.07 0.56 9.32
9/22/2021 1:15:00 AM 14.83 58.694 0.091 7.04 0.58 9.32
9/22/2021 1:30:00 AM 14.81 58.658 0.086 7.05 1.94 9.32
9/22/2021 1:45:00 AM 14.8 58.64 0.085 7.05 2 9.32
9/22/2021 2:00:00 AM 14.78 58.604 0.091 7.06 0.59 9.33
9/22/2021 2:15:00 AM 14.77 58.586 0.091 7.05 0.64 9.33
9/22/2021 2:30:00 AM 14.76 58.568 0.091 7.05 0.69 9.33
9/22/2021 2:45:00 AM 14.75 58.55 0.085 7.05 2.09 9.33
9/22/2021 3:00:00 AM 14.74 58.532 0.091 7.07 0.61 9.33
9/22/2021 3:15:00 AM 14.73 58.514 0.085 7.04 2.18 9.34
9/22/2021 3:30:00 AM 14.72 58.496 0.091 7.07 0.7 9.34
9/22/2021 3:45:00 AM 14.71 58.478 0.091 7.07 0.68 9.34
9/22/2021 4:00:00 AM 14.7 58.46 0.091 7.07 0.62 9.34
9/22/2021 4:15:00 AM 14.69 58.442 0.091 7.07 0.67 9.35
9/22/2021 4:30:00 AM 14.68 58.424 0.089 7.05 2.15 9.35
9/22/2021 4:45:00 AM 14.68 58.424 0.091 7.07 0.67 9.35
9/22/2021 5:00:00 AM 14.67 58.406 0.091 7.07 0.6 9.35
9/22/2021 5:15:00 AM 14.67 58.406 0.091 7.08 0.58 9.35
9/22/2021 5:30:00 AM 14.66 58.388 0.085 7.06 2.11 9.35
9/22/2021 5:45:00 AM 14.66 58.388 0.091 7.08 0.75 9.35
9/22/2021 6:00:00 AM 14.65 58.37 0.091 7.07 0.68 9.35
9/22/2021 6:15:00 AM 14.64 58.352 0.091 7.07 0.63 9.35
9/22/2021 6:30:00 AM 14.64 58.352 0.091 7.08 0.73 9.35
9/22/2021 6:45:00 AM 14.65 58.37 0.091 7.09 1.06 9.36
9/22/2021 7:00:00 AM 14.65 58.37 0.091 7.09 2.09 9.36
9/22/2021 7:15:00 AM 14.64 58.352 0.086 7.06 2.84 9.36
9/22/2021 7:30:00 AM 14.64 58.352 0.091 7.09 0.84 9.37
9/22/2021 7:45:00 AM 14.63 58.334 0.091 7.1 0.7 9.38
9/22/2021 8:00:00 AM 14.64 58.352 0.091 7.1 0.64 9.38
9/22/2021 8:15:00 AM 14.64 58.352 0.091 7.1 0.62 9.41
9/22/2021 8:30:00 AM 14.65 58.37 0.091 7.12 0.63 9.46
9/22/2021 8:45:00 AM 14.65 58.37 0.091 7.12 0.55 9.47
9/22/2021 9:00:00 AM 14.66 58.388 0.091 7.13 0.55 9.49
9/22/2021 9:15:00 AM 14.67 58.406 0.091 7.14 0.56 9.52
9/22/2021 9:30:00 AM 14.68 58.424 0.091 7.15 0.57 9.54
9/22/2021 9:45:00 AM 14.7 58.46 0.091 7.16 0.61 9.57
9/22/2021 10:00:00 AM 14.73 58.514 0.091 7.18 0.6 9.61
9/22/2021 10:15:00 AM 14.78 58.604 0.09 7.21 0.61 9.71
9/22/2021 10:30:00 AM 14.8 58.64 0.085 7.2 1.99 9.74
9/22/2021 10:45:00 AM 14.81 58.658 0.09 7.22 0.68 9.73
9/22/2021 11:00:00 AM 14.85 58.73 0.09 7.23 0.59 9.73
9/22/2021 11:15:00 AM 14.87 58.766 0.09 7.24 0.58 9.73
9/22/2021 11:30:00 AM 14.91 58.838 0.09 7.25 0.64 9.75
9/22/2021 11:45:00 AM 14.95 58.91 0.09 7.26 0.6 9.77
9/22/2021 12:00:00 PM 14.97 58.946 0.09 7.28 0.63 9.77
9/22/2021 12:15:00 PM 15.01 59.018 0.089 7.28 0.63 9.76
9/22/2021 12:30:00 PM 15.04 59.072 0.089 7.24 0.7 9.76
9/22/2021 12:45:00 PM 15.09 59.162 0.084 7.29 2.04 9.82
9/22/2021 1:00:00 PM 15.15 59.27 0.088 7.33 0.66 9.84
9/22/2021 1:15:00 PM 15.24 59.432 0.088 7.36 0.69 9.89
9/22/2021 1:30:00 PM 15.26 59.468 0.088 7.34 0.69 9.87
9/22/2021 1:45:00 PM 15.28 59.504 0.088 7.34 0.76 9.8
9/22/2021 2:00:00 PM 15.32 59.576 0.088 7.33 0.8 9.76
9/22/2021 2:15:00 PM 15.34 59.612 0.087 7.29 0.91 9.7
9/22/2021 2:30:00 PM 15.35 59.63 0.085 7.25 2.36 9.65
9/22/2021 2:45:00 PM 15.38 59.684 0.087 7.24 1.06 9.62
9/22/2021 3:00:00 PM 15.43 59.774 0.086 7.28 1.13 9.63
9/22/2021 3:15:00 PM 15.48 59.864 0.086 7.29 1.2 9.67
9/22/2021 3:30:00 PM 15.5 59.9 0.081 7.27 2.5 9.69
9/22/2021 3:45:00 PM 15.56 60.008 0.086 7.34 1.39 9.75
9/22/2021 4:00:00 PM 15.58 60.044 0.086 7.32 1.7 9.7
9/22/2021 4:15:00 PM 15.58 60.044 0.086 7.28 1.8 9.62
9/22/2021 4:30:00 PM 15.61 60.098 0.081 7.25 3.25 9.6
9/22/2021 4:45:00 PM 15.6 60.08 0.085 7.23 2.13 9.54
9/22/2021 5:00:00 PM 15.6 60.08 0.085 7.25 2.39 9.51
9/22/2021 5:15:00 PM 15.62 60.116 0.082 7.22 4.25 9.51
9/22/2021 5:30:00 PM 15.61 60.098 0.083 7.22 2.62 9.46
9/22/2021 5:45:00 PM 15.58 60.044 0.083 7.19 3.13 9.39
9/22/2021 6:00:00 PM 15.56 60.008 0.08 7.13 5.43 9.35
9/22/2021 6:15:00 PM 15.53 59.954 0.08 7.09 5.66 9.32
9/22/2021 6:30:00 PM 15.5 59.9 0.082 7.12 4.1 9.3
9/22/2021 6:45:00 PM 15.49 59.882 0.081 7.09 5.03 9.28
9/22/2021 7:00:00 PM 15.5 59.9 0.085 7.08 3.51 9.26
9/22/2021 7:15:00 PM 15.51 59.918 0.086 7.13 3.55 9.25
9/22/2021 7:30:00 PM 15.52 59.936 0.084 7.11 4.79 9.24
9/22/2021 7:45:00 PM 15.53 59.954 0.086 7.14 3.19 9.22
9/22/2021 8:00:00 PM 15.55 59.99 0.086 7.14 3.14 9.21
9/22/2021 8:15:00 PM 15.57 60.026 0.085 7.13 2.73 9.2
9/22/2021 8:30:00 PM 15.58 60.044 0.081 7.1 4.14 9.19
9/22/2021 8:45:00 PM 15.6 60.08 0.083 7.1 4.2 9.18
9/22/2021 9:00:00 PM 15.61 60.098 0.085 7.13 2.59 9.17
9/22/2021 9:15:00 PM 15.61 60.098 0.085 7.11 2.22 9.17
9/22/2021 9:30:00 PM 15.62 60.116 0.08 7.09 3.71 9.16
9/22/2021 9:45:00 PM 15.63 60.134 0.08 7.08 3.78 9.16
9/22/2021 10:00:00 PM 15.64 60.152 0.085 7.12 2.3 9.15
9/22/2021 10:15:00 PM 15.65 60.17 0.085 7.13 2.34 9.15
9/22/2021 10:30:00 PM 15.66 60.188 0.08 7.09 3.39 9.14
9/22/2021 10:45:00 PM 15.67 60.206 0.085 7.13 2.02 9.14
9/22/2021 11:00:00 PM 15.69 60.242 0.086 7.14 2.08 9.13
9/22/2021 11:15:00 PM 15.69 60.242 0.086 7.14 2.08 9.13
9/22/2021 11:30:00 PM 15.71 60.278 0.086 7.13 2.18 9.13
9/22/2021 11:45:00 PM 15.71 60.278 0.086 7.14 1.91 9.12
9/23/2021 12:00:00 AM 15.71 60.278 0.086 7.12 1.95 9.12
9/23/2021 12:15:00 AM 15.75 60.35 0.085 7.12 2.24 9.12
9/23/2021 12:30:00 AM 15.74 60.332 0.085 7.11 1.91 9.11
9/23/2021 12:45:00 AM 15.73 60.314 0.085 7.1 1.86 9.11
9/23/2021 1:00:00 AM 15.72 60.296 0.085 7.1 2.04 9.11
9/23/2021 1:15:00 AM 15.7 60.26 0.085 7.1 2.16 9.12
9/23/2021 1:30:00 AM 15.7 60.26 0.084 7.1 2.4 9.14
9/23/2021 1:45:00 AM 15.68 60.224 0.083 7.07 2.75 9.14
9/23/2021 2:00:00 AM 15.65 60.17 0.084 7.07 3.07 9.14
9/23/2021 2:15:00 AM 15.61 60.098 0.083 7.04 3.5 9.15
9/23/2021 2:30:00 AM 15.56 60.008 0.078 7.03 6.08 9.16
9/23/2021 2:45:00 AM 15.52 59.936 0.082 7.05 7.35 9.18
9/23/2021 3:00:00 AM 15.46 59.828 0.082 7.04 10.9 9.21
9/23/2021 3:15:00 AM 15.4 59.72 0.079 7.07 13.52 9.25
9/23/2021 3:30:00 AM 15.34 59.612 0.077 7.06 27.88 9.3
9/23/2021 3:45:00 AM 15.28 59.504 0.075 7.02 44.38 9.34
9/23/2021 4:00:00 AM 15.31 59.558 0.073 7.03 42.03 9.36
9/23/2021 4:15:00 AM 15.41 59.738 0.073 7.03 43.09 9.35
9/23/2021 4:30:00 AM 15.49 59.882 0.072 7.03 46.35 9.33
9/23/2021 4:45:00 AM 15.53 59.954 0.07 6.98 41.06 9.34
9/23/2021 5:00:00 AM 15.51 59.918 0.067 6.94 60.39 9.35
9/23/2021 5:15:00 AM 15.46 59.828 0.067 6.91 72.52 9.36
9/23/2021 5:30:00 AM 15.43 59.774 0.061 6.88 95.1 9.39
9/23/2021 5:45:00 AM 15.45 59.81 0.063 6.89 129.81 9.39
9/23/2021 6:00:00 AM 15.47 59.846 0.057 6.83 142.55 9.39
9/23/2021 6:15:00 AM 15.45 59.81 0.057 6.79 166.37 9.41
9/23/2021 6:30:00 AM 15.4 59.72 0.054 6.74 167.76 9.44
9/23/2021 6:45:00 AM 15.36 59.648 0.052 6.69 172.44 9.46
9/23/2021 7:00:00 AM 15.32 59.576 0.051 6.7 176.34 9.47
9/23/2021 7:15:00 AM 15.3 59.54 0.047 6.62 198.12 9.48
9/23/2021 7:30:00 AM 15.28 59.504 0.049 6.64 174.78 9.49
9/23/2021 7:45:00 AM 15.26 59.468 0.048 6.61 159.17 9.5
9/23/2021 8:00:00 AM 15.24 59.432 0.048 6.62 148.08 9.51
9/23/2021 8:15:00 AM 15.2 59.36 0.048 6.63 128.3 9.52
9/23/2021 8:30:00 AM 15.15 59.27 0.048 6.55 112.7 9.53
9/23/2021 8:45:00 AM 15.11 59.198 0.047 6.58 102.18 9.54
9/23/2021 9:00:00 AM 15.06 59.108 0.045 6.56 87.15 9.54
9/23/2021 9:15:00 AM 15 59 0.048 6.53 85.55 9.56
9/23/2021 9:30:00 AM 14.94 58.892 0.048 6.56 80.56 9.58
9/23/2021 9:45:00 AM 14.9 58.82 0.045 6.54 75.74 9.59
9/23/2021 10:00:00 AM 14.86 58.748 0.048 6.57 85.74 9.6
9/23/2021 10:15:00 AM 14.85 58.73 0.047 6.54 103.73 9.61
9/23/2021 10:30:00 AM 14.86 58.748 0.047 6.57 124.7 9.62
9/23/2021 10:45:00 AM 14.88 58.784 0.045 6.56 134.36 9.62
9/23/2021 11:00:00 AM 14.89 58.802 0.046 6.55 150.64 9.62
9/23/2021 11:15:00 AM 14.9 58.82 0.044 6.51 123.96 9.62
9/23/2021 11:30:00 AM 14.92 58.856 0.046 6.57 112.33 9.62
9/23/2021 11:45:00 AM 14.96 58.928 0.044 6.52 86.49 9.62
9/23/2021 12:00:00 PM 14.94 58.892 0.047 6.53 78.26 9.62
9/23/2021 12:15:00 PM 14.94 58.892 0.045 6.52 66.13 9.61
9/23/2021 12:30:00 PM 14.91 58.838 0.045 6.54 55.8 9.62
9/23/2021 12:45:00 PM 14.94 58.892 0.045 6.54 51.8 9.61
9/23/2021 1:00:00 PM 14.96 58.928 0.046 6.56 45.96 9.61
9/23/2021 1:15:00 PM 14.95 58.91 0.05 6.59 42.87 9.61
9/23/2021 1:30:00 PM 14.92 58.856 0.047 6.64 39.65 9.62
9/23/2021 1:45:00 PM 14.93 58.874 0.05 6.61 37.11 9.62
9/23/2021 2:00:00 PM 14.9 58.82 0.051 6.65 34.66 9.63
9/23/2021 2:15:00 PM 14.84 58.712 0.048 6.62 31.06 9.64
9/23/2021 2:30:00 PM 14.78 58.604 0.048 6.63 27.7 9.65
9/23/2021 2:45:00 PM 14.76 58.568 0.048 6.63 27.02 9.66
9/23/2021 3:00:00 PM 14.7 58.46 0.048 6.6 26.26 9.67
9/23/2021 3:15:00 PM 14.61 58.298 0.049 6.63 25.32 9.68
9/23/2021 3:30:00 PM 14.57 58.226 0.052 6.64 24.42 9.69
9/23/2021 3:45:00 PM 14.51 58.118 0.05 6.64 22.36 9.71
9/23/2021 4:00:00 PM 14.42 57.956 0.052 6.69 22.84 9.72
9/23/2021 4:15:00 PM 14.33 57.794 0.049 6.68 21.05 9.74
9/23/2021 4:30:00 PM 14.24 57.632 0.049 6.7 20.7 9.75
9/23/2021 4:45:00 PM 14.14 57.452 0.049 6.69 17.63 9.78
9/23/2021 5:00:00 PM 14.06 57.308 0.05 6.7 16.72 9.8
9/23/2021 5:15:00 PM 13.97 57.146 0.053 6.66 18.84 9.82
9/23/2021 5:30:00 PM 13.88 56.984 0.05 6.71 17.66 9.84
9/23/2021 5:45:00 PM 13.79 56.822 0.053 6.72 19.32 9.86
9/23/2021 6:00:00 PM 13.7 56.66 0.052 6.71 18.75 9.87
9/23/2021 6:15:00 PM 13.61 56.498 0.052 6.71 17.53 9.89
9/23/2021 6:30:00 PM 13.53 56.354 0.054 6.72 17.9 9.91
9/23/2021 6:45:00 PM 13.44 56.192 0.052 6.71 17.52 9.93
9/23/2021 7:00:00 PM 13.35 56.03 0.054 6.72 16.7 9.95
9/23/2021 7:15:00 PM 13.26 55.868 0.054 6.73 16.82 9.97
9/23/2021 7:30:00 PM 13.18 55.724 0.054 6.73 16.44 9.99
9/23/2021 7:45:00 PM 13.1 55.58 0.054 6.7 16.12 10.01
9/23/2021 8:00:00 PM 13.02 55.436 0.054 6.75 15.32 10.03
9/23/2021 8:15:00 PM 12.95 55.31 0.054 6.74 15.38 10.05
9/23/2021 8:30:00 PM 12.88 55.184 0.051 6.72 15.24 10.06
9/23/2021 8:45:00 PM 12.81 55.058 0.054 6.76 14.25 10.09
9/23/2021 9:00:00 PM 12.74 54.932 0.054 6.73 14.11 10.11
9/23/2021 9:15:00 PM 12.68 54.824 0.054 6.76 13.65 10.12
9/23/2021 9:30:00 PM 12.61 54.698 0.055 6.73 13.78 10.13
9/23/2021 9:45:00 PM 12.55 54.59 0.055 6.75 13.43 10.15
9/23/2021 10:00:00 PM 12.49 54.482 0.055 6.75 13.09 10.16
9/23/2021 10:15:00 PM 12.43 54.374 0.053 6.74 13.45 10.18
9/23/2021 10:30:00 PM 12.38 54.284 0.055 6.76 12.57 10.18
9/23/2021 10:45:00 PM 12.33 54.194 0.055 6.77 12.45 10.2
9/23/2021 11:00:00 PM 12.29 54.122 0.055 6.76 12.16 10.21
9/23/2021 11:15:00 PM 12.25 54.05 0.055 6.76 11.94 10.22
9/23/2021 11:30:00 PM 12.21 53.978 0.055 6.78 11.75 10.23
9/23/2021 11:45:00 PM 12.17 53.906 0.055 6.77 11.9 10.24
9/24/2021 12:00:00 AM 12.13 53.834 0.055 6.78 11.66 10.25
9/24/2021 12:15:00 AM 12.1 53.78 0.055 6.78 11.63 10.26
9/24/2021 12:30:00 AM 12.06 53.708 0.055 6.78 11.18 10.27
9/24/2021 12:45:00 AM 12.03 53.654 0.055 6.78 11.23 10.28
9/24/2021 1:00:00 AM 12.01 53.618 0.055 6.78 11.67 10.28
9/24/2021 1:15:00 AM 11.98 53.564 0.055 6.79 10.93 10.29
9/24/2021 1:30:00 AM 11.96 53.528 0.055 6.78 11.24 10.29
9/24/2021 1:45:00 AM 11.94 53.492 0.055 6.79 10.88 10.3
9/24/2021 2:00:00 AM 11.92 53.456 0.056 6.79 10.92 10.3
9/24/2021 2:15:00 AM 11.91 53.438 0.056 6.8 10.92 10.31
9/24/2021 2:30:00 AM 11.89 53.402 0.056 6.8 10.88 10.32
9/24/2021 2:45:00 AM 11.87 53.366 0.056 6.79 10.63 10.32
9/24/2021 3:00:00 AM 11.86 53.348 0.056 6.77 10.33 10.33
9/24/2021 3:15:00 AM 11.84 53.312 0.056 6.75 10.23 10.33
9/24/2021 3:30:00 AM 11.82 53.276 0.056 6.81 9.84 10.34
9/24/2021 3:45:00 AM 11.8 53.24 0.056 6.8 9.79 10.34
9/24/2021 4:00:00 AM 11.78 53.204 0.056 6.8 9.5 10.35
9/24/2021 4:15:00 AM 11.75 53.15 0.056 6.76 9.55 10.35
9/24/2021 4:30:00 AM 11.73 53.114 0.056 6.76 10.22 10.36
9/24/2021 4:45:00 AM 11.7 53.06 0.056 6.81 9.47 10.37
9/24/2021 5:00:00 AM 11.67 53.006 0.056 6.75 9.24 10.38
9/24/2021 5:15:00 AM 11.64 52.952 0.056 6.81 10.78 10.39
9/24/2021 5:30:00 AM 11.61 52.898 0.056 6.8 9.05 10.39
9/24/2021 5:45:00 AM 11.58 52.844 0.056 6.81 9.05 10.4
9/24/2021 6:00:00 AM 11.55 52.79 0.056 6.79 9.08 10.41
9/24/2021 6:15:00 AM 11.51 52.718 0.056 6.81 9.04 10.42
9/24/2021 6:30:00 AM 11.48 52.664 0.057 6.8 8.92 10.43
9/24/2021 6:45:00 AM 11.45 52.61 0.057 6.82 8.64 10.44
9/24/2021 7:00:00 AM 11.42 52.556 0.057 6.81 8.86 10.45
9/24/2021 7:15:00 AM 11.4 52.52 0.057 6.82 8.31 10.46
9/24/2021 7:30:00 AM 11.38 52.484 0.057 6.81 8.07 10.47
9/24/2021 7:45:00 AM 11.36 52.448 0.057 6.76 8.61 10.48
9/24/2021 8:00:00 AM 11.35 52.43 0.057 6.84 7.71 10.49
9/24/2021 8:15:00 AM 11.34 52.412 0.057 6.83 7.57 10.49
9/24/2021 8:30:00 AM 11.34 52.412 0.057 6.84 7.48 10.5
9/24/2021 8:45:00 AM 11.34 52.412 0.057 6.85 7.41 10.51
9/24/2021 9:00:00 AM 11.35 52.43 0.057 6.84 7.38 10.51
9/24/2021 9:15:00 AM 11.35 52.43 0.057 6.85 7.08 10.52
9/24/2021 9:30:00 AM 11.36 52.448 0.057 6.86 7.04 10.52
9/24/2021 9:45:00 AM 11.37 52.466 0.057 6.82 6.61 10.52
9/24/2021 10:00:00 AM 11.4 52.52 0.057 6.85 6.58 10.52
9/24/2021 10:15:00 AM 11.43 52.574 0.057 6.87 6.37 10.52
9/24/2021 10:30:00 AM 11.48 52.664 0.057 6.87 6.57 10.51
9/24/2021 10:45:00 AM 11.51 52.718 0.057 6.88 7.03 10.51
9/24/2021 11:00:00 AM 11.59 52.862 0.057 6.89 6.73 10.5
9/24/2021 11:15:00 AM 11.62 52.916 0.057 6.88 7.52 10.49
9/24/2021 11:30:00 AM 11.73 53.114 0.058 6.9 7.79 10.48
9/24/2021 11:45:00 AM 11.8 53.24 0.058 6.9 6.72 10.46
9/24/2021 12:00:00 PM 11.87 53.366 0.058 6.89 6.36 10.45
9/24/2021 12:15:00 PM 11.97 53.546 0.058 6.91 7.06 10.43
9/24/2021 12:30:00 PM 12.03 53.654 0.058 6.9 6.95 10.41
9/24/2021 12:45:00 PM 12.07 53.726 0.058 6.88 6.48 10.4
9/24/2021 1:00:00 PM 12.13 53.834 0.058 6.9 6.93 10.39
9/24/2021 1:15:00 PM 12.19 53.942 0.058 6.9 6.37 10.38
9/24/2021 1:30:00 PM 12.23 54.014 0.058 6.9 6.38 10.36
9/24/2021 1:45:00 PM 12.29 54.122 0.058 6.9 6.25 10.34
9/24/2021 2:00:00 PM 12.36 54.248 0.055 6.85 7.41 10.32
9/24/2021 2:15:00 PM 12.43 54.374 0.058 6.91 6.13 10.3
9/24/2021 2:30:00 PM 12.48 54.464 0.058 6.9 5.99 10.29
9/24/2021 2:45:00 PM 12.53 54.554 0.058 6.9 5.75 10.27
9/24/2021 3:00:00 PM 12.6 54.68 0.058 6.9 6.11 10.25
9/24/2021 3:15:00 PM 12.63 54.734 0.058 6.89 6.19 10.25
9/24/2021 3:30:00 PM 12.65 54.77 0.058 6.9 6.21 10.23
9/24/2021 3:45:00 PM 12.64 54.752 0.058 6.89 6.36 10.23
9/24/2021 4:00:00 PM 12.6 54.68 0.058 6.82 6.5 10.23
9/24/2021 4:15:00 PM 12.58 54.644 0.059 6.88 6.1 10.23
9/24/2021 4:30:00 PM 12.54 54.572 0.059 6.87 6.02 10.24
9/24/2021 4:45:00 PM 12.52 54.536 0.059 6.87 6.16 10.24
9/24/2021 5:00:00 PM 12.51 54.518 0.059 6.87 5.91 10.24
9/24/2021 5:15:00 PM 12.51 54.518 0.059 6.82 5.71 10.24
9/24/2021 5:30:00 PM 12.48 54.464 0.059 6.87 5.95 10.25
9/24/2021 5:45:00 PM 12.45 54.41 0.059 6.81 5.62 10.25
9/24/2021 6:00:00 PM 12.39 54.302 0.059 6.86 6.05 10.25
9/24/2021 6:15:00 PM 12.34 54.212 0.059 6.78 6.14 10.26
9/24/2021 6:30:00 PM 12.29 54.122 0.059 6.85 5.79 10.27
9/24/2021 6:45:00 PM 12.23 54.014 0.059 6.78 5.98 10.28
9/24/2021 7:00:00 PM 12.17 53.906 0.058 6.81 7.12 10.28
9/24/2021 7:15:00 PM 12.11 53.798 0.059 6.83 6.09 10.3
9/24/2021 7:30:00 PM 12.06 53.708 0.056 6.79 6.9 10.31
9/24/2021 7:45:00 PM 12 53.6 0.059 6.83 6.08 10.32
9/24/2021 8:00:00 PM 11.94 53.492 0.059 6.82 5.6 10.34
9/24/2021 8:15:00 PM 11.88 53.384 0.06 6.79 5.79 10.35
9/24/2021 8:30:00 PM 11.82 53.276 0.06 6.83 5.84 10.36
9/24/2021 8:45:00 PM 11.77 53.186 0.06 6.83 5.64 10.38
9/24/2021 9:00:00 PM 11.71 53.078 0.06 6.83 5.69 10.39
9/24/2021 9:15:00 PM 11.65 52.97 0.06 6.83 6.48 10.41
9/24/2021 9:30:00 PM 11.6 52.88 0.06 6.83 5.61 10.42
9/24/2021 9:45:00 PM 11.55 52.79 0.06 6.82 5.69 10.44
9/24/2021 10:00:00 PM 11.49 52.682 0.06 6.79 5.5 10.45
9/24/2021 10:15:00 PM 11.43 52.574 0.06 6.83 5.48 10.46
9/24/2021 10:30:00 PM 11.38 52.484 0.06 6.83 5.65 10.47
9/24/2021 10:45:00 PM 11.33 52.394 0.06 6.83 5.35 10.49
9/24/2021 11:00:00 PM 11.27 52.286 0.06 6.81 5.3 10.5
9/24/2021 11:15:00 PM 11.22 52.196 0.06 6.83 5.37 10.52
9/24/2021 11:30:00 PM 11.17 52.106 0.06 6.83 5.49 10.53
9/24/2021 11:45:00 PM 11.12 52.016 0.06 6.84 5.5 10.54
9/25/2021 12:00:00 AM 11.07 51.926 0.06 6.83 6 10.55
9/25/2021 12:15:00 AM 11.02 51.836 0.06 6.82 5.84 10.56
9/25/2021 12:30:00 AM 10.98 51.764 0.06 6.84 5.83 10.58
9/25/2021 12:45:00 AM 10.94 51.692 0.06 6.84 5.8 10.59
9/25/2021 1:00:00 AM 10.89 51.602 0.06 6.84 5.63 10.59
9/25/2021 1:15:00 AM 10.85 51.53 0.06 6.84 5.27 10.61
9/25/2021 1:30:00 AM 10.81 51.458 0.06 6.84 5.19 10.62
9/25/2021 1:45:00 AM 10.78 51.404 0.06 6.84 5.19 10.63
9/25/2021 2:00:00 AM 10.75 51.35 0.06 6.84 5 10.63
9/25/2021 2:15:00 AM 10.72 51.296 0.06 6.84 5.27 10.64
9/25/2021 2:30:00 AM 10.7 51.26 0.06 6.84 5.13 10.65
9/25/2021 2:45:00 AM 10.67 51.206 0.06 6.85 5.15 10.66
9/25/2021 3:00:00 AM 10.65 51.17 0.061 6.86 4.94 10.66
9/25/2021 3:15:00 AM 10.63 51.134 0.061 6.85 5.56 10.67
9/25/2021 3:30:00 AM 10.6 51.08 0.061 6.86 5.24 10.68
9/25/2021 3:45:00 AM 10.58 51.044 0.061 6.81 4.86 10.69
9/25/2021 4:00:00 AM 10.56 51.008 0.061 6.86 4.84 10.69
9/25/2021 4:15:00 AM 10.53 50.954 0.061 6.85 4.58 10.69
9/25/2021 4:30:00 AM 10.5 50.9 0.061 6.85 4.61 10.7
9/25/2021 4:45:00 AM 10.47 50.846 0.061 6.84 4.7 10.71
9/25/2021 5:00:00 AM 10.44 50.792 0.061 6.86 4.58 10.72
9/25/2021 5:15:00 AM 10.42 50.756 0.061 6.85 4.6 10.73
9/25/2021 5:30:00 AM 10.39 50.702 0.061 6.86 4.35 10.73
9/25/2021 5:45:00 AM 10.37 50.666 0.061 6.85 4.4 10.74
9/25/2021 6:00:00 AM 10.35 50.63 0.061 6.87 4.39 10.75
9/25/2021 6:15:00 AM 10.33 50.594 0.061 6.88 4.42 10.75
9/25/2021 6:30:00 AM 10.31 50.558 0.061 6.87 4.37 10.76
9/25/2021 6:45:00 AM 10.3 50.54 0.061 6.87 4.3 10.76
9/25/2021 7:00:00 AM 10.28 50.504 0.061 6.86 4.21 10.76
9/25/2021 7:15:00 AM 10.26 50.468 0.061 6.87 4.26 10.78
9/25/2021 7:30:00 AM 10.24 50.432 0.061 6.87 4.21 10.77
9/25/2021 7:45:00 AM 10.24 50.432 0.061 6.87 3.97 10.78
9/25/2021 8:00:00 AM 10.22 50.396 0.061 6.81 3.99 10.79
9/25/2021 8:15:00 AM 10.21 50.378 0.061 6.85 3.63 10.81
9/25/2021 8:30:00 AM 10.2 50.36 0.061 6.88 3.69 10.82
9/25/2021 8:45:00 AM 10.2 50.36 0.061 6.88 3.41 10.83
9/25/2021 9:00:00 AM 10.21 50.378 0.061 6.86 3.65 10.84
9/25/2021 9:15:00 AM 10.22 50.396 0.061 6.86 3.53 10.84
9/25/2021 9:30:00 AM 10.25 50.45 0.061 6.87 3.38 10.83
9/25/2021 9:45:00 AM 10.29 50.522 0.061 6.9 3.31 10.83
9/25/2021 10:00:00 AM 10.34 50.612 0.061 6.88 3.27 10.82
9/25/2021 10:15:00 AM 10.41 50.738 0.061 6.91 3.33 10.81
9/25/2021 10:30:00 AM 10.5 50.9 0.061 6.91 3.09 10.8
9/25/2021 10:45:00 AM 10.61 51.098 0.061 6.87 3.13 10.78
9/25/2021 11:00:00 AM 10.73 51.314 0.061 6.9 3.36 10.75
9/25/2021 11:15:00 AM 10.86 51.548 0.061 6.92 3.17 10.72
9/25/2021 11:30:00 AM 11 51.8 0.061 6.94 3.06 10.69
9/25/2021 11:45:00 AM 11.14 52.052 0.061 6.96 3.37 10.66
9/25/2021 12:00:00 PM 11.29 52.322 0.062 6.95 3.48 10.62
9/25/2021 12:15:00 PM 11.42 52.556 0.062 6.92 3.02 10.59
9/25/2021 12:30:00 PM 11.55 52.79 0.062 6.92 3.21 10.56
9/25/2021 12:45:00 PM 11.65 52.97 0.06 6.9 4.86 10.53
9/25/2021 1:00:00 PM 11.73 53.114 0.062 6.92 3.41 10.51
9/25/2021 1:15:00 PM 11.83 53.294 0.062 6.94 3.3 10.48
9/25/2021 1:30:00 PM 11.9 53.42 0.06 6.89 4.63 10.46
9/25/2021 1:45:00 PM 12 53.6 0.062 6.92 3.36 10.43
9/25/2021 2:00:00 PM 12.09 53.762 0.062 6.92 3.38 10.41
9/25/2021 2:15:00 PM 12.16 53.888 0.062 6.92 3.38 10.38
9/25/2021 2:30:00 PM 12.23 54.014 0.062 6.95 3.18 10.36
9/25/2021 2:45:00 PM 12.28 54.104 0.062 6.93 3.33 10.33
9/25/2021 3:00:00 PM 12.32 54.176 0.062 6.93 3.4 10.32
9/25/2021 3:15:00 PM 12.37 54.266 0.062 6.96 3.19 10.31
9/25/2021 3:30:00 PM 12.41 54.338 0.062 6.94 3.08 10.29
9/25/2021 3:45:00 PM 12.41 54.338 0.06 6.88 4.61 10.29
9/25/2021 4:00:00 PM 12.41 54.338 0.062 6.93 3.31 10.28
9/25/2021 4:15:00 PM 12.42 54.356 0.062 6.92 3.34 10.27
9/25/2021 4:30:00 PM 12.4 54.32 0.062 6.91 3.13 10.27
9/25/2021 4:45:00 PM 12.37 54.266 0.062 6.91 3.18 10.27
9/25/2021 5:00:00 PM 12.34 54.212 0.062 6.9 3.16 10.27
9/25/2021 5:15:00 PM 12.32 54.176 0.062 6.86 3.18 10.27
9/25/2021 5:30:00 PM 12.29 54.122 0.062 6.88 3.16 10.27
9/25/2021 5:45:00 PM 12.25 54.05 0.059 6.82 4.59 10.27
9/25/2021 6:00:00 PM 12.22 53.996 0.062 6.86 3.26 10.28
9/25/2021 6:15:00 PM 12.18 53.924 0.062 6.84 3.22 10.28
9/25/2021 6:30:00 PM 12.14 53.852 0.062 6.85 3.04 10.29
9/25/2021 6:45:00 PM 12.1 53.78 0.062 6.83 3.24 10.28
9/25/2021 7:00:00 PM 12.06 53.708 0.062 6.82 3.11 10.28
9/25/2021 7:15:00 PM 12.01 53.618 0.063 6.82 3.11 10.29
9/25/2021 7:30:00 PM 11.98 53.564 0.063 6.84 3.16 10.29
9/25/2021 7:45:00 PM 11.94 53.492 0.063 6.77 3.05 10.29
9/25/2021 8:00:00 PM 11.9 53.42 0.063 6.82 3.33 10.3
9/25/2021 8:15:00 PM 11.87 53.366 0.063 6.81 3.02 10.31
9/25/2021 8:30:00 PM 11.84 53.312 0.063 6.77 3.23 10.32
9/25/2021 8:45:00 PM 11.8 53.24 0.063 6.81 3.28 10.33
9/25/2021 9:00:00 PM 11.77 53.186 0.063 6.82 3.23 10.34
9/25/2021 9:15:00 PM 11.74 53.132 0.063 6.82 3.33 10.34
9/25/2021 9:30:00 PM 11.72 53.096 0.063 6.83 3.26 10.35
9/25/2021 9:45:00 PM 11.69 53.042 0.063 6.82 3.38 10.35
9/25/2021 10:00:00 PM 11.67 53.006 0.063 6.81 3.18 10.36
9/25/2021 10:15:00 PM 11.65 52.97 0.063 6.83 3.01 10.37
9/25/2021 10:30:00 PM 11.63 52.934 0.063 6.85 3.11 10.38
9/25/2021 10:45:00 PM 11.61 52.898 0.063 6.83 3.23 10.39
9/25/2021 11:00:00 PM 11.59 52.862 0.063 6.79 3.19 10.39
9/25/2021 11:15:00 PM 11.56 52.808 0.059 6.83 4.84 10.4
9/25/2021 11:30:00 PM 11.53 52.754 0.063 6.86 3.2 10.41
9/25/2021 11:45:00 PM 11.51 52.718 0.063 6.86 3.13 10.41
9/26/2021 12:00:00 AM 11.48 52.664 0.063 6.84 2.96 10.42
9/26/2021 12:15:00 AM 11.45 52.61 0.063 6.83 2.91 10.42
9/26/2021 12:30:00 AM 11.41 52.538 0.063 6.85 2.94 10.44
9/26/2021 12:45:00 AM 11.37 52.466 0.063 6.83 3 10.44
9/26/2021 1:00:00 AM 11.33 52.394 0.063 6.82 3.04 10.45
9/26/2021 1:15:00 AM 11.29 52.322 0.063 6.82 3.13 10.46
9/26/2021 1:30:00 AM 11.24 52.232 0.063 6.82 3.03 10.47
9/26/2021 1:45:00 AM 11.2 52.16 0.063 6.83 2.87 10.48
9/26/2021 2:00:00 AM 11.15 52.07 0.063 6.81 2.74 10.49
9/26/2021 2:15:00 AM 11.1 51.98 0.063 6.84 2.75 10.51
9/26/2021 2:30:00 AM 11.05 51.89 0.063 6.81 2.73 10.52
9/26/2021 2:45:00 AM 11 51.8 0.063 6.81 2.7 10.53
9/26/2021 3:00:00 AM 10.95 51.71 0.063 6.81 2.95 10.54
9/26/2021 3:15:00 AM 10.9 51.62 0.063 6.8 2.81 10.56
9/26/2021 3:30:00 AM 10.85 51.53 0.064 6.81 2.76 10.57
9/26/2021 3:45:00 AM 10.8 51.44 0.064 6.81 2.76 10.57
9/26/2021 4:00:00 AM 10.76 51.368 0.064 6.8 2.86 10.59
9/26/2021 4:15:00 AM 10.71 51.278 0.064 6.84 2.64 10.6
9/26/2021 4:30:00 AM 10.67 51.206 0.064 6.81 2.65 10.61
9/26/2021 4:45:00 AM 10.63 51.134 0.064 6.76 2.66 10.63
9/26/2021 5:00:00 AM 10.59 51.062 0.064 6.82 2.68 10.63
9/26/2021 5:15:00 AM 10.56 51.008 0.064 6.81 2.67 10.64
9/26/2021 5:30:00 AM 10.53 50.954 0.064 6.82 2.69 10.65
9/26/2021 5:45:00 AM 10.51 50.918 0.064 6.82 2.75 10.65
9/26/2021 6:00:00 AM 10.49 50.882 0.064 6.82 2.7 10.66
9/26/2021 6:15:00 AM 10.46 50.828 0.064 6.83 2.78 10.67
9/26/2021 6:30:00 AM 10.43 50.774 0.064 6.84 2.65 10.68
9/26/2021 6:45:00 AM 10.4 50.72 0.064 6.82 2.71 10.68
9/26/2021 7:00:00 AM 10.37 50.666 0.064 6.85 2.59 10.69
9/26/2021 7:15:00 AM 10.35 50.63 0.064 6.84 2.53 10.7
9/26/2021 7:30:00 AM 10.32 50.576 0.064 6.85 2.59 10.71
9/26/2021 7:45:00 AM 10.28 50.504 0.064 6.84 2.56 10.73
9/26/2021 8:00:00 AM 10.26 50.468 0.064 6.79 2.48 10.73
9/26/2021 8:15:00 AM 10.24 50.432 0.064 6.84 2.25 10.74
9/26/2021 8:30:00 AM 10.23 50.414 0.064 6.86 2.29 10.76
9/26/2021 8:45:00 AM 10.23 50.414 0.064 6.85 2.2 10.76
9/26/2021 9:00:00 AM 10.23 50.414 0.064 6.86 2.08 10.77
9/26/2021 9:15:00 AM 10.26 50.468 0.064 6.87 2.07 10.77
9/26/2021 9:30:00 AM 10.31 50.558 0.064 6.86 2.19 10.77
9/26/2021 9:45:00 AM 10.37 50.666 0.064 6.9 2.1 10.76
9/26/2021 10:00:00 AM 10.44 50.792 0.064 6.9 2.08 10.76
9/26/2021 10:15:00 AM 10.51 50.918 0.064 6.93 2.06 10.75
9/26/2021 10:30:00 AM 10.61 51.098 0.064 6.93 2.07 10.73
9/26/2021 10:45:00 AM 10.71 51.278 0.064 6.95 2.11 10.72
9/26/2021 11:00:00 AM 10.82 51.476 0.064 6.94 2.1 10.7
9/26/2021 11:15:00 AM 10.94 51.692 0.064 6.96 2.01 10.67
9/26/2021 11:30:00 AM 11.05 51.89 0.064 6.96 2 10.65
9/26/2021 11:45:00 AM 11.14 52.052 0.064 6.98 2.08 10.63
9/26/2021 12:00:00 PM 11.26 52.268 0.064 6.96 2.06 10.6
9/26/2021 12:15:00 PM 11.34 52.412 0.064 6.98 2.2 10.58
9/26/2021 12:30:00 PM 11.4 52.52 0.064 6.95 2.15 10.56
9/26/2021 12:45:00 PM 11.52 52.736 0.064 6.99 1.99 10.53
9/26/2021 1:00:00 PM 11.63 52.934 0.064 6.99 2.28 10.51
9/26/2021 1:15:00 PM 11.77 53.186 0.064 7 2.42 10.48
9/26/2021 1:30:00 PM 11.85 53.33 0.064 7 2.41 10.45
9/26/2021 1:45:00 PM 11.91 53.438 0.064 6.98 2.45 10.43
9/26/2021 2:00:00 PM 11.96 53.528 0.064 6.98 2.36 10.4
9/26/2021 2:15:00 PM 11.98 53.564 0.064 6.98 2.53 10.38
9/26/2021 2:30:00 PM 12.03 53.654 0.064 6.97 2.35 10.36
9/26/2021 2:45:00 PM 12.09 53.762 0.064 6.97 2.42 10.34
9/26/2021 3:00:00 PM 12.17 53.906 0.064 6.98 2.38 10.33
9/26/2021 3:15:00 PM 12.2 53.96 0.064 6.98 2.37 10.32
9/26/2021 3:30:00 PM 12.23 54.014 0.064 6.97 2.36 10.3
9/26/2021 3:45:00 PM 12.25 54.05 0.064 6.97 2.4 10.31
9/26/2021 4:00:00 PM 12.27 54.086 0.064 6.97 2.37 10.29
9/26/2021 4:15:00 PM 12.25 54.05 0.061 6.93 3.71 10.29
9/26/2021 4:30:00 PM 12.27 54.086 0.064 6.98 2.44 10.29
9/26/2021 4:45:00 PM 12.25 54.05 0.064 6.97 2.32 10.28
9/26/2021 5:00:00 PM 12.19 53.942 0.064 6.95 2.42 10.29
9/26/2021 5:15:00 PM 12.15 53.87 0.064 6.96 2.35 10.29
9/26/2021 5:30:00 PM 12.1 53.78 0.064 6.94 2.43 10.29
9/26/2021 5:45:00 PM 12.04 53.672 0.064 6.94 2.46 10.3
9/26/2021 6:00:00 PM 11.99 53.582 0.065 6.88 2.42 10.3
9/26/2021 6:15:00 PM 11.95 53.51 0.065 6.94 2.3 10.31
9/26/2021 6:30:00 PM 11.91 53.438 0.065 6.93 2.3 10.31
9/26/2021 6:45:00 PM 11.88 53.384 0.065 6.93 2.29 10.32
9/26/2021 7:00:00 PM 11.83 53.294 0.063 6.9 4.01 10.31
9/26/2021 7:15:00 PM 11.78 53.204 0.065 6.92 2.48 10.32
9/26/2021 7:30:00 PM 11.72 53.096 0.065 6.91 2.38 10.33
9/26/2021 7:45:00 PM 11.67 53.006 0.065 6.9 2.42 10.33
9/26/2021 8:00:00 PM 11.61 52.898 0.065 6.91 2.44 10.35
9/26/2021 8:15:00 PM 11.56 52.808 0.065 6.91 2.37 10.36
9/26/2021 8:30:00 PM 11.5 52.7 0.065 6.9 2.47 10.37
9/26/2021 8:45:00 PM 11.45 52.61 0.065 6.91 2.47 10.39
9/26/2021 9:00:00 PM 11.4 52.52 0.065 6.86 2.29 10.4
9/26/2021 9:15:00 PM 11.34 52.412 0.065 6.91 2.33 10.42
9/26/2021 9:30:00 PM 11.3 52.34 0.065 6.91 2.36 10.43
9/26/2021 9:45:00 PM 11.25 52.25 0.065 6.9 2.27 10.45
9/26/2021 10:00:00 PM 11.22 52.196 0.061 6.88 3.98 10.46
9/26/2021 10:15:00 PM 11.18 52.124 0.065 6.86 2.24 10.46
9/26/2021 10:30:00 PM 11.14 52.052 0.065 6.91 2.29 10.48
9/26/2021 10:45:00 PM 11.1 51.98 0.065 6.9 2.29 10.48
9/26/2021 11:00:00 PM 11.07 51.926 0.065 6.91 2.34 10.49
9/26/2021 11:15:00 PM 11.05 51.89 0.065 6.91 2.31 10.5
9/26/2021 11:30:00 PM 11.02 51.836 0.065 6.92 2.24 10.51
9/26/2021 11:45:00 PM 10.99 51.782 0.061 6.88 3.74 10.51
9/27/2021 12:00:00 AM 10.96 51.728 0.065 6.91 2.41 10.52
9/27/2021 12:15:00 AM 10.93 51.674 0.065 6.92 2.15 10.53
9/27/2021 12:30:00 AM 10.91 51.638 0.065 6.92 2.25 10.53
9/27/2021 12:45:00 AM 10.89 51.602 0.066 6.91 2.3 10.54
9/27/2021 1:00:00 AM 10.87 51.566 0.066 6.92 2.17 10.55
9/27/2021 1:15:00 AM 10.85 51.53 0.066 6.91 2.18 10.55
9/27/2021 1:30:00 AM 10.82 51.476 0.066 6.92 2.18 10.56
9/27/2021 1:45:00 AM 10.79 51.422 0.066 6.87 2.34 10.56
9/27/2021 2:00:00 AM 10.76 51.368 0.066 6.92 2.23 10.57
9/27/2021 2:15:00 AM 10.74 51.332 0.066 6.92 2.28 10.58
9/27/2021 2:30:00 AM 10.71 51.278 0.066 6.92 2.2 10.58
9/27/2021 2:45:00 AM 10.7 51.26 0.066 6.9 2.17 10.59
9/27/2021 3:00:00 AM 10.68 51.224 0.066 6.91 2.19 10.59
9/27/2021 3:15:00 AM 10.65 51.17 0.066 6.92 2.14 10.6
9/27/2021 3:30:00 AM 10.64 51.152 0.066 6.89 2.15 10.61
9/27/2021 3:45:00 AM 10.63 51.134 0.066 6.91 2.06 10.61
9/27/2021 4:00:00 AM 10.62 51.116 0.066 6.88 2.16 10.61
9/27/2021 4:15:00 AM 10.61 51.098 0.066 6.92 2.03 10.62
9/27/2021 4:30:00 AM 10.61 51.098 0.066 6.92 2.04 10.62
9/27/2021 4:45:00 AM 10.61 51.098 0.066 6.92 2.17 10.62
9/27/2021 5:00:00 AM 10.62 51.116 0.066 6.92 2.14 10.62
9/27/2021 5:15:00 AM 10.63 51.134 0.066 6.92 2.08 10.62
9/27/2021 5:30:00 AM 10.63 51.134 0.066 6.92 2.1 10.62
9/27/2021 5:45:00 AM 10.64 51.152 0.066 6.93 2.09 10.61
9/27/2021 6:00:00 AM 10.65 51.17 0.064 6.89 3.66 10.61
9/27/2021 6:15:00 AM 10.65 51.17 0.066 6.91 2.06 10.61
9/27/2021 6:30:00 AM 10.65 51.17 0.066 6.92 1.99 10.61
9/27/2021 6:45:00 AM 10.64 51.152 0.066 6.92 1.9 10.61
9/27/2021 7:00:00 AM 10.63 51.134 0.066 6.91 2.03 10.61
9/27/2021 7:15:00 AM 10.62 51.116 0.066 6.92 1.99 10.62
9/27/2021 7:30:00 AM 10.61 51.098 0.062 6.89 3.41 10.62
9/27/2021 7:45:00 AM 10.6 51.08 0.066 6.92 1.94 10.63
9/27/2021 8:00:00 AM 10.59 51.062 0.066 6.93 1.9 10.64
9/27/2021 8:15:00 AM 10.59 51.062 0.066 6.94 1.86 10.65
9/27/2021 8:30:00 AM 10.59 51.062 0.066 6.94 1.86 10.66
9/27/2021 8:45:00 AM 10.6 51.08 0.066 6.94 1.79 10.66
9/27/2021 9:00:00 AM 10.63 51.134 0.066 6.95 1.82 10.67
9/27/2021 9:15:00 AM 10.67 51.206 0.066 6.91 1.75 10.67
9/27/2021 9:30:00 AM 10.72 51.296 0.066 6.97 1.65 10.67
9/27/2021 9:45:00 AM 10.78 51.404 0.066 6.98 1.7 10.66
9/27/2021 10:00:00 AM 10.86 51.548 0.066 6.99 1.65 10.65
9/27/2021 10:15:00 AM 10.94 51.692 0.066 6.99 1.71 10.64
9/27/2021 10:30:00 AM 11.04 51.872 0.066 7 1.7 10.62
9/27/2021 10:45:00 AM 11.14 52.052 0.066 7.01 1.64 10.6
9/27/2021 11:00:00 AM 11.25 52.25 0.066 7.01 4.73 10.58
9/27/2021 11:15:00 AM 11.37 52.466 0.066 7.02 3.23 10.55
9/27/2021 11:30:00 AM 11.5 52.7 0.066 7.03 3.2 10.52
9/27/2021 11:45:00 AM 11.64 52.952 0.066 7.04 3.89 10.5
9/27/2021 12:00:00 PM 11.77 53.186 0.066 7.03 3.86 10.47
9/27/2021 12:15:00 PM 11.9 53.42 0.066 7.05 16.65 10.43
9/27/2021 12:30:00 PM 12.03 53.654 0.066 7.01 12.07 10.4
9/27/2021 12:45:00 PM 12.15 53.87 0.066 7.05 8.19 10.38
9/27/2021 1:00:00 PM 12.27 54.086 0.066 7.05 6.58 10.35
9/27/2021 1:15:00 PM 12.37 54.266 0.066 7.05 10.66 10.32
9/27/2021 1:30:00 PM 12.46 54.428 0.066 7.05 3.33 10.3
9/27/2021 1:45:00 PM 12.56 54.608 0.066 7.06 3.19 10.27
9/27/2021 2:00:00 PM 12.65 54.77 0.066 7.05 2.65 10.24
9/27/2021 2:15:00 PM 12.72 54.896 0.066 7.05 2.1 10.22
9/27/2021 2:30:00 PM 12.79 55.022 0.066 7.04 1.97 10.19
9/27/2021 2:45:00 PM 12.86 55.148 0.066 7.05 1.86 10.17
9/27/2021 3:00:00 PM 12.94 55.292 0.066 7.04 1.96 10.15
9/27/2021 3:15:00 PM 13 55.4 0.066 7.03 1.89 10.13
9/27/2021 3:30:00 PM 13.05 55.49 0.066 7.03 1.94 10.11
9/27/2021 3:45:00 PM 13.1 55.58 0.066 7.04 1.9 10.09
9/27/2021 4:00:00 PM 13.15 55.67 0.066 7.04 1.86 10.08
9/27/2021 4:15:00 PM 13.2 55.76 0.066 7.03 1.97 10.05
9/27/2021 4:30:00 PM 13.21 55.778 0.066 7.02 1.86 10.05
9/27/2021 4:45:00 PM 13.21 55.778 0.066 6.99 1.87 10.05
9/27/2021 5:00:00 PM 13.2 55.76 0.066 7 1.79 10.04
9/27/2021 5:15:00 PM 13.19 55.742 0.066 7 1.8 10.03
9/27/2021 5:30:00 PM 13.18 55.724 0.066 7 1.84 10.03
9/27/2021 5:45:00 PM 13.17 55.706 0.066 6.99 1.81 10.02
9/27/2021 6:00:00 PM 13.14 55.652 0.067 6.98 1.76 10.02
9/27/2021 6:15:00 PM 13.08 55.544 0.067 6.98 1.82 10.01
9/27/2021 6:30:00 PM 13.03 55.454 0.067 6.96 1.91 10.01
9/27/2021 6:45:00 PM 12.98 55.364 0.067 6.96 1.74 10.01
9/27/2021 7:00:00 PM 12.92 55.256 0.067 6.89 1.78 10.02
9/27/2021 7:15:00 PM 12.86 55.148 0.067 6.94 1.84 10.01
9/27/2021 7:30:00 PM 12.8 55.04 0.067 6.93 1.88 10.02
9/27/2021 7:45:00 PM 12.74 54.932 0.067 6.93 1.84 10.03
9/27/2021 8:00:00 PM 12.68 54.824 0.067 6.91 1.98 10.04
9/27/2021 8:15:00 PM 12.62 54.716 0.067 6.93 1.94 10.05
9/27/2021 8:30:00 PM 12.56 54.608 0.065 6.89 3.55 10.06
9/27/2021 8:45:00 PM 12.5 54.5 0.067 6.9 1.88 10.08
9/27/2021 9:00:00 PM 12.45 54.41 0.067 6.88 2.05 10.09
9/27/2021 9:15:00 PM 12.39 54.302 0.064 6.91 3.52 10.11
9/27/2021 9:30:00 PM 12.34 54.212 0.067 6.89 1.94 10.12
9/27/2021 9:45:00 PM 12.28 54.104 0.067 6.92 2.02 10.13
9/27/2021 10:00:00 PM 12.23 54.014 0.067 6.91 2.03 10.15
9/27/2021 10:15:00 PM 12.18 53.924 0.067 6.92 1.95 10.16
9/27/2021 10:30:00 PM 12.13 53.834 0.068 6.91 1.93 10.17
9/27/2021 10:45:00 PM 12.08 53.744 0.068 6.88 1.92 10.18
9/27/2021 11:00:00 PM 12.03 53.654 0.068 6.91 1.93 10.19
9/27/2021 11:15:00 PM 11.99 53.582 0.068 6.92 1.97 10.2
9/27/2021 11:30:00 PM 11.94 53.492 0.068 6.91 1.92 10.21
9/27/2021 11:45:00 PM 11.9 53.42 0.068 6.91 2 10.22
9/28/2021 12:00:00 AM 11.86 53.348 0.068 6.91 1.92 10.23
9/28/2021 12:15:00 AM 11.83 53.294 0.068 6.91 1.88 10.25
9/28/2021 12:30:00 AM 11.79 53.222 0.068 6.92 1.91 10.25
9/28/2021 12:45:00 AM 11.76 53.168 0.068 6.92 1.88 10.26
9/28/2021 1:00:00 AM 11.72 53.096 0.068 6.92 1.9 10.26
9/28/2021 1:15:00 AM 11.69 53.042 0.066 6.9 3.44 10.27
9/28/2021 1:30:00 AM 11.67 53.006 0.068 6.92 1.96 10.28
9/28/2021 1:45:00 AM 11.64 52.952 0.068 6.9 1.86 10.29
9/28/2021 2:00:00 AM 11.62 52.916 0.068 6.92 1.9 10.29
9/28/2021 2:15:00 AM 11.61 52.898 0.068 6.91 1.92 10.3
9/28/2021 2:30:00 AM 11.59 52.862 0.068 6.93 2 10.3
9/28/2021 2:45:00 AM 11.58 52.844 0.068 6.91 1.9 10.31
9/28/2021 3:00:00 AM 11.57 52.826 0.068 6.92 1.92 10.31
9/28/2021 3:15:00 AM 11.56 52.808 0.068 6.92 1.88 10.32
9/28/2021 3:30:00 AM 11.55 52.79 0.068 6.93 1.83 10.31
9/28/2021 3:45:00 AM 11.55 52.79 0.068 6.92 1.84 10.31
9/28/2021 4:00:00 AM 11.54 52.772 0.068 6.92 1.75 10.31
9/28/2021 4:15:00 AM 11.54 52.772 0.068 6.89 1.82 10.31
9/28/2021 4:30:00 AM 11.53 52.754 0.068 6.91 1.85 10.31
9/28/2021 4:45:00 AM 11.52 52.736 0.068 6.91 1.79 10.31
9/28/2021 5:00:00 AM 11.51 52.718 0.068 6.91 1.69 10.31
9/28/2021 5:15:00 AM 11.5 52.7 0.068 6.91 1.77 10.31
9/28/2021 5:30:00 AM 11.5 52.7 0.068 6.91 1.64 10.31
9/28/2021 5:45:00 AM 11.49 52.682 0.068 6.91 1.68 10.32
9/28/2021 6:00:00 AM 11.48 52.664 0.068 6.91 1.77 10.32
9/28/2021 6:15:00 AM 11.47 52.646 0.068 6.91 1.72 10.33
9/28/2021 6:30:00 AM 11.45 52.61 0.068 6.91 1.67 10.33
9/28/2021 6:45:00 AM 11.44 52.592 0.068 6.87 1.73 10.32
9/28/2021 7:00:00 AM 11.43 52.574 0.068 6.88 1.69 10.34
9/28/2021 7:15:00 AM 11.43 52.574 0.068 6.92 1.66 10.35
9/28/2021 7:30:00 AM 11.43 52.574 0.068 6.91 1.61 10.35
9/28/2021 7:45:00 AM 11.43 52.574 0.068 6.91 1.62 10.35
9/28/2021 8:00:00 AM 11.43 52.574 0.068 6.91 1.57 10.35
9/28/2021 8:15:00 AM 11.43 52.574 0.067 6.88 3.08 10.35
9/28/2021 8:30:00 AM 11.44 52.592 0.068 6.92 1.59 10.36
9/28/2021 8:45:00 AM 11.46 52.628 0.068 6.92 2.11 10.35
9/28/2021 9:00:00 AM 11.49 52.682 0.067 6.92 2.07 10.35
9/28/2021 9:15:00 AM 11.52 52.736 0.067 6.93 2.05 10.37
9/28/2021 9:30:00 AM 11.56 52.808 0.067 6.92 3.07 10.37
9/28/2021 9:45:00 AM 11.64 52.952 0.067 6.93 4.54 10.39
9/28/2021 10:00:00 AM 11.67 53.006 0.066 6.91 5.88 10.37
9/28/2021 10:15:00 AM 11.73 53.114 0.064 6.9 7.69 10.35
9/28/2021 10:30:00 AM 11.82 53.276 0.063 6.86 8.39 10.33
9/28/2021 10:45:00 AM 11.9 53.42 0.063 6.9 7.47 10.3
9/28/2021 11:00:00 AM 11.95 53.51 0.064 6.92 6.54 10.3
9/28/2021 11:15:00 AM 12.01 53.618 0.065 6.95 5.95 10.29
9/28/2021 11:30:00 AM 12.07 53.726 0.066 6.95 5.7 10.29
9/28/2021 11:45:00 AM 12.09 53.762 0.066 6.96 5.23 10.27
9/28/2021 12:00:00 PM 12.1 53.78 0.067 6.95 5.35 10.26
9/28/2021 12:15:00 PM 12.14 53.852 0.063 6.92 6.72 10.26
9/28/2021 12:30:00 PM 12.19 53.942 0.067 6.98 5.12 10.26
9/28/2021 12:45:00 PM 12.25 54.05 0.067 7 4.79 10.26
9/28/2021 1:00:00 PM 12.31 54.158 0.067 7 4.33 10.27
9/28/2021 1:15:00 PM 12.35 54.23 0.066 6.97 5.41 10.26
9/28/2021 1:30:00 PM 12.36 54.248 0.066 6.98 5.08 10.26
9/28/2021 1:45:00 PM 12.37 54.266 0.067 6.98 3.62 10.27
9/28/2021 2:00:00 PM 12.38 54.284 0.067 7.01 3.43 10.27
9/28/2021 2:15:00 PM 12.39 54.302 0.067 7 3.36 10.27
9/28/2021 2:30:00 PM 12.41 54.338 0.067 7.02 3.31 10.27
9/28/2021 2:45:00 PM 12.4 54.32 0.067 7.01 3.22 10.26
9/28/2021 3:00:00 PM 12.41 54.338 0.067 7.01 3.09 10.26
9/28/2021 3:15:00 PM 12.45 54.41 0.068 6.98 3.04 10.24
9/28/2021 3:30:00 PM 12.51 54.518 0.068 7.04 2.92 10.24
9/28/2021 3:45:00 PM 12.53 54.554 0.068 7.03 2.92 10.24
9/28/2021 4:00:00 PM 12.53 54.554 0.064 7 4.39 10.22
9/28/2021 4:15:00 PM 12.56 54.608 0.068 7.03 2.98 10.22
9/28/2021 4:30:00 PM 12.58 54.644 0.066 7 4.29 10.21
9/28/2021 4:45:00 PM 12.58 54.644 0.068 7.02 2.53 10.19
9/28/2021 5:00:00 PM 12.58 54.644 0.064 6.99 3.98 10.18
9/28/2021 5:15:00 PM 12.56 54.608 0.068 7.01 2.36 10.17
9/28/2021 5:30:00 PM 12.53 54.554 0.068 7.01 2.21 10.16
9/28/2021 5:45:00 PM 12.51 54.518 0.068 7 2.11 10.17
9/28/2021 6:00:00 PM 12.45 54.41 0.068 6.99 2.02 10.17
9/28/2021 6:15:00 PM 12.38 54.284 0.068 7 1.95 10.16
9/28/2021 6:30:00 PM 12.32 54.176 0.068 6.99 1.85 10.17
9/28/2021 6:45:00 PM 12.27 54.086 0.068 6.99 1.75 10.18
9/28/2021 7:00:00 PM 12.21 53.978 0.068 6.98 1.74 10.19
9/28/2021 7:15:00 PM 12.14 53.852 0.068 6.98 1.73 10.2
9/28/2021 7:30:00 PM 12.07 53.726 0.065 6.95 3.29 10.21
9/28/2021 7:45:00 PM 12.01 53.618 0.068 6.94 2.01 10.22
9/28/2021 8:00:00 PM 11.94 53.492 0.068 6.96 1.94 10.24
9/28/2021 8:15:00 PM 11.88 53.384 0.068 6.96 2 10.25
9/28/2021 8:30:00 PM 11.82 53.276 0.068 6.96 1.93 10.26
9/28/2021 8:45:00 PM 11.76 53.168 0.064 6.94 3.34 10.28
9/28/2021 9:00:00 PM 11.71 53.078 0.068 6.95 1.78 10.29
9/28/2021 9:15:00 PM 11.66 52.988 0.068 6.95 1.94 10.31
9/28/2021 9:30:00 PM 11.6 52.88 0.069 6.96 1.98 10.32
9/28/2021 9:45:00 PM 11.54 52.772 0.069 6.96 2.03 10.34
9/28/2021 10:00:00 PM 11.48 52.664 0.069 6.93 1.95 10.36
9/28/2021 10:15:00 PM 11.43 52.574 0.069 6.95 2.03 10.37
9/28/2021 10:30:00 PM 11.37 52.466 0.069 6.96 1.93 10.38
9/28/2021 10:45:00 PM 11.31 52.358 0.069 6.96 1.9 10.4
9/28/2021 11:00:00 PM 11.25 52.25 0.069 6.96 1.86 10.42
9/28/2021 11:15:00 PM 11.2 52.16 0.069 6.96 1.87 10.43
9/28/2021 11:30:00 PM 11.15 52.07 0.067 6.96 3.48 10.44
9/28/2021 11:45:00 PM 11.1 51.98 0.069 6.97 1.82 10.46
9/29/2021 12:00:00 AM 11.04 51.872 0.069 6.96 1.84 10.47
9/29/2021 12:15:00 AM 11 51.8 0.069 6.96 1.8 10.49
9/29/2021 12:30:00 AM 10.95 51.71 0.069 6.96 1.8 10.5
9/29/2021 12:45:00 AM 10.91 51.638 0.069 6.96 1.89 10.52
9/29/2021 1:00:00 AM 10.88 51.584 0.069 6.97 1.74 10.53
9/29/2021 1:15:00 AM 10.84 51.512 0.069 6.97 1.82 10.53
9/29/2021 1:30:00 AM 10.8 51.44 0.069 6.98 1.87 10.54
9/29/2021 1:45:00 AM 10.77 51.386 0.069 6.97 1.74 10.55
9/29/2021 2:00:00 AM 10.72 51.296 0.069 6.97 1.75 10.56
9/29/2021 2:15:00 AM 10.68 51.224 0.069 6.96 1.71 10.58
9/29/2021 2:30:00 AM 10.63 51.134 0.069 6.97 1.71 10.59
9/29/2021 2:45:00 AM 10.59 51.062 0.069 6.97 1.81 10.59
9/29/2021 3:00:00 AM 10.55 50.99 0.069 6.97 1.65 10.61
9/29/2021 3:15:00 AM 10.5 50.9 0.069 6.97 1.75 10.62
9/29/2021 3:30:00 AM 10.46 50.828 0.069 6.96 1.64 10.63
9/29/2021 3:45:00 AM 10.42 50.756 0.069 6.97 1.68 10.64
9/29/2021 4:00:00 AM 10.38 50.684 0.069 6.96 1.66 10.65
9/29/2021 4:15:00 AM 10.33 50.594 0.069 6.97 1.68 10.66
9/29/2021 4:30:00 AM 10.28 50.504 0.069 6.97 1.79 10.68
9/29/2021 4:45:00 AM 10.23 50.414 0.069 6.97 1.71 10.68
9/29/2021 5:00:00 AM 10.18 50.324 0.069 6.96 1.72 10.7
9/29/2021 5:15:00 AM 10.13 50.234 0.069 6.97 1.7 10.71
9/29/2021 5:30:00 AM 10.08 50.144 0.069 6.95 1.67 10.74
9/29/2021 5:45:00 AM 10.03 50.054 0.069 6.95 1.69 10.75
9/29/2021 6:00:00 AM 9.98 49.964 0.069 6.97 1.71 10.76
9/29/2021 6:15:00 AM 9.93 49.874 0.069 6.97 1.65 10.78
9/29/2021 6:30:00 AM 9.88 49.784 0.069 6.97 1.7 10.78
9/29/2021 6:45:00 AM 9.84 49.712 0.069 6.97 1.79 10.8
9/29/2021 7:00:00 AM 9.79 49.622 0.069 6.92 1.77 10.82
9/29/2021 7:15:00 AM 9.74 49.532 0.069 6.97 1.66 10.83
9/29/2021 7:30:00 AM 9.7 49.46 0.069 6.93 1.71 10.85
9/29/2021 7:45:00 AM 9.66 49.388 0.069 6.98 3.3 10.87
9/29/2021 8:00:00 AM 9.62 49.316 0.069 6.98 7.27 10.89
9/29/2021 8:15:00 AM 9.6 49.28 0.069 6.99 2.94 10.91
9/29/2021 8:30:00 AM 9.59 49.262 0.069 6.98 2.63 10.93
9/29/2021 8:45:00 AM 9.58 49.244 0.069 6.97 7.35 10.94
9/29/2021 9:00:00 AM 9.58 49.244 0.069 7.01 5.57 10.95
9/29/2021 9:15:00 AM 9.61 49.298 0.069 7 3.69 10.96
9/29/2021 9:30:00 AM 9.65 49.37 0.07 7.02 4.92 10.97
9/29/2021 9:45:00 AM 9.71 49.478 0.07 7.04 4.45 10.97
9/29/2021 10:00:00 AM 9.79 49.622 0.07 7.05 3.03 10.97
9/29/2021 10:15:00 AM 9.88 49.784 0.07 7.04 2.54 10.96
9/29/2021 10:30:00 AM 9.98 49.964 0.07 7.06 10.92 10.94
9/29/2021 10:45:00 AM 10.07 50.126 0.07 7.06 8.96 10.92
9/29/2021 11:00:00 AM 10.2 50.36 0.07 7.08 6.56 10.91
9/29/2021 11:15:00 AM 10.32 50.576 0.07 7.08 12.51 10.88
9/29/2021 11:30:00 AM 10.47 50.846 0.069 7.09 8.47 10.86
9/29/2021 11:45:00 AM 10.62 51.116 0.069 7.07 4.25 10.82
9/29/2021 12:00:00 PM 10.77 51.386 0.069 7.1 7.65 10.79
9/29/2021 12:15:00 PM 10.94 51.692 0.069 7.12 10.06 10.74
9/29/2021 12:30:00 PM 11.08 51.944 0.069 7.13 4.59 10.72
9/29/2021 12:45:00 PM 11.21 52.178 0.069 7.13 12.62 10.67
9/29/2021 1:00:00 PM 11.34 52.412 0.069 7.13 8.55 10.64
9/29/2021 1:15:00 PM 11.45 52.61 0.069 7.13 4.23 10.61
9/29/2021 1:30:00 PM 11.57 52.826 0.069 7.13 3.26 10.58
9/29/2021 1:45:00 PM 11.66 52.988 0.07 7.13 13.24 10.56
9/29/2021 2:00:00 PM 11.75 53.15 0.069 7.13 4.92 10.54
9/29/2021 2:15:00 PM 11.85 53.33 0.069 7.09 4.27 10.51
9/29/2021 2:30:00 PM 11.93 53.474 0.069 7.13 6.96 10.47
9/29/2021 2:45:00 PM 11.93 53.474 0.069 7.09 5.84 10.45
9/29/2021 3:00:00 PM 11.95 53.51 0.069 7.1 2.94 10.43
9/29/2021 3:15:00 PM 11.95 53.51 0.069 7.09 2.31 10.42
9/29/2021 3:30:00 PM 12.01 53.618 0.069 7.1 2.19 10.4
9/29/2021 3:45:00 PM 12.05 53.69 0.069 7.09 1.95 10.39
9/29/2021 4:00:00 PM 12.09 53.762 0.069 7.09 1.93 10.38
9/29/2021 4:15:00 PM 12.11 53.798 0.069 7.09 1.84 10.37
9/29/2021 4:30:00 PM 12.09 53.762 0.069 7.07 1.85 10.35
9/29/2021 4:45:00 PM 12.09 53.762 0.065 7.03 3.29 10.34
9/29/2021 5:00:00 PM 12.1 53.78 0.069 7.07 1.71 10.33
9/29/2021 5:15:00 PM 12.11 53.798 0.069 7.08 1.72 10.33
9/29/2021 5:30:00 PM 12.08 53.744 0.07 7.05 1.62 10.32
9/29/2021 5:45:00 PM 12.03 53.654 0.07 7.01 1.66 10.31
9/29/2021 6:00:00 PM 11.98 53.564 0.07 7.05 1.59 10.32
9/29/2021 6:15:00 PM 11.91 53.438 0.07 7.03 1.63 10.32
9/29/2021 6:30:00 PM 11.85 53.33 0.07 7.03 1.55 10.32
9/29/2021 6:45:00 PM 11.79 53.222 0.07 7.03 1.59 10.33
9/29/2021 7:00:00 PM 11.72 53.096 0.068 6.98 3.1 10.33
9/29/2021 7:15:00 PM 11.64 52.952 0.07 7.01 1.6 10.35
9/29/2021 7:30:00 PM 11.57 52.826 0.07 7.01 1.6 10.36
9/29/2021 7:45:00 PM 11.49 52.682 0.07 7 1.62 10.38
9/29/2021 8:00:00 PM 11.42 52.556 0.07 6.97 1.75 10.39
9/29/2021 8:15:00 PM 11.35 52.43 0.07 7 1.7 10.41
9/29/2021 8:30:00 PM 11.29 52.322 0.07 6.99 1.72 10.42
9/29/2021 8:45:00 PM 11.22 52.196 0.07 7 1.62 10.44
9/29/2021 9:00:00 PM 11.16 52.088 0.07 7 1.71 10.45
9/29/2021 9:15:00 PM 11.1 51.98 0.07 7 1.7 10.47
9/29/2021 9:30:00 PM 11.03 51.854 0.07 7 1.68 10.49
9/29/2021 9:45:00 PM 10.97 51.746 0.07 7 1.67 10.5
9/29/2021 10:00:00 PM 10.91 51.638 0.07 7 1.64 10.52
9/29/2021 10:15:00 PM 10.85 51.53 0.07 6.99 1.64 10.53
9/29/2021 10:30:00 PM 10.79 51.422 0.07 7 1.88 10.55
9/29/2021 10:45:00 PM 10.75 51.35 0.07 6.99 1.68 10.57
9/29/2021 11:00:00 PM 10.7 51.26 0.07 7.01 1.67 10.57
9/29/2021 11:15:00 PM 10.66 51.188 0.07 7 1.65 10.59
9/29/2021 11:30:00 PM 10.61 51.098 0.07 7 1.54 10.61
9/29/2021 11:45:00 PM 10.58 51.044 0.07 7 1.64 10.62
9/30/2021 12:00:00 AM 10.55 50.99 0.071 6.97 1.61 10.63
9/30/2021 12:15:00 AM 10.52 50.936 0.071 7.01 1.61 10.64
9/30/2021 12:30:00 AM 10.5 50.9 0.071 7.01 1.65 10.64
9/30/2021 12:45:00 AM 10.47 50.846 0.071 7.01 1.63 10.65
9/30/2021 1:00:00 AM 10.45 50.81 0.071 7 1.64 10.65
9/30/2021 1:15:00 AM 10.44 50.792 0.071 7.01 1.6 10.66
9/30/2021 1:30:00 AM 10.42 50.756 0.071 7.01 1.56 10.67
9/30/2021 1:45:00 AM 10.4 50.72 0.071 7 1.54 10.67
9/30/2021 2:00:00 AM 10.37 50.666 0.071 7 1.51 10.67
9/30/2021 2:15:00 AM 10.34 50.612 0.071 7 1.54 10.68
9/30/2021 2:30:00 AM 10.31 50.558 0.071 7 1.51 10.69
9/30/2021 2:45:00 AM 10.28 50.504 0.071 7 1.44 10.7
9/30/2021 3:00:00 AM 10.24 50.432 0.071 7 1.48 10.7
9/30/2021 3:15:00 AM 10.21 50.378 0.071 6.99 1.47 10.72
9/30/2021 3:30:00 AM 10.17 50.306 0.071 7 1.42 10.72
9/30/2021 3:45:00 AM 10.14 50.252 0.071 7 1.52 10.73
9/30/2021 4:00:00 AM 10.1 50.18 0.071 6.95 1.42 10.74
9/30/2021 4:15:00 AM 10.07 50.126 0.071 7 1.4 10.74
9/30/2021 4:30:00 AM 10.03 50.054 0.071 7 1.51 10.76
9/30/2021 4:45:00 AM 10 50 0.071 7 1.74 10.77
9/30/2021 5:00:00 AM 9.96 49.928 0.071 7 1.53 10.77
9/30/2021 5:15:00 AM 9.92 49.856 0.071 6.98 1.34 10.79
9/30/2021 5:30:00 AM 9.89 49.802 0.071 7 1.47 10.79
9/30/2021 5:45:00 AM 9.86 49.748 0.071 7 1.38 10.81
9/30/2021 6:00:00 AM 9.84 49.712 0.071 6.97 1.42 10.81
9/30/2021 6:15:00 AM 9.83 49.694 0.071 7 1.39 10.82
9/30/2021 6:30:00 AM 9.82 49.676 0.071 6.95 1.36 10.82
9/30/2021 6:45:00 AM 9.81 49.658 0.071 7.01 1.36 10.83
9/30/2021 7:00:00 AM 9.8 49.64 0.071 6.96 1.39 10.83
9/30/2021 7:15:00 AM 9.79 49.622 0.071 7.01 1.37 10.84
9/30/2021 7:30:00 AM 9.79 49.622 0.071 7.01 1.3 10.85
9/30/2021 7:45:00 AM 9.79 49.622 0.071 7.01 1.36 10.86
9/30/2021 8:00:00 AM 9.8 49.64 0.071 7 1.27 10.87
9/30/2021 8:15:00 AM 9.8 49.64 0.071 7.01 1.25 10.89
9/30/2021 8:30:00 AM 9.81 49.658 0.071 7.04 1.31 10.91
9/30/2021 8:45:00 AM 9.83 49.694 0.071 7.04 1.27 10.91
9/30/2021 9:00:00 AM 9.86 49.748 0.071 7.05 1.26 10.92
9/30/2021 9:15:00 AM 9.89 49.802 0.071 7.04 1.17 10.91
9/30/2021 9:30:00 AM 9.94 49.892 0.071 7.01 1.24 10.94
9/30/2021 9:45:00 AM 9.99 49.982 0.071 7.07 1.25 10.93
9/30/2021 10:00:00 AM 10.06 50.108 0.071 7.09 1.2 10.94